Time,TemperatureF,DewpointF,PressureIn,WindDirection,WindDirectionDegrees,WindSpeedMPH,WindSpeedGustMPH,Humidity,HourlyPrecipIn,Conditions,Clouds,dailyrainin,SoftwareType,DateUTC
2013-11-05 00:00:00,51.9,28.4,30.30,SSW,211,4.0,9.0,40,0.00,,---,0.00,VWS V14.01,2013-11-05 05:00:00,
2013-11-05 00:01:00,51.9,29.0,30.30,SSW,203,6.0,7.0,41,0.00,,---,0.00,VWS V14.01,2013-11-05 05:01:00,
2013-11-05 00:02:00,51.8,28.3,30.30,West,270,3.0,7.0,40,0.00,,---,0.00,VWS V14.01,2013-11-05 05:02:00,
2013-11-05 00:03:00,51.8,28.3,30.30,WSW,252,1.0,7.0,40,0.00,,---,0.00,VWS V14.01,2013-11-05 05:03:00,
2013-11-05 00:04:00,51.8,28.9,30.30,SSW,210,7.0,7.0,41,0.00,,---,0.00,VWS V14.01,2013-11-05 05:04:00,
2013-11-05 00:05:00,51.9,28.4,30.30,SSW,201,10.0,11.0,40,0.00,,---,0.00,VWS V14.01,2013-11-05 05:05:00,
2013-11-05 00:06:00,51.9,29.0,30.30,SSW,192,4.0,11.0,41,0.00,,---,0.00,VWS V14.01,2013-11-05 05:06:00,
2013-11-05 00:07:00,51.8,28.3,30.30,SSW,197,5.0,11.0,40,0.00,,---,0.00,VWS V14.01,2013-11-05 05:07:00,
2013-11-05 00:08:00,51.7,28.2,30.30,SSE,161,3.0,11.0,40,0.00,,---,0.00,VWS V14.01,2013-11-05 05:08:00,
2013-11-05 00:09:00,51.8,28.9,30.30,South,189,2.0,11.0,41,0.00,,---,0.00,VWS V14.01,2013-11-05 05:09:00,
2013-11-05 00:10:00,51.9,30.1,30.30,South,183,5.0,11.0,43,0.00,,---,0.00,VWS V14.01,2013-11-05 05:10:00,
2013-11-05 00:11:00,52.0,28.5,30.30,SW,217,4.0,7.0,40,0.00,,---,0.00,VWS V14.01,2013-11-05 05:11:00,
2013-11-05 00:12:00,52.0,29.0,30.30,West,277,1.0,13.0,41,0.00,,---,0.00,VWS V14.01,2013-11-05 05:12:00,
2013-11-05 00:13:00,51.9,29.0,30.30,SW,228,3.0,13.0,41,0.00,,---,0.00,VWS V14.01,2013-11-05 05:13:00,
2013-11-05 00:14:00,51.9,28.4,30.30,South,173,2.0,13.0,40,0.00,,---,0.00,VWS V14.01,2013-11-05 05:14:00,
2013-11-05 00:15:00,51.6,28.1,30.29,SSW,198,4.0,13.0,40,0.00,,---,0.00,VWS V14.01,2013-11-05 05:15:00,
2013-11-05 00:16:00,51.5,28.0,30.29,WSW,246,5.0,13.0,40,0.00,,---,0.00,VWS V14.01,2013-11-05 05:16:00,
2013-11-05 00:17:00,51.4,28.5,30.29,SSW,210,5.0,13.0,41,0.00,,---,0.00,VWS V14.01,2013-11-05 05:17:00,
2013-11-05 00:18:00,51.3,28.4,30.29,SSW,198,3.0,13.0,41,0.00,,---,0.00,VWS V14.01,2013-11-05 05:18:00,
2013-11-05 00:19:00,51.2,28.9,30.29,SSW,206,4.0,13.0,42,0.00,,---,0.00,VWS V14.01,2013-11-05 05:19:00,
2013-11-05 00:20:00,51.1,28.8,30.29,SSW,205,5.0,13.0,42,0.00,,---,0.00,VWS V14.01,2013-11-05 05:20:00,
2013-11-05 00:21:00,51.0,28.1,30.29,SSW,200,4.0,6.0,41,0.00,,---,0.00,VWS V14.01,2013-11-05 05:21:00,
2013-11-05 00:22:00,50.9,28.6,30.29,South,188,8.0,8.0,42,0.00,,---,0.00,VWS V14.01,2013-11-05 05:22:00,
2013-11-05 00:23:00,50.8,28.5,30.29,South,190,3.0,8.0,42,0.00,,---,0.00,VWS V14.01,2013-11-05 05:23:00,
2013-11-05 00:24:00,50.9,29.2,30.29,SSW,206,2.0,8.0,43,0.00,,---,0.00,VWS V14.01,2013-11-05 05:24:00,
2013-11-05 00:25:00,51.0,29.3,30.29,SE,144,3.0,8.0,43,0.00,,---,0.00,VWS V14.01,2013-11-05 05:25:00,
2013-11-05 00:26:00,51.1,28.8,30.29,SSE,166,0.0,8.0,42,0.00,,---,0.00,VWS V14.01,2013-11-05 05:26:00,
2013-11-05 00:27:00,51.2,29.5,30.29,WSW,247,3.0,8.0,43,0.00,,---,0.00,VWS V14.01,2013-11-05 05:27:00,
2013-11-05 00:28:00,51.3,29.6,30.29,SSW,210,3.0,8.0,43,0.00,,---,0.00,VWS V14.01,2013-11-05 05:28:00,
2013-11-05 00:29:00,51.4,30.8,30.29,WSW,251,3.0,8.0,45,0.00,,---,0.00,VWS V14.01,2013-11-05 05:29:00,
2013-11-05 00:30:00,51.7,29.4,30.29,WSW,237,3.0,8.0,42,0.00,,---,0.00,VWS V14.01,2013-11-05 05:30:00,
2013-11-05 00:31:00,51.8,29.5,30.29,WSW,248,1.0,3.0,42,0.00,,---,0.00,VWS V14.01,2013-11-05 05:31:00,
2013-11-05 00:32:00,51.9,29.5,30.29,SW,229,4.0,5.0,42,0.00,,---,0.00,VWS V14.01,2013-11-05 05:32:00,
2013-11-05 00:33:00,52.2,30.4,30.29,SSW,196,2.0,5.0,43,0.00,,---,0.00,VWS V14.01,2013-11-05 05:33:00,
2013-11-05 00:34:00,52.4,30.6,30.29,SSW,200,0.0,5.0,43,0.00,,---,0.00,VWS V14.01,2013-11-05 05:34:00,
2013-11-05 00:35:00,52.8,30.4,30.29,WSW,248,3.0,7.0,42,0.00,,---,0.00,VWS V14.01,2013-11-05 05:35:00,
2013-11-05 00:36:00,53.0,30.0,30.29,SW,226,4.0,7.0,41,0.00,,---,0.00,VWS V14.01,2013-11-05 05:36:00,
2013-11-05 00:37:00,53.1,30.0,30.29,WSW,239,2.0,9.0,41,0.00,,---,0.00,VWS V14.01,2013-11-05 05:37:00,
2013-11-05 00:38:00,53.1,30.0,30.29,SW,214,4.0,9.0,41,0.00,,---,0.00,VWS V14.01,2013-11-05 05:38:00,
2013-11-05 00:39:00,53.1,29.4,30.29,South,188,5.0,9.0,40,0.00,,---,0.00,VWS V14.01,2013-11-05 05:39:00,
2013-11-05 00:40:00,52.9,28.6,30.29,WSW,257,5.0,11.0,39,0.00,,---,0.00,VWS V14.01,2013-11-05 05:40:00,
2013-11-05 00:41:00,52.8,28.5,30.29,SW,233,10.0,10.0,39,0.00,,---,0.00,VWS V14.01,2013-11-05 05:41:00,
2013-11-05 00:42:00,52.5,27.6,30.29,SSE,167,7.0,11.0,38,0.00,,---,0.00,VWS V14.01,2013-11-05 05:42:00,
2013-11-05 00:43:00,52.3,28.1,30.29,SW,220,3.0,15.0,39,0.00,,---,0.00,VWS V14.01,2013-11-05 05:43:00,
2013-11-05 00:44:00,52.1,27.3,30.28,SSW,213,3.0,15.0,38,0.00,,---,0.00,VWS V14.01,2013-11-05 05:44:00,
2013-11-05 00:45:00,52.1,28.5,30.28,SW,216,1.0,15.0,40,0.00,,---,0.00,VWS V14.01,2013-11-05 05:45:00,
2013-11-05 00:46:00,52.2,28.0,30.28,SSW,213,9.0,15.0,39,0.00,,---,0.00,VWS V14.01,2013-11-05 05:46:00,
2013-11-05 00:47:00,52.3,28.1,30.28,WSW,242,7.0,15.0,39,0.00,,---,0.00,VWS V14.01,2013-11-05 05:47:00,
2013-11-05 00:48:00,52.4,28.2,30.28,SSW,206,7.0,15.0,39,0.00,,---,0.00,VWS V14.01,2013-11-05 05:48:00,
2013-11-05 00:49:00,52.3,27.5,30.28,WSW,242,10.0,15.0,38,0.00,,---,0.00,VWS V14.01,2013-11-05 05:49:00,
2013-11-05 00:50:00,52.4,29.4,30.28,WSW,252,3.0,15.0,41,0.00,,---,0.00,VWS V14.01,2013-11-05 05:50:00,
2013-11-05 00:51:00,52.6,28.4,30.28,South,186,5.0,7.0,39,0.00,,---,0.00,VWS V14.01,2013-11-05 05:51:00,
2013-11-05 00:52:00,52.8,29.2,30.28,SSW,205,5.0,11.0,40,0.00,,---,0.00,VWS V14.01,2013-11-05 05:52:00,
2013-11-05 00:53:00,52.7,28.5,30.28,SSW,213,4.0,11.0,39,0.00,,---,0.00,VWS V14.01,2013-11-05 05:53:00,
2013-11-05 00:54:00,52.8,29.2,30.28,SSE,159,3.0,11.0,40,0.00,,---,0.00,VWS V14.01,2013-11-05 05:54:00,
2013-11-05 00:55:00,52.6,28.4,30.28,SSE,160,4.0,11.0,39,0.00,,---,0.00,VWS V14.01,2013-11-05 05:55:00,
2013-11-05 00:56:00,52.5,28.9,30.28,SW,228,10.0,11.0,40,0.00,,---,0.00,VWS V14.01,2013-11-05 05:56:00,
2013-11-05 00:57:00,52.4,30.0,30.28,SSW,197,7.0,11.0,42,0.00,,---,0.00,VWS V14.01,2013-11-05 05:57:00,
2013-11-05 00:58:00,52.5,28.9,30.28,SE,144,5.0,14.0,40,0.00,,---,0.00,VWS V14.01,2013-11-05 05:58:00,
2013-11-05 00:59:00,52.6,29.6,30.28,SSW,211,4.0,14.0,41,0.00,,---,0.00,VWS V14.01,2013-11-05 05:59:00,
2013-11-05 01:00:00,52.7,29.1,30.27,SW,233,13.0,14.0,40,0.00,,---,0.00,VWS V14.01,2013-11-05 06:00:00,
2013-11-05 01:01:00,52.8,29.2,30.27,SSW,209,2.0,13.0,40,0.00,,---,0.00,VWS V14.01,2013-11-05 06:01:00,
2013-11-05 01:02:00,52.9,28.6,30.27,South,180,6.0,13.0,39,0.00,,---,0.00,VWS V14.01,2013-11-05 06:02:00,
2013-11-05 01:03:00,52.9,29.9,30.27,SW,225,6.0,13.0,41,0.00,,---,0.00,VWS V14.01,2013-11-05 06:03:00,
2013-11-05 01:04:00,52.8,29.8,30.27,WNW,288,2.0,13.0,41,0.00,,---,0.00,VWS V14.01,2013-11-05 06:04:00,
2013-11-05 01:05:00,52.9,30.5,30.27,WSW,243,13.0,14.0,42,0.00,,---,0.00,VWS V14.01,2013-11-05 06:05:00,
2013-11-05 01:06:00,53.1,30.0,30.27,WNW,288,2.0,14.0,41,0.00,,---,0.00,VWS V14.01,2013-11-05 06:06:00,
2013-11-05 01:07:00,53.3,30.2,30.27,SE,128,5.0,14.0,41,0.00,,---,0.00,VWS V14.01,2013-11-05 06:07:00,
2013-11-05 01:08:00,53.6,29.9,30.27,SW,227,5.0,14.0,40,0.00,,---,0.00,VWS V14.01,2013-11-05 06:08:00,
2013-11-05 01:09:00,53.8,30.1,30.27,SSW,211,9.0,14.0,40,0.00,,---,0.00,VWS V14.01,2013-11-05 06:09:00,
2013-11-05 01:10:00,54.1,30.3,30.27,SSW,213,12.0,14.0,40,0.00,,---,0.00,VWS V14.01,2013-11-05 06:10:00,
2013-11-05 01:11:00,54.2,30.4,30.27,SW,229,4.0,13.0,40,0.00,,---,0.00,VWS V14.01,2013-11-05 06:11:00,
2013-11-05 01:12:00,54.4,30.0,30.27,SW,220,4.0,13.0,39,0.00,,---,0.00,VWS V14.01,2013-11-05 06:12:00,
2013-11-05 01:13:00,54.5,30.7,30.27,SSW,205,3.0,13.0,40,0.00,,---,0.00,VWS V14.01,2013-11-05 06:13:00,
2013-11-05 01:14:00,54.5,30.7,30.26,SSE,148,3.0,13.0,40,0.00,,---,0.00,VWS V14.01,2013-11-05 06:14:00,
2013-11-05 01:15:00,54.4,29.3,30.26,West,273,4.0,13.0,38,0.00,,---,0.00,VWS V14.01,2013-11-05 06:15:00,
2013-11-05 01:16:00,54.3,29.2,30.26,South,182,6.0,13.0,38,0.00,,---,0.00,VWS V14.01,2013-11-05 06:16:00,
2013-11-05 01:17:00,54.1,29.7,30.26,South,178,0.0,13.0,39,0.00,,---,0.00,VWS V14.01,2013-11-05 06:17:00,
2013-11-05 01:18:00,53.9,29.5,30.26,SE,146,1.0,13.0,39,0.00,,---,0.00,VWS V14.01,2013-11-05 06:18:00,
2013-11-05 01:19:00,53.7,29.4,30.26,South,190,0.0,13.0,39,0.00,,---,0.00,VWS V14.01,2013-11-05 06:19:00,
2013-11-05 01:20:00,53.7,30.6,30.26,South,169,4.0,4.0,41,0.00,,---,0.00,VWS V14.01,2013-11-05 06:20:00,
2013-11-05 01:21:00,53.6,29.9,30.26,South,181,3.0,5.0,40,0.00,,---,0.00,VWS V14.01,2013-11-05 06:21:00,
2013-11-05 01:22:00,53.6,30.5,30.26,West,269,3.0,5.0,41,0.00,,---,0.00,VWS V14.01,2013-11-05 06:22:00,
2013-11-05 01:23:00,53.6,29.9,30.26,West,265,1.0,5.0,40,0.00,,---,0.00,VWS V14.01,2013-11-05 06:23:00,
2013-11-05 01:24:00,53.7,30.0,30.26,SSW,202,7.0,7.0,40,0.00,,---,0.00,VWS V14.01,2013-11-05 06:24:00,
2013-11-05 01:25:00,53.7,30.0,30.26,SSW,211,10.0,15.0,40,0.00,,---,0.00,VWS V14.01,2013-11-05 06:25:00,
2013-11-05 01:26:00,53.7,28.7,30.26,South,187,8.0,15.0,38,0.00,,---,0.00,VWS V14.01,2013-11-05 06:26:00,
2013-11-05 01:27:00,53.6,29.3,30.26,SSW,211,1.0,15.0,39,0.00,,---,0.00,VWS V14.01,2013-11-05 06:27:00,
2013-11-05 01:28:00,53.5,29.2,30.26,SE,130,4.0,15.0,39,0.00,,---,0.00,VWS V14.01,2013-11-05 06:28:00,
2013-11-05 01:29:00,53.5,29.2,30.26,SSE,162,5.0,15.0,39,0.00,,---,0.00,VWS V14.01,2013-11-05 06:29:00,
2013-11-05 01:30:00,53.6,29.3,30.25,WSW,241,2.0,15.0,39,0.00,,---,0.00,VWS V14.01,2013-11-05 06:30:00,
2013-11-05 01:31:00,53.7,29.4,30.25,SW,229,10.0,12.0,39,0.00,,---,0.00,VWS V14.01,2013-11-05 06:31:00,
2013-11-05 01:32:00,53.8,28.8,30.25,SW,234,4.0,12.0,38,0.00,,---,0.00,VWS V14.01,2013-11-05 06:32:00,
2013-11-05 01:33:00,54.0,29.0,30.25,SW,236,3.0,12.0,38,0.00,,---,0.00,VWS V14.01,2013-11-05 06:33:00,
2013-11-05 01:34:00,54.1,29.1,30.25,SSW,202,2.0,12.0,38,0.00,,---,0.00,VWS V14.01,2013-11-05 06:34:00,
2013-11-05 01:35:00,54.2,29.8,30.25,WNW,294,3.0,12.0,39,0.00,,---,0.00,VWS V14.01,2013-11-05 06:35:00,
2013-11-05 01:36:00,54.4,30.0,30.25,SSW,209,5.0,12.0,39,0.00,,---,0.00,VWS V14.01,2013-11-05 06:36:00,
2013-11-05 01:37:00,54.5,30.1,30.25,SE,135,10.0,15.0,39,0.00,,---,0.00,VWS V14.01,2013-11-05 06:37:00,
2013-11-05 01:38:00,54.4,28.7,30.25,SSW,208,9.0,15.0,37,0.00,,---,0.00,VWS V14.01,2013-11-05 06:38:00,
2013-11-05 01:39:00,54.4,28.7,30.25,SSW,202,9.0,15.0,37,0.00,,---,0.00,VWS V14.01,2013-11-05 06:39:00,
2013-11-05 01:40:00,54.4,30.0,30.25,WSW,238,12.0,15.0,39,0.00,,---,0.00,VWS V14.01,2013-11-05 06:40:00,
2013-11-05 01:41:00,54.4,28.7,30.25,SSW,196,7.0,12.0,37,0.00,,---,0.00,VWS V14.01,2013-11-05 06:41:00,
2013-11-05 01:42:00,54.4,29.3,30.25,SSW,204,4.0,12.0,38,0.00,,---,0.00,VWS V14.01,2013-11-05 06:42:00,
2013-11-05 01:43:00,54.4,29.3,30.25,WSW,239,2.0,12.0,38,0.00,,---,0.00,VWS V14.01,2013-11-05 06:43:00,
2013-11-05 01:44:00,54.4,28.7,30.24,SSW,193,2.0,12.0,37,0.00,,---,0.00,VWS V14.01,2013-11-05 06:44:00,
2013-11-05 01:45:00,54.5,29.4,30.24,SSW,196,6.0,12.0,38,0.00,,---,0.00,VWS V14.01,2013-11-05 06:45:00,
2013-11-05 01:46:00,54.6,28.9,30.24,SSW,197,6.0,12.0,37,0.00,,---,0.00,VWS V14.01,2013-11-05 06:46:00,
2013-11-05 01:47:00,54.6,29.5,30.24,South,191,4.0,12.0,38,0.00,,---,0.00,VWS V14.01,2013-11-05 06:47:00,
2013-11-05 01:48:00,54.8,29.0,30.24,SSW,198,12.0,15.0,37,0.00,,---,0.00,VWS V14.01,2013-11-05 06:48:00,
2013-11-05 01:49:00,54.8,29.7,30.24,SSW,203,8.0,15.0,38,0.00,,---,0.00,VWS V14.01,2013-11-05 06:49:00,
2013-11-05 01:50:00,54.7,28.3,30.24,SSW,209,9.0,15.0,36,0.00,,---,0.00,VWS V14.01,2013-11-05 06:50:00,
2013-11-05 01:51:00,54.6,28.9,30.24,SW,234,8.0,14.0,37,0.00,,---,0.00,VWS V14.01,2013-11-05 06:51:00,
2013-11-05 01:52:00,54.5,29.4,30.24,SSW,208,4.0,14.0,38,0.00,,---,0.00,VWS V14.01,2013-11-05 06:52:00,
2013-11-05 01:53:00,54.5,29.4,30.24,South,190,4.0,14.0,38,0.00,,---,0.00,VWS V14.01,2013-11-05 06:53:00,
2013-11-05 01:54:00,54.5,30.1,30.24,SW,217,2.0,14.0,39,0.00,,---,0.00,VWS V14.01,2013-11-05 06:54:00,
2013-11-05 01:55:00,54.7,29.6,30.24,SSW,209,2.0,14.0,38,0.00,,---,0.00,VWS V14.01,2013-11-05 06:55:00,
2013-11-05 01:56:00,55.0,31.1,30.24,SSW,198,2.0,14.0,40,0.00,,---,0.00,VWS V14.01,2013-11-05 06:56:00,
2013-11-05 01:57:00,55.1,30.6,30.24,SSW,198,6.0,14.0,39,0.00,,---,0.00,VWS V14.01,2013-11-05 06:57:00,
2013-11-05 01:58:00,55.2,29.4,30.24,West,259,4.0,14.0,37,0.00,,---,0.00,VWS V14.01,2013-11-05 06:58:00,
2013-11-05 01:59:00,55.1,30.6,30.24,SSW,202,8.0,14.0,39,0.00,,---,0.00,VWS V14.01,2013-11-05 06:59:00,
2013-11-05 02:00:00,55.0,29.2,30.24,WSW,256,3.0,14.0,37,0.00,,---,0.00,VWS V14.01,2013-11-05 07:00:00,
2013-11-05 02:01:00,54.9,29.8,30.24,SW,233,7.0,9.0,38,0.00,,---,0.00,VWS V14.01,2013-11-05 07:01:00,
2013-11-05 02:02:00,54.9,30.4,30.24,SSW,192,1.0,9.0,39,0.00,,---,0.00,VWS V14.01,2013-11-05 07:02:00,
2013-11-05 02:03:00,54.8,29.7,30.24,SW,219,1.0,9.0,38,0.00,,---,0.00,VWS V14.01,2013-11-05 07:03:00,
2013-11-05 02:04:00,54.9,29.8,30.24,South,186,5.0,9.0,38,0.00,,---,0.00,VWS V14.01,2013-11-05 07:04:00,
2013-11-05 02:05:00,54.8,29.0,30.24,SSW,199,0.0,9.0,37,0.00,,---,0.00,VWS V14.01,2013-11-05 07:05:00,
2013-11-05 02:06:00,54.6,30.2,30.24,SSW,198,4.0,9.0,39,0.00,,---,0.00,VWS V14.01,2013-11-05 07:06:00,
2013-11-05 02:07:00,54.6,29.5,30.24,SSW,203,6.0,9.0,38,0.00,,---,0.00,VWS V14.01,2013-11-05 07:07:00,
2013-11-05 02:08:00,54.6,29.5,30.24,WSW,238,8.0,12.0,38,0.00,,---,0.00,VWS V14.01,2013-11-05 07:08:00,
2013-11-05 02:09:00,54.8,29.7,30.24,West,279,5.0,12.0,38,0.00,,---,0.00,VWS V14.01,2013-11-05 07:09:00,
2013-11-05 02:10:00,55.2,30.7,30.24,West,267,4.0,12.0,39,0.00,,---,0.00,VWS V14.01,2013-11-05 07:10:00,
2013-11-05 02:11:00,55.7,30.5,30.24,West,265,5.0,11.0,38,0.00,,---,0.00,VWS V14.01,2013-11-05 07:11:00,
2013-11-05 02:12:00,56.0,30.1,30.24,West,278,2.0,11.0,37,0.00,,---,0.00,VWS V14.01,2013-11-05 07:12:00,
2013-11-05 02:13:00,56.4,31.8,30.24,SSE,166,6.0,11.0,39,0.00,,---,0.00,VWS V14.01,2013-11-05 07:13:00,
2013-11-05 02:14:00,56.4,29.8,30.23,SW,215,7.0,11.0,36,0.00,,---,0.00,VWS V14.01,2013-11-05 07:14:00,
2013-11-05 02:15:00,56.4,29.8,30.23,SW,218,7.0,14.0,36,0.00,,---,0.00,VWS V14.01,2013-11-05 07:15:00,
2013-11-05 02:16:00,56.2,30.3,30.23,SSW,213,9.0,14.0,37,0.00,,---,0.00,VWS V14.01,2013-11-05 07:16:00,
2013-11-05 02:17:00,56.2,30.3,30.23,SW,217,2.0,14.0,37,0.00,,---,0.00,VWS V14.01,2013-11-05 07:17:00,
2013-11-05 02:18:00,56.6,31.3,30.23,South,174,0.0,14.0,38,0.00,,---,0.00,VWS V14.01,2013-11-05 07:18:00,
2013-11-05 02:19:00,56.8,30.1,30.23,South,172,0.0,14.0,36,0.00,,---,0.00,VWS V14.01,2013-11-05 07:19:00,
2013-11-05 02:20:00,56.8,30.1,30.23,SW,217,1.0,14.0,36,0.00,,---,0.00,VWS V14.01,2013-11-05 07:20:00,
2013-11-05 02:21:00,57.0,31.0,30.23,SSW,198,0.0,2.0,37,0.00,,---,0.00,VWS V14.01,2013-11-05 07:21:00,
2013-11-05 02:22:00,57.1,32.4,30.23,SW,236,5.0,11.0,39,0.00,,---,0.00,VWS V14.01,2013-11-05 07:22:00,
2013-11-05 02:23:00,57.1,30.4,30.23,West,277,4.0,11.0,36,0.00,,---,0.00,VWS V14.01,2013-11-05 07:23:00,
2013-11-05 02:24:00,56.9,30.2,30.23,South,186,2.0,11.0,36,0.00,,---,0.00,VWS V14.01,2013-11-05 07:24:00,
2013-11-05 02:25:00,56.7,30.7,30.23,SSE,150,5.0,11.0,37,0.00,,---,0.00,VWS V14.01,2013-11-05 07:25:00,
2013-11-05 02:26:00,56.6,31.3,30.23,SE,128,1.0,11.0,38,0.00,,---,0.00,VWS V14.01,2013-11-05 07:26:00,
2013-11-05 02:27:00,56.6,30.0,30.23,South,178,1.0,11.0,36,0.00,,---,0.00,VWS V14.01,2013-11-05 07:27:00,
2013-11-05 02:28:00,56.8,30.8,30.23,SSW,205,2.0,11.0,37,0.00,,---,0.00,VWS V14.01,2013-11-05 07:28:00,
2013-11-05 02:29:00,57.0,30.3,30.23,South,191,10.0,12.0,36,0.00,,---,0.00,VWS V14.01,2013-11-05 07:29:00,
2013-11-05 02:30:00,57.2,30.5,30.23,SW,232,11.0,11.0,36,0.00,,---,0.00,VWS V14.01,2013-11-05 07:30:00,
2013-11-05 02:31:00,57.2,31.2,30.23,SSW,209,7.0,13.0,37,0.00,,---,0.00,VWS V14.01,2013-11-05 07:31:00,
2013-11-05 02:32:00,57.0,30.3,30.23,SSW,210,5.0,14.0,36,0.00,,---,0.00,VWS V14.01,2013-11-05 07:32:00,
2013-11-05 02:33:00,56.7,30.7,30.23,SSE,164,2.0,14.0,37,0.00,,---,0.00,VWS V14.01,2013-11-05 07:33:00,
2013-11-05 02:34:00,56.6,30.6,30.23,SSW,196,9.0,14.0,37,0.00,,---,0.00,VWS V14.01,2013-11-05 07:34:00,
2013-11-05 02:35:00,56.4,29.8,30.23,South,183,4.0,14.0,36,0.00,,---,0.00,VWS V14.01,2013-11-05 07:35:00,
2013-11-05 02:36:00,56.2,29.6,30.23,SW,219,2.0,14.0,36,0.00,,---,0.00,VWS V14.01,2013-11-05 07:36:00,
2013-11-05 02:37:00,56.1,31.5,30.23,SSW,198,4.0,14.0,39,0.00,,---,0.00,VWS V14.01,2013-11-05 07:37:00,
2013-11-05 02:38:00,55.9,30.7,30.23,SSW,206,5.0,14.0,38,0.00,,---,0.00,VWS V14.01,2013-11-05 07:38:00,
2013-11-05 02:39:00,55.9,30.7,30.23,WSW,243,5.0,14.0,38,0.00,,---,0.00,VWS V14.01,2013-11-05 07:39:00,
2013-11-05 02:40:00,55.9,30.7,30.23,SW,215,3.0,14.0,38,0.00,,---,0.00,VWS V14.01,2013-11-05 07:40:00,
2013-11-05 02:41:00,55.9,30.7,30.23,South,181,6.0,6.0,38,0.00,,---,0.00,VWS V14.01,2013-11-05 07:41:00,
2013-11-05 02:42:00,55.9,30.0,30.23,SSE,153,4.0,10.0,37,0.00,,---,0.00,VWS V14.01,2013-11-05 07:42:00,
2013-11-05 02:43:00,55.8,31.2,30.23,South,178,7.0,10.0,39,0.00,,---,0.00,VWS V14.01,2013-11-05 07:43:00,
2013-11-05 02:44:00,55.8,30.6,30.21,SSW,202,12.0,12.0,38,0.00,,---,0.00,VWS V14.01,2013-11-05 07:44:00,
2013-11-05 02:45:00,55.8,29.9,30.21,SSE,159,4.0,12.0,37,0.00,,---,0.00,VWS V14.01,2013-11-05 07:45:00,
2013-11-05 02:46:00,55.7,29.9,30.21,SSW,204,5.0,12.0,37,0.00,,---,0.00,VWS V14.01,2013-11-05 07:46:00,
2013-11-05 02:47:00,55.6,30.4,30.21,SSW,195,6.0,12.0,38,0.00,,---,0.00,VWS V14.01,2013-11-05 07:47:00,
2013-11-05 02:48:00,55.7,31.1,30.21,South,179,5.0,12.0,39,0.00,,---,0.00,VWS V14.01,2013-11-05 07:48:00,
2013-11-05 02:49:00,55.6,30.4,30.21,SSW,209,5.0,12.0,38,0.00,,---,0.00,VWS V14.01,2013-11-05 07:49:00,
2013-11-05 02:50:00,55.6,30.4,30.21,SW,214,7.0,12.0,38,0.00,,---,0.00,VWS V14.01,2013-11-05 07:50:00,
2013-11-05 02:51:00,55.6,30.4,30.21,SSE,161,3.0,7.0,38,0.00,,---,0.00,VWS V14.01,2013-11-05 07:51:00,
2013-11-05 02:52:00,55.5,30.3,30.21,SSW,209,11.0,11.0,38,0.00,,---,0.00,VWS V14.01,2013-11-05 07:52:00,
2013-11-05 02:53:00,55.4,30.2,30.21,West,271,5.0,11.0,38,0.00,,---,0.00,VWS V14.01,2013-11-05 07:53:00,
2013-11-05 02:54:00,55.4,30.2,30.21,South,178,6.0,11.0,38,0.00,,---,0.00,VWS V14.01,2013-11-05 07:54:00,
2013-11-05 02:55:00,55.3,30.8,30.21,SSW,203,5.0,11.0,39,0.00,,---,0.00,VWS V14.01,2013-11-05 07:55:00,
2013-11-05 02:56:00,55.3,30.1,30.21,SW,225,8.0,11.0,38,0.00,,---,0.00,VWS V14.01,2013-11-05 07:56:00,
2013-11-05 02:57:00,55.2,30.1,30.21,SSE,164,3.0,11.0,38,0.00,,---,0.00,VWS V14.01,2013-11-05 07:57:00,
2013-11-05 02:58:00,55.3,31.4,30.21,SW,219,4.0,11.0,40,0.00,,---,0.00,VWS V14.01,2013-11-05 07:58:00,
2013-11-05 02:59:00,55.2,30.1,30.21,SW,226,3.0,11.0,38,0.00,,---,0.00,VWS V14.01,2013-11-05 07:59:00,
2013-11-05 03:00:00,55.2,29.4,30.21,SW,225,2.0,11.0,37,0.00,,---,0.00,VWS V14.01,2013-11-05 08:00:00,
2013-11-05 03:01:00,55.2,30.1,30.21,West,265,5.0,7.0,38,0.00,,---,0.00,VWS V14.01,2013-11-05 08:01:00,
2013-11-05 03:02:00,55.2,29.4,30.21,WNW,282,7.0,7.0,37,0.00,,---,0.00,VWS V14.01,2013-11-05 08:02:00,
2013-11-05 03:03:00,55.3,29.5,30.21,WSW,250,3.0,10.0,37,0.00,,---,0.00,VWS V14.01,2013-11-05 08:03:00,
2013-11-05 03:04:00,55.3,29.5,30.21,SW,229,3.0,10.0,37,0.00,,---,0.00,VWS V14.01,2013-11-05 08:04:00,
2013-11-05 03:05:00,55.3,30.1,30.21,SW,225,2.0,10.0,38,0.00,,---,0.00,VWS V14.01,2013-11-05 08:05:00,
2013-11-05 03:06:00,55.3,30.1,30.21,West,260,1.0,10.0,38,0.00,,---,0.00,VWS V14.01,2013-11-05 08:06:00,
2013-11-05 03:07:00,55.3,30.1,30.21,SSW,208,3.0,10.0,38,0.00,,---,0.00,VWS V14.01,2013-11-05 08:07:00,
2013-11-05 03:08:00,55.3,30.1,30.21,SSW,200,4.0,10.0,38,0.00,,---,0.00,VWS V14.01,2013-11-05 08:08:00,
2013-11-05 03:09:00,55.3,30.1,30.21,SE,144,4.0,10.0,38,0.00,,---,0.00,VWS V14.01,2013-11-05 08:09:00,
2013-11-05 03:10:00,55.2,30.7,30.21,South,191,4.0,10.0,39,0.00,,---,0.00,VWS V14.01,2013-11-05 08:10:00,
2013-11-05 03:11:00,55.1,30.0,30.21,SSW,213,3.0,7.0,38,0.00,,---,0.00,VWS V14.01,2013-11-05 08:11:00,
2013-11-05 03:12:00,55.1,30.0,30.21,SSW,198,1.0,7.0,38,0.00,,---,0.00,VWS V14.01,2013-11-05 08:12:00,
2013-11-05 03:13:00,55.2,30.7,30.21,WSW,242,4.0,7.0,39,0.00,,---,0.00,VWS V14.01,2013-11-05 08:13:00,
2013-11-05 03:14:00,55.3,30.8,30.21,SSW,202,7.0,7.0,39,0.00,,---,0.00,VWS V14.01,2013-11-05 08:14:00,
2013-11-05 03:15:00,55.3,30.1,30.21,SW,217,5.0,9.0,38,0.00,,---,0.00,VWS V14.01,2013-11-05 08:15:00,
2013-11-05 03:16:00,55.3,30.8,30.21,SSW,206,2.0,9.0,39,0.00,,---,0.00,VWS V14.01,2013-11-05 08:16:00,
2013-11-05 03:17:00,55.4,30.9,30.21,SSW,212,5.0,10.0,39,0.00,,---,0.00,VWS V14.01,2013-11-05 08:17:00,
2013-11-05 03:18:00,55.4,30.2,30.21,SSW,204,5.0,10.0,38,0.00,,---,0.00,VWS V14.01,2013-11-05 08:18:00,
2013-11-05 03:19:00,55.5,31.0,30.21,SW,229,9.0,10.0,39,0.00,,---,0.00,VWS V14.01,2013-11-05 08:19:00,
2013-11-05 03:20:00,55.6,30.4,30.21,SSW,211,2.0,10.0,38,0.00,,---,0.00,VWS V14.01,2013-11-05 08:20:00,
2013-11-05 03:21:00,55.7,30.5,30.21,South,189,1.0,6.0,38,0.00,,---,0.00,VWS V14.01,2013-11-05 08:21:00,
2013-11-05 03:22:00,55.8,29.9,30.21,West,281,3.0,6.0,37,0.00,,---,0.00,VWS V14.01,2013-11-05 08:22:00,
2013-11-05 03:23:00,55.9,30.0,30.21,SW,216,3.0,6.0,37,0.00,,---,0.00,VWS V14.01,2013-11-05 08:23:00,
2013-11-05 03:24:00,55.9,30.7,30.21,SSW,198,5.0,6.0,38,0.00,,---,0.00,VWS V14.01,2013-11-05 08:24:00,
2013-11-05 03:25:00,55.9,30.0,30.21,SSW,213,3.0,11.0,37,0.00,,---,0.00,VWS V14.01,2013-11-05 08:25:00,
2013-11-05 03:26:00,55.9,30.0,30.21,SSW,213,4.0,11.0,37,0.00,,---,0.00,VWS V14.01,2013-11-05 08:26:00,
2013-11-05 03:27:00,55.9,30.0,30.21,WSW,256,3.0,11.0,37,0.00,,---,0.00,VWS V14.01,2013-11-05 08:27:00,
2013-11-05 03:28:00,55.9,30.7,30.21,SW,225,3.0,12.0,38,0.00,,---,0.00,VWS V14.01,2013-11-05 08:28:00,
2013-11-05 03:29:00,56.0,30.8,30.20,SSW,202,3.0,12.0,38,0.00,,---,0.00,VWS V14.01,2013-11-05 08:29:00,
2013-11-05 03:30:00,56.0,30.8,30.20,SSW,204,10.0,13.0,38,0.00,,---,0.00,VWS V14.01,2013-11-05 08:30:00,
2013-11-05 03:31:00,55.9,30.0,30.20,SW,215,6.0,11.0,37,0.00,,---,0.00,VWS V14.01,2013-11-05 08:31:00,
2013-11-05 03:32:00,55.8,29.9,30.20,SW,227,1.0,11.0,37,0.00,,---,0.00,VWS V14.01,2013-11-05 08:32:00,
2013-11-05 03:33:00,55.7,29.9,30.20,SSW,207,4.0,11.0,37,0.00,,---,0.00,VWS V14.01,2013-11-05 08:33:00,
2013-11-05 03:34:00,55.7,30.5,30.20,West,281,4.0,11.0,38,0.00,,---,0.00,VWS V14.01,2013-11-05 08:34:00,
2013-11-05 03:35:00,55.6,29.8,30.20,SSW,208,4.0,11.0,37,0.00,,---,0.00,VWS V14.01,2013-11-05 08:35:00,
2013-11-05 03:36:00,55.6,30.4,30.20,South,183,6.0,11.0,38,0.00,,---,0.00,VWS V14.01,2013-11-05 08:36:00,
2013-11-05 03:37:00,55.6,30.4,30.20,SW,221,3.0,11.0,38,0.00,,---,0.00,VWS V14.01,2013-11-05 08:37:00,
2013-11-05 03:38:00,55.7,30.5,30.20,SW,232,5.0,11.0,38,0.00,,---,0.00,VWS V14.01,2013-11-05 08:38:00,
2013-11-05 03:39:00,55.7,30.5,30.20,WSW,247,5.0,11.0,38,0.00,,---,0.00,VWS V14.01,2013-11-05 08:39:00,
2013-11-05 03:40:00,55.7,30.5,30.20,SW,217,6.0,12.0,38,0.00,,---,0.00,VWS V14.01,2013-11-05 08:40:00,
2013-11-05 03:41:00,55.6,30.4,30.20,West,269,3.0,7.0,38,0.00,,---,0.00,VWS V14.01,2013-11-05 08:41:00,
2013-11-05 03:42:00,55.5,30.3,30.20,SSW,201,8.0,10.0,38,0.00,,---,0.00,VWS V14.01,2013-11-05 08:42:00,
2013-11-05 03:43:00,55.4,30.2,30.20,SW,220,1.0,10.0,38,0.00,,---,0.00,VWS V14.01,2013-11-05 08:43:00,
2013-11-05 03:44:00,55.4,30.9,30.20,SW,222,4.0,14.0,39,0.00,,---,0.00,VWS V14.01,2013-11-05 08:44:00,
2013-11-05 03:45:00,55.3,30.1,30.20,SSW,211,0.0,14.0,38,0.00,,---,0.00,VWS V14.01,2013-11-05 08:45:00,
2013-11-05 03:46:00,55.4,30.9,30.20,SSW,204,4.0,14.0,39,0.00,,---,0.00,VWS V14.01,2013-11-05 08:46:00,
2013-11-05 03:47:00,55.4,30.9,30.20,WSW,246,9.0,14.0,39,0.00,,---,0.00,VWS V14.01,2013-11-05 08:47:00,
2013-11-05 03:48:00,55.5,31.0,30.20,SSW,211,5.0,14.0,39,0.00,,---,0.00,VWS V14.01,2013-11-05 08:48:00,
2013-11-05 03:49:00,55.5,30.3,30.20,WSW,251,1.0,14.0,38,0.00,,---,0.00,VWS V14.01,2013-11-05 08:49:00,
2013-11-05 03:50:00,55.5,31.6,30.20,WSW,246,0.0,14.0,40,0.00,,---,0.00,VWS V14.01,2013-11-05 08:50:00,
2013-11-05 03:51:00,55.5,31.6,30.20,WSW,244,5.0,10.0,40,0.00,,---,0.00,VWS V14.01,2013-11-05 08:51:00,
2013-11-05 03:52:00,55.5,31.0,30.20,WSW,242,2.0,10.0,39,0.00,,---,0.00,VWS V14.01,2013-11-05 08:52:00,
2013-11-05 03:53:00,55.5,31.0,30.20,WNW,296,4.0,10.0,39,0.00,,---,0.00,VWS V14.01,2013-11-05 08:53:00,
2013-11-05 03:54:00,55.5,30.3,30.20,SW,227,6.0,10.0,38,0.00,,---,0.00,VWS V14.01,2013-11-05 08:54:00,
2013-11-05 03:55:00,55.5,31.0,30.20,WSW,250,4.0,10.0,39,0.00,,---,0.00,VWS V14.01,2013-11-05 08:55:00,
2013-11-05 03:56:00,55.5,31.0,30.20,WSW,240,4.0,10.0,39,0.00,,---,0.00,VWS V14.01,2013-11-05 08:56:00,
2013-11-05 03:57:00,55.6,31.7,30.20,SW,220,4.0,10.0,40,0.00,,---,0.00,VWS V14.01,2013-11-05 08:57:00,
2013-11-05 03:58:00,55.6,31.1,30.20,South,186,4.0,10.0,39,0.00,,---,0.00,VWS V14.01,2013-11-05 08:58:00,
2013-11-05 03:59:00,55.6,31.7,30.20,South,186,7.0,10.0,40,0.00,,---,0.00,VWS V14.01,2013-11-05 08:59:00,
2013-11-05 04:00:00,55.5,31.6,30.19,SSW,201,3.0,10.0,40,0.00,,---,0.00,VWS V14.01,2013-11-05 09:00:00,
2013-11-05 04:01:00,55.5,32.2,30.19,SSW,197,4.0,5.0,41,0.00,,---,0.00,VWS V14.01,2013-11-05 09:01:00,
2013-11-05 04:02:00,55.5,31.6,30.19,South,183,3.0,6.0,40,0.00,,---,0.00,VWS V14.01,2013-11-05 09:02:00,
2013-11-05 04:03:00,55.4,32.1,30.19,SSW,207,6.0,7.0,41,0.00,,---,0.00,VWS V14.01,2013-11-05 09:03:00,
2013-11-05 04:04:00,55.4,32.1,30.19,SW,221,4.0,7.0,41,0.00,,---,0.00,VWS V14.01,2013-11-05 09:04:00,
2013-11-05 04:05:00,55.4,31.5,30.19,SSW,213,6.0,9.0,40,0.00,,---,0.00,VWS V14.01,2013-11-05 09:05:00,
2013-11-05 04:06:00,55.4,30.9,30.19,SSW,212,3.0,9.0,39,0.00,,---,0.00,VWS V14.01,2013-11-05 09:06:00,
2013-11-05 04:07:00,55.4,31.5,30.19,SSE,165,5.0,9.0,40,0.00,,---,0.00,VWS V14.01,2013-11-05 09:07:00,
2013-11-05 04:08:00,55.4,31.5,30.19,SSW,199,3.0,9.0,40,0.00,,---,0.00,VWS V14.01,2013-11-05 09:08:00,
2013-11-05 04:09:00,55.4,32.1,30.19,SW,225,4.0,9.0,41,0.00,,---,0.00,VWS V14.01,2013-11-05 09:09:00,
2013-11-05 04:10:00,55.4,31.5,30.19,SW,231,3.0,9.0,40,0.00,,---,0.00,VWS V14.01,2013-11-05 09:10:00,
2013-11-05 04:11:00,55.4,30.9,30.19,WSW,252,7.0,7.0,39,0.00,,---,0.00,VWS V14.01,2013-11-05 09:11:00,
2013-11-05 04:12:00,55.4,30.9,30.19,WSW,248,4.0,7.0,39,0.00,,---,0.00,VWS V14.01,2013-11-05 09:12:00,
2013-11-05 04:13:00,55.4,30.9,30.19,WSW,244,2.0,7.0,39,0.00,,---,0.00,VWS V14.01,2013-11-05 09:13:00,
2013-11-05 04:14:00,55.4,31.5,30.19,SSW,200,9.0,9.0,40,0.00,,---,0.00,VWS V14.01,2013-11-05 09:14:00,
2013-11-05 04:15:00,55.4,31.5,30.19,SW,215,7.0,9.0,40,0.00,,---,0.00,VWS V14.01,2013-11-05 09:15:00,
2013-11-05 04:16:00,55.4,31.5,30.19,WSW,248,2.0,9.0,40,0.00,,---,0.00,VWS V14.01,2013-11-05 09:16:00,
2013-11-05 04:17:00,55.4,30.9,30.19,SW,216,5.0,10.0,39,0.00,,---,0.00,VWS V14.01,2013-11-05 09:17:00,
2013-11-05 04:18:00,55.4,30.9,30.19,SW,218,5.0,12.0,39,0.00,,---,0.00,VWS V14.01,2013-11-05 09:18:00,
2013-11-05 04:19:00,55.4,30.9,30.19,SSW,195,4.0,12.0,39,0.00,,---,0.00,VWS V14.01,2013-11-05 09:19:00,
2013-11-05 04:20:00,55.4,30.9,30.19,SSW,206,5.0,12.0,39,0.00,,---,0.00,VWS V14.01,2013-11-05 09:20:00,
2013-11-05 04:21:00,55.4,30.9,30.19,SSW,198,7.0,12.0,39,0.00,,---,0.00,VWS V14.01,2013-11-05 09:21:00,
2013-11-05 04:22:00,55.3,30.1,30.19,SW,221,5.0,12.0,38,0.00,,---,0.00,VWS V14.01,2013-11-05 09:22:00,
2013-11-05 04:23:00,55.3,31.4,30.19,WSW,240,5.0,12.0,40,0.00,,---,0.00,VWS V14.01,2013-11-05 09:23:00,
2013-11-05 04:24:00,55.3,31.4,30.19,SW,234,4.0,12.0,40,0.00,,---,0.00,VWS V14.01,2013-11-05 09:24:00,
2013-11-05 04:25:00,55.3,30.8,30.19,WSW,254,7.0,12.0,39,0.00,,---,0.00,VWS V14.01,2013-11-05 09:25:00,
2013-11-05 04:26:00,55.3,30.8,30.19,West,260,4.0,12.0,39,0.00,,---,0.00,VWS V14.01,2013-11-05 09:26:00,
2013-11-05 04:27:00,55.2,30.7,30.19,SW,223,5.0,12.0,39,0.00,,---,0.00,VWS V14.01,2013-11-05 09:27:00,
2013-11-05 04:28:00,55.1,30.6,30.19,SW,219,4.0,12.0,39,0.00,,---,0.00,VWS V14.01,2013-11-05 09:28:00,
2013-11-05 04:29:00,55.1,30.6,30.19,SSW,208,6.0,12.0,39,0.00,,---,0.00,VWS V14.01,2013-11-05 09:29:00,
2013-11-05 04:30:00,55.1,30.6,30.19,South,178,4.0,12.0,39,0.00,,---,0.00,VWS V14.01,2013-11-05 09:30:00,
2013-11-05 04:31:00,55.0,31.1,30.19,SSW,205,6.0,6.0,40,0.00,,---,0.00,VWS V14.01,2013-11-05 09:31:00,
2013-11-05 04:32:00,55.0,31.1,30.19,South,170,1.0,10.0,40,0.00,,---,0.00,VWS V14.01,2013-11-05 09:32:00,
2013-11-05 04:33:00,54.9,30.4,30.19,SW,221,3.0,10.0,39,0.00,,---,0.00,VWS V14.01,2013-11-05 09:33:00,
2013-11-05 04:34:00,54.9,30.4,30.19,South,172,0.0,10.0,39,0.00,,---,0.00,VWS V14.01,2013-11-05 09:34:00,
2013-11-05 04:35:00,54.9,30.4,30.19,SSW,198,6.0,10.0,39,0.00,,---,0.00,VWS V14.01,2013-11-05 09:35:00,
2013-11-05 04:36:00,54.8,31.0,30.19,WSW,247,3.0,10.0,40,0.00,,---,0.00,VWS V14.01,2013-11-05 09:36:00,
2013-11-05 04:37:00,54.8,30.3,30.19,WSW,254,6.0,10.0,39,0.00,,---,0.00,VWS V14.01,2013-11-05 09:37:00,
2013-11-05 04:38:00,54.8,30.3,30.19,SSW,200,5.0,10.0,39,0.00,,---,0.00,VWS V14.01,2013-11-05 09:38:00,
2013-11-05 04:39:00,54.8,30.3,30.19,SSW,209,4.0,10.0,39,0.00,,---,0.00,VWS V14.01,2013-11-05 09:39:00,
2013-11-05 04:40:00,54.8,30.3,30.19,SSW,209,4.0,10.0,39,0.00,,---,0.00,VWS V14.01,2013-11-05 09:40:00,
2013-11-05 04:41:00,54.8,30.3,30.19,SW,226,3.0,5.0,39,0.00,,---,0.00,VWS V14.01,2013-11-05 09:41:00,
2013-11-05 04:42:00,54.8,31.0,30.19,SW,232,3.0,6.0,40,0.00,,---,0.00,VWS V14.01,2013-11-05 09:42:00,
2013-11-05 04:43:00,54.8,31.0,30.19,South,186,3.0,6.0,40,0.00,,---,0.00,VWS V14.01,2013-11-05 09:43:00,
2013-11-05 04:44:00,54.8,31.0,30.19,SSW,211,2.0,6.0,40,0.00,,---,0.00,VWS V14.01,2013-11-05 09:44:00,
2013-11-05 04:45:00,54.8,30.3,30.19,SSW,205,1.0,6.0,39,0.00,,---,0.00,VWS V14.01,2013-11-05 09:45:00,
2013-11-05 04:46:00,54.8,31.0,30.19,SSW,208,3.0,6.0,40,0.00,,---,0.00,VWS V14.01,2013-11-05 09:46:00,
2013-11-05 04:47:00,54.8,30.3,30.19,SSW,200,2.0,6.0,39,0.00,,---,0.00,VWS V14.01,2013-11-05 09:47:00,
2013-11-05 04:48:00,54.8,31.0,30.19,SSW,200,2.0,6.0,40,0.00,,---,0.00,VWS V14.01,2013-11-05 09:48:00,
2013-11-05 04:49:00,54.8,31.0,30.19,SSW,203,2.0,6.0,40,0.00,,---,0.00,VWS V14.01,2013-11-05 09:49:00,
2013-11-05 04:50:00,54.8,30.3,30.19,West,267,6.0,9.0,39,0.00,,---,0.00,VWS V14.01,2013-11-05 09:50:00,
2013-11-05 04:51:00,54.8,31.0,30.19,SSW,207,4.0,6.0,40,0.00,,---,0.00,VWS V14.01,2013-11-05 09:51:00,
2013-11-05 04:52:00,54.8,31.6,30.19,South,186,1.0,6.0,41,0.00,,---,0.00,VWS V14.01,2013-11-05 09:52:00,
2013-11-05 04:53:00,54.7,30.9,30.19,West,267,3.0,6.0,40,0.00,,---,0.00,VWS V14.01,2013-11-05 09:53:00,
2013-11-05 04:54:00,54.7,30.9,30.19,WSW,256,2.0,7.0,40,0.00,,---,0.00,VWS V14.01,2013-11-05 09:54:00,
2013-11-05 04:55:00,54.7,30.9,30.19,SSE,165,6.0,7.0,40,0.00,,---,0.00,VWS V14.01,2013-11-05 09:55:00,
2013-11-05 04:56:00,54.6,30.8,30.19,SSE,147,5.0,10.0,40,0.00,,---,0.00,VWS V14.01,2013-11-05 09:56:00,
2013-11-05 04:57:00,54.6,30.2,30.19,South,173,4.0,10.0,39,0.00,,---,0.00,VWS V14.01,2013-11-05 09:57:00,
2013-11-05 04:58:00,54.6,30.8,30.19,SSW,206,3.0,10.0,40,0.00,,---,0.00,VWS V14.01,2013-11-05 09:58:00,
2013-11-05 04:59:00,54.6,30.8,30.19,SSE,158,5.0,10.0,40,0.00,,---,0.00,VWS V14.01,2013-11-05 09:59:00,
2013-11-05 05:00:00,54.6,31.4,30.19,SSW,202,7.0,11.0,41,0.00,,---,0.00,VWS V14.01,2013-11-05 10:00:00,
2013-11-05 05:01:00,54.6,30.8,30.19,SSW,208,5.0,11.0,40,0.00,,---,0.00,VWS V14.01,2013-11-05 10:01:00,
2013-11-05 05:02:00,54.5,30.7,30.19,SSW,204,5.0,11.0,40,0.00,,---,0.00,VWS V14.01,2013-11-05 10:02:00,
2013-11-05 05:03:00,54.6,30.8,30.19,SW,236,5.0,11.0,40,0.00,,---,0.00,VWS V14.01,2013-11-05 10:03:00,
2013-11-05 05:04:00,54.6,30.8,30.19,SW,225,1.0,11.0,40,0.00,,---,0.00,VWS V14.01,2013-11-05 10:04:00,
2013-11-05 05:05:00,54.6,31.4,30.19,SSE,162,2.0,11.0,41,0.00,,---,0.00,VWS V14.01,2013-11-05 10:05:00,
2013-11-05 05:06:00,54.6,31.4,30.19,South,170,2.0,11.0,41,0.00,,---,0.00,VWS V14.01,2013-11-05 10:06:00,
2013-11-05 05:07:00,54.6,31.4,30.19,SSW,213,11.0,13.0,41,0.00,,---,0.00,VWS V14.01,2013-11-05 10:07:00,
2013-11-05 05:08:00,54.5,30.7,30.19,SW,222,1.0,13.0,40,0.00,,---,0.00,VWS V14.01,2013-11-05 10:08:00,
2013-11-05 05:09:00,54.6,30.8,30.19,SSW,210,6.0,13.0,40,0.00,,---,0.00,VWS V14.01,2013-11-05 10:09:00,
2013-11-05 05:10:00,54.6,30.8,30.19,SSW,212,6.0,13.0,40,0.00,,---,0.00,VWS V14.01,2013-11-05 10:10:00,
2013-11-05 05:11:00,54.5,30.7,30.19,SSE,167,4.0,7.0,40,0.00,,---,0.00,VWS V14.01,2013-11-05 10:11:00,
2013-11-05 05:12:00,54.5,31.3,30.19,SSW,213,6.0,9.0,41,0.00,,---,0.00,VWS V14.01,2013-11-05 10:12:00,
2013-11-05 05:13:00,54.5,30.7,30.19,SSW,205,3.0,10.0,40,0.00,,---,0.00,VWS V14.01,2013-11-05 10:13:00,
2013-11-05 05:14:00,54.5,30.7,30.19,SW,217,4.0,10.0,40,0.00,,---,0.00,VWS V14.01,2013-11-05 10:14:00,
2013-11-05 05:15:00,54.5,31.3,30.19,SSW,194,4.0,10.0,41,0.00,,---,0.00,VWS V14.01,2013-11-05 10:15:00,
2013-11-05 05:16:00,54.5,30.7,30.19,SSW,192,2.0,10.0,40,0.00,,---,0.00,VWS V14.01,2013-11-05 10:16:00,
2013-11-05 05:17:00,54.4,31.8,30.19,South,186,1.0,10.0,42,0.00,,---,0.00,VWS V14.01,2013-11-05 10:17:00,
2013-11-05 05:18:00,54.4,31.8,30.19,South,171,4.0,10.0,42,0.00,,---,0.00,VWS V14.01,2013-11-05 10:18:00,
2013-11-05 05:19:00,54.4,32.4,30.19,SSW,197,2.0,10.0,43,0.00,,---,0.00,VWS V14.01,2013-11-05 10:19:00,
2013-11-05 05:20:00,54.4,31.8,30.19,SSW,201,5.0,10.0,42,0.00,,---,0.00,VWS V14.01,2013-11-05 10:20:00,
2013-11-05 05:21:00,54.3,31.1,30.19,SW,227,6.0,7.0,41,0.00,,---,0.00,VWS V14.01,2013-11-05 10:21:00,
2013-11-05 05:22:00,54.3,31.1,30.19,South,183,4.0,11.0,41,0.00,,---,0.00,VWS V14.01,2013-11-05 10:22:00,
2013-11-05 05:23:00,54.4,31.2,30.19,SSW,213,2.0,11.0,41,0.00,,---,0.00,VWS V14.01,2013-11-05 10:23:00,
2013-11-05 05:24:00,54.3,31.1,30.19,SW,219,1.0,11.0,41,0.00,,---,0.00,VWS V14.01,2013-11-05 10:24:00,
2013-11-05 05:25:00,54.3,31.1,30.19,SW,215,7.0,11.0,41,0.00,,---,0.00,VWS V14.01,2013-11-05 10:25:00,
2013-11-05 05:26:00,54.3,31.1,30.19,SW,218,0.0,11.0,41,0.00,,---,0.00,VWS V14.01,2013-11-05 10:26:00,
2013-11-05 05:27:00,54.3,31.7,30.19,SW,215,1.0,11.0,42,0.00,,---,0.00,VWS V14.01,2013-11-05 10:27:00,
2013-11-05 05:28:00,54.3,31.7,30.19,SSW,198,2.0,11.0,42,0.00,,---,0.00,VWS V14.01,2013-11-05 10:28:00,
2013-11-05 05:29:00,54.2,32.2,30.19,SSW,197,2.0,11.0,43,0.00,,---,0.00,VWS V14.01,2013-11-05 10:29:00,
2013-11-05 05:30:00,54.2,31.6,30.19,SSW,198,2.0,11.0,42,0.00,,---,0.00,VWS V14.01,2013-11-05 10:30:00,
2013-11-05 05:31:00,54.2,31.0,30.19,SW,219,0.0,4.0,41,0.00,,---,0.00,VWS V14.01,2013-11-05 10:31:00,
2013-11-05 05:32:00,54.1,31.5,30.19,SW,217,0.0,4.0,42,0.00,,---,0.00,VWS V14.01,2013-11-05 10:32:00,
2013-11-05 05:33:00,54.1,31.5,30.19,SW,227,1.0,5.0,42,0.00,,---,0.00,VWS V14.01,2013-11-05 10:33:00,
2013-11-05 05:34:00,54.1,31.5,30.19,South,179,1.0,5.0,42,0.00,,---,0.00,VWS V14.01,2013-11-05 10:34:00,
2013-11-05 05:35:00,54.1,31.5,30.19,South,171,3.0,7.0,42,0.00,,---,0.00,VWS V14.01,2013-11-05 10:35:00,
2013-11-05 05:36:00,54.1,31.5,30.19,SSW,205,4.0,7.0,42,0.00,,---,0.00,VWS V14.01,2013-11-05 10:36:00,
2013-11-05 05:37:00,54.1,31.5,30.19,South,173,1.0,7.0,42,0.00,,---,0.00,VWS V14.01,2013-11-05 10:37:00,
2013-11-05 05:38:00,54.1,31.5,30.19,SW,226,6.0,10.0,42,0.00,,---,0.00,VWS V14.01,2013-11-05 10:38:00,
2013-11-05 05:39:00,54.0,31.5,30.19,SSW,198,5.0,10.0,42,0.00,,---,0.00,VWS V14.01,2013-11-05 10:39:00,
2013-11-05 05:40:00,54.0,31.5,30.19,WSW,238,3.0,10.0,42,0.00,,---,0.00,VWS V14.01,2013-11-05 10:40:00,
2013-11-05 05:41:00,54.0,31.5,30.19,SSW,205,3.0,6.0,42,0.00,,---,0.00,VWS V14.01,2013-11-05 10:41:00,
2013-11-05 05:42:00,54.0,31.5,30.19,SW,218,1.0,6.0,42,0.00,,---,0.00,VWS V14.01,2013-11-05 10:42:00,
2013-11-05 05:43:00,54.0,31.5,30.19,SW,220,2.0,6.0,42,0.00,,---,0.00,VWS V14.01,2013-11-05 10:43:00,
2013-11-05 05:44:00,54.0,31.5,30.19,SW,217,0.0,6.0,42,0.00,,---,0.00,VWS V14.01,2013-11-05 10:44:00,
2013-11-05 05:45:00,54.0,31.5,30.19,South,174,2.0,6.0,42,0.00,,---,0.00,VWS V14.01,2013-11-05 10:45:00,
2013-11-05 05:46:00,53.9,31.9,30.19,SW,230,2.0,6.0,43,0.00,,---,0.00,VWS V14.01,2013-11-05 10:46:00,
2013-11-05 05:47:00,53.9,31.9,30.19,SW,214,0.0,6.0,43,0.00,,---,0.00,VWS V14.01,2013-11-05 10:47:00,
2013-11-05 05:48:00,53.9,31.9,30.19,SW,215,3.0,6.0,43,0.00,,---,0.00,VWS V14.01,2013-11-05 10:48:00,
2013-11-05 05:49:00,53.8,31.9,30.19,SW,215,0.0,6.0,43,0.00,,---,0.00,VWS V14.01,2013-11-05 10:49:00,
2013-11-05 05:50:00,53.8,31.9,30.19,SW,215,0.0,6.0,43,0.00,,---,0.00,VWS V14.01,2013-11-05 10:50:00,
2013-11-05 05:51:00,53.7,31.2,30.19,SW,229,0.0,4.0,42,0.00,,---,0.00,VWS V14.01,2013-11-05 10:51:00,
2013-11-05 05:52:00,53.7,31.8,30.19,SW,229,0.0,4.0,43,0.00,,---,0.00,VWS V14.01,2013-11-05 10:52:00,
2013-11-05 05:53:00,53.7,31.8,30.19,SW,229,0.0,4.0,43,0.00,,---,0.00,VWS V14.01,2013-11-05 10:53:00,
2013-11-05 05:54:00,53.6,31.7,30.19,SW,229,0.0,4.0,43,0.00,,---,0.00,VWS V14.01,2013-11-05 10:54:00,
2013-11-05 05:55:00,53.6,31.7,30.19,SW,229,0.0,4.0,43,0.00,,---,0.00,VWS V14.01,2013-11-05 10:55:00,
2013-11-05 05:56:00,53.5,31.6,30.19,SW,224,3.0,4.0,43,0.00,,---,0.00,VWS V14.01,2013-11-05 10:56:00,
2013-11-05 05:57:00,53.5,31.6,30.19,SW,224,1.0,4.0,43,0.00,,---,0.00,VWS V14.01,2013-11-05 10:57:00,
2013-11-05 05:58:00,53.4,32.0,30.19,SW,222,1.0,4.0,44,0.00,,---,0.00,VWS V14.01,2013-11-05 10:58:00,
2013-11-05 05:59:00,53.4,32.0,30.19,SW,222,3.0,4.0,44,0.00,,---,0.00,VWS V14.01,2013-11-05 10:59:00,
2013-11-05 06:00:00,53.3,31.4,30.19,South,188,5.0,6.0,43,0.00,,---,0.00,VWS V14.01,2013-11-05 11:00:00,
2013-11-05 06:01:00,53.3,31.4,30.19,South,190,0.0,5.0,43,0.00,,---,0.00,VWS V14.01,2013-11-05 11:01:00,
2013-11-05 06:02:00,53.3,32.0,30.19,SSW,207,3.0,5.0,44,0.00,,---,0.00,VWS V14.01,2013-11-05 11:02:00,
2013-11-05 06:03:00,53.2,31.9,30.19,SSW,207,2.0,5.0,44,0.00,,---,0.00,VWS V14.01,2013-11-05 11:03:00,
2013-11-05 06:04:00,53.2,31.9,30.19,SSW,207,2.0,5.0,44,0.00,,---,0.00,VWS V14.01,2013-11-05 11:04:00,
2013-11-05 06:05:00,53.2,31.9,30.19,South,191,6.0,7.0,44,0.00,,---,0.00,VWS V14.01,2013-11-05 11:05:00,
2013-11-05 06:06:00,53.2,31.3,30.19,SSW,197,2.0,7.0,43,0.00,,---,0.00,VWS V14.01,2013-11-05 11:06:00,
2013-11-05 06:07:00,53.1,31.8,30.19,SW,216,3.0,7.0,44,0.00,,---,0.00,VWS V14.01,2013-11-05 11:07:00,
2013-11-05 06:08:00,53.1,31.2,30.19,SSW,204,2.0,7.0,43,0.00,,---,0.00,VWS V14.01,2013-11-05 11:08:00,
2013-11-05 06:09:00,53.1,31.2,30.19,South,180,4.0,7.0,43,0.00,,---,0.00,VWS V14.01,2013-11-05 11:09:00,
2013-11-05 06:10:00,53.1,31.2,30.19,SSW,198,2.0,7.0,43,0.00,,---,0.00,VWS V14.01,2013-11-05 11:10:00,
2013-11-05 06:11:00,53.1,31.8,30.19,SSW,201,3.0,5.0,44,0.00,,---,0.00,VWS V14.01,2013-11-05 11:11:00,
2013-11-05 06:12:00,53.1,31.8,30.19,SSW,203,1.0,5.0,44,0.00,,---,0.00,VWS V14.01,2013-11-05 11:12:00,
2013-11-05 06:13:00,53.1,31.8,30.19,SSW,209,4.0,6.0,44,0.00,,---,0.00,VWS V14.01,2013-11-05 11:13:00,
2013-11-05 06:14:00,53.1,31.8,30.19,South,178,0.0,6.0,44,0.00,,---,0.00,VWS V14.01,2013-11-05 11:14:00,
2013-11-05 06:15:00,53.1,31.8,30.19,South,188,4.0,6.0,44,0.00,,---,0.00,VWS V14.01,2013-11-05 11:15:00,
2013-11-05 06:16:00,53.1,31.8,30.19,South,186,2.0,6.0,44,0.00,,---,0.00,VWS V14.01,2013-11-05 11:16:00,
2013-11-05 06:17:00,53.0,31.7,30.19,SSW,201,0.0,6.0,44,0.00,,---,0.00,VWS V14.01,2013-11-05 11:17:00,
2013-11-05 06:18:00,53.0,31.7,30.19,South,190,5.0,7.0,44,0.00,,---,0.00,VWS V14.01,2013-11-05 11:18:00,
2013-11-05 06:19:00,53.0,31.7,30.19,SW,214,3.0,7.0,44,0.00,,---,0.00,VWS V14.01,2013-11-05 11:19:00,
2013-11-05 06:20:00,53.0,31.7,30.19,South,188,4.0,7.0,44,0.00,,---,0.00,VWS V14.01,2013-11-05 11:20:00,
2013-11-05 06:21:00,53.0,32.2,30.19,SSW,192,2.0,5.0,45,0.00,,---,0.00,VWS V14.01,2013-11-05 11:21:00,
2013-11-05 06:22:00,52.9,31.6,30.19,South,184,1.0,11.0,44,0.00,,---,0.00,VWS V14.01,2013-11-05 11:22:00,
2013-11-05 06:23:00,52.9,31.6,30.19,SW,217,4.0,11.0,44,0.00,,---,0.00,VWS V14.01,2013-11-05 11:23:00,
2013-11-05 06:24:00,52.9,31.6,30.19,South,185,1.0,11.0,44,0.00,,---,0.00,VWS V14.01,2013-11-05 11:24:00,
2013-11-05 06:25:00,52.9,32.2,30.19,SSW,201,3.0,11.0,45,0.00,,---,0.00,VWS V14.01,2013-11-05 11:25:00,
2013-11-05 06:26:00,52.9,31.6,30.19,SSW,198,3.0,11.0,44,0.00,,---,0.00,VWS V14.01,2013-11-05 11:26:00,
2013-11-05 06:27:00,52.9,31.6,30.19,SSW,202,2.0,11.0,44,0.00,,---,0.00,VWS V14.01,2013-11-05 11:27:00,
2013-11-05 06:28:00,52.8,31.5,30.19,SSW,198,0.0,11.0,44,0.00,,---,0.00,VWS V14.01,2013-11-05 11:28:00,
2013-11-05 06:29:00,52.8,31.5,30.19,SSW,196,1.0,11.0,44,0.00,,---,0.00,VWS V14.01,2013-11-05 11:29:00,
2013-11-05 06:30:00,52.8,31.5,30.19,SW,215,0.0,11.0,44,0.00,,---,0.00,VWS V14.01,2013-11-05 11:30:00,
2013-11-05 06:31:00,52.8,31.5,30.19,SW,215,0.0,0.0,44,0.00,,---,0.00,VWS V14.01,2013-11-05 11:31:00,
2013-11-05 06:32:00,52.8,32.1,30.19,SW,234,0.0,4.0,45,0.00,,---,0.00,VWS V14.01,2013-11-05 11:32:00,
2013-11-05 06:33:00,52.7,32.0,30.19,SW,232,1.0,4.0,45,0.00,,---,0.00,VWS V14.01,2013-11-05 11:33:00,
2013-11-05 06:34:00,52.7,32.0,30.19,SSW,200,3.0,4.0,45,0.00,,---,0.00,VWS V14.01,2013-11-05 11:34:00,
2013-11-05 06:35:00,52.7,31.4,30.19,SSW,202,1.0,4.0,44,0.00,,---,0.00,VWS V14.01,2013-11-05 11:35:00,
2013-11-05 06:36:00,52.7,32.0,30.19,SW,225,0.0,4.0,45,0.00,,---,0.00,VWS V14.01,2013-11-05 11:36:00,
2013-11-05 06:37:00,52.7,32.0,30.19,SW,225,0.0,4.0,45,0.00,,---,0.00,VWS V14.01,2013-11-05 11:37:00,
2013-11-05 06:38:00,52.6,31.9,30.19,SW,222,1.0,4.0,45,0.00,,---,0.00,VWS V14.01,2013-11-05 11:38:00,
2013-11-05 06:39:00,52.6,31.9,30.19,SW,222,1.0,4.0,45,0.00,,---,0.00,VWS V14.01,2013-11-05 11:39:00,
2013-11-05 06:40:00,52.6,31.9,30.19,SW,214,3.0,7.0,45,0.00,,---,0.00,VWS V14.01,2013-11-05 11:40:00,
2013-11-05 06:41:00,52.6,31.9,30.19,SW,215,4.0,4.0,45,0.00,,---,0.00,VWS V14.01,2013-11-05 11:41:00,
2013-11-05 06:42:00,52.6,31.9,30.19,SW,217,2.0,4.0,45,0.00,,---,0.00,VWS V14.01,2013-11-05 11:42:00,
2013-11-05 06:43:00,52.6,31.9,30.19,WSW,240,4.0,4.0,45,0.00,,---,0.00,VWS V14.01,2013-11-05 11:43:00,
2013-11-05 06:44:00,52.5,31.8,30.19,WSW,240,5.0,5.0,45,0.00,,---,0.00,VWS V14.01,2013-11-05 11:44:00,
2013-11-05 06:45:00,52.5,31.8,30.19,SW,223,3.0,6.0,45,0.00,,---,0.00,VWS V14.01,2013-11-05 11:45:00,
2013-11-05 06:46:00,52.5,31.8,30.19,SW,223,1.0,6.0,45,0.00,,---,0.00,VWS V14.01,2013-11-05 11:46:00,
2013-11-05 06:47:00,52.4,31.7,30.19,SW,223,0.0,6.0,45,0.00,,---,0.00,VWS V14.01,2013-11-05 11:47:00,
2013-11-05 06:48:00,52.4,31.7,30.19,SW,223,2.0,6.0,45,0.00,,---,0.00,VWS V14.01,2013-11-05 11:48:00,
2013-11-05 06:49:00,52.4,31.7,30.19,SSW,209,0.0,6.0,45,0.00,,---,0.00,VWS V14.01,2013-11-05 11:49:00,
2013-11-05 06:50:00,52.4,31.7,30.19,SSW,201,3.0,6.0,45,0.00,,---,0.00,VWS V14.01,2013-11-05 11:50:00,
2013-11-05 06:51:00,52.4,31.7,30.19,SSW,213,2.0,4.0,45,0.00,,---,0.00,VWS V14.01,2013-11-05 11:51:00,
2013-11-05 06:52:00,52.4,31.7,30.19,SSW,213,0.0,4.0,45,0.00,,---,0.00,VWS V14.01,2013-11-05 11:52:00,
2013-11-05 06:53:00,52.3,31.6,30.19,SSW,202,3.0,4.0,45,0.00,,---,0.00,VWS V14.01,2013-11-05 11:53:00,
2013-11-05 06:54:00,52.3,31.6,30.19,SSW,203,0.0,4.0,45,0.00,,---,0.00,VWS V14.01,2013-11-05 11:54:00,
2013-11-05 06:55:00,52.3,31.6,30.19,SW,221,1.0,7.0,45,0.00,,---,0.00,VWS V14.01,2013-11-05 11:55:00,
2013-11-05 06:56:00,52.3,31.6,30.19,SSW,213,2.0,7.0,45,0.00,,---,0.00,VWS V14.01,2013-11-05 11:56:00,
2013-11-05 06:57:00,52.3,31.6,30.19,SW,215,0.0,7.0,45,0.00,,---,0.00,VWS V14.01,2013-11-05 11:57:00,
2013-11-05 06:58:00,52.2,31.5,30.19,SSW,203,0.0,7.0,45,0.00,,---,0.00,VWS V14.01,2013-11-05 11:58:00,
2013-11-05 06:59:00,52.2,31.5,30.19,SSW,204,0.0,7.0,45,0.00,,---,0.00,VWS V14.01,2013-11-05 11:59:00,
2013-11-05 07:00:00,52.2,31.5,30.19,SSW,207,3.0,7.0,45,0.00,,---,0.00,VWS V14.01,2013-11-05 12:00:00,
2013-11-05 07:01:00,52.2,31.5,30.19,SSW,196,3.0,5.0,45,0.00,,---,0.00,VWS V14.01,2013-11-05 12:01:00,
2013-11-05 07:02:00,52.1,31.4,30.19,SSW,208,4.0,5.0,45,0.00,,---,0.00,VWS V14.01,2013-11-05 12:02:00,
2013-11-05 07:03:00,52.1,31.4,30.19,SSW,206,0.0,5.0,45,0.00,,---,0.00,VWS V14.01,2013-11-05 12:03:00,
2013-11-05 07:04:00,52.1,31.4,30.19,SSW,196,4.0,5.0,45,0.00,,---,0.00,VWS V14.01,2013-11-05 12:04:00,
2013-11-05 07:05:00,52.0,31.9,30.19,SSW,198,2.0,5.0,46,0.00,,---,0.00,VWS V14.01,2013-11-05 12:05:00,
2013-11-05 07:06:00,52.0,31.3,30.19,SSW,198,2.0,5.0,45,0.00,,---,0.00,VWS V14.01,2013-11-05 12:06:00,
2013-11-05 07:07:00,51.9,31.2,30.19,SSW,195,1.0,5.0,45,0.00,,---,0.00,VWS V14.01,2013-11-05 12:07:00,
2013-11-05 07:08:00,51.9,31.2,30.19,SSW,196,3.0,5.0,45,0.00,,---,0.00,VWS V14.01,2013-11-05 12:08:00,
2013-11-05 07:09:00,51.9,31.8,30.19,SSW,196,1.0,5.0,46,0.00,,---,0.00,VWS V14.01,2013-11-05 12:09:00,
2013-11-05 07:10:00,51.9,31.8,30.19,SSW,196,1.0,5.0,46,0.00,,---,0.00,VWS V14.01,2013-11-05 12:10:00,
2013-11-05 07:11:00,51.9,31.8,30.19,SSW,197,2.0,4.0,46,0.00,,---,0.00,VWS V14.01,2013-11-05 12:11:00,
2013-11-05 07:12:00,51.8,31.7,30.19,SSW,196,1.0,4.0,46,0.00,,---,0.00,VWS V14.01,2013-11-05 12:12:00,
2013-11-05 07:13:00,51.8,31.7,30.19,SSW,197,2.0,4.0,46,0.00,,---,0.00,VWS V14.01,2013-11-05 12:13:00,
2013-11-05 07:14:00,51.8,31.7,30.19,SSW,195,2.0,4.0,46,0.00,,---,0.00,VWS V14.01,2013-11-05 12:14:00,
2013-11-05 07:15:00,51.8,31.7,30.19,SSW,195,2.0,4.0,46,0.00,,---,0.00,VWS V14.01,2013-11-05 12:15:00,
2013-11-05 07:16:00,51.7,31.6,30.19,SSW,195,3.0,4.0,46,0.00,,---,0.00,VWS V14.01,2013-11-05 12:16:00,
2013-11-05 07:17:00,51.7,31.6,30.19,SSW,195,0.0,4.0,46,0.00,,---,0.00,VWS V14.01,2013-11-05 12:17:00,
2013-11-05 07:18:00,51.7,31.6,30.19,SSW,195,3.0,4.0,46,0.00,,---,0.00,VWS V14.01,2013-11-05 12:18:00,
2013-11-05 07:19:00,51.6,31.5,30.19,SSW,195,0.0,5.0,46,0.00,,---,0.00,VWS V14.01,2013-11-05 12:19:00,
2013-11-05 07:20:00,51.5,31.4,30.19,SSW,195,3.0,5.0,46,0.00,,---,0.00,VWS V14.01,2013-11-05 12:20:00,
2013-11-05 07:21:00,51.5,31.4,30.19,SSW,195,0.0,4.0,46,0.00,,---,0.00,VWS V14.01,2013-11-05 12:21:00,
2013-11-05 07:22:00,51.4,31.3,30.19,SSW,195,5.0,5.0,46,0.00,,---,0.00,VWS V14.01,2013-11-05 12:22:00,
2013-11-05 07:23:00,51.4,31.9,30.19,SSW,195,0.0,5.0,47,0.00,,---,0.00,VWS V14.01,2013-11-05 12:23:00,
2013-11-05 07:24:00,51.3,31.8,30.19,SSW,195,0.0,5.0,47,0.00,,---,0.00,VWS V14.01,2013-11-05 12:24:00,
2013-11-05 07:25:00,51.3,31.8,30.19,South,188,2.0,5.0,47,0.00,,---,0.00,VWS V14.01,2013-11-05 12:25:00,
2013-11-05 07:26:00,51.2,31.7,30.19,South,188,1.0,5.0,47,0.00,,---,0.00,VWS V14.01,2013-11-05 12:26:00,
2013-11-05 07:27:00,51.2,31.7,30.19,South,189,2.0,5.0,47,0.00,,---,0.00,VWS V14.01,2013-11-05 12:27:00,
2013-11-05 07:28:00,51.2,31.7,30.19,South,189,2.0,5.0,47,0.00,,---,0.00,VWS V14.01,2013-11-05 12:28:00,
2013-11-05 07:29:00,51.1,31.6,30.19,South,190,2.0,5.0,47,0.00,,---,0.00,VWS V14.01,2013-11-05 12:29:00,
2013-11-05 07:30:00,51.1,31.6,30.19,South,190,0.0,5.0,47,0.00,,---,0.00,VWS V14.01,2013-11-05 12:30:00,
2013-11-05 07:31:00,51.0,31.5,30.19,South,191,3.0,4.0,47,0.00,,---,0.00,VWS V14.01,2013-11-05 12:31:00,
2013-11-05 07:32:00,51.0,31.5,30.19,SSW,192,1.0,4.0,47,0.00,,---,0.00,VWS V14.01,2013-11-05 12:32:00,
2013-11-05 07:33:00,51.0,31.5,30.19,SSW,192,2.0,4.0,47,0.00,,---,0.00,VWS V14.01,2013-11-05 12:33:00,
2013-11-05 07:34:00,51.0,31.5,30.19,SSW,192,0.0,4.0,47,0.00,,---,0.00,VWS V14.01,2013-11-05 12:34:00,
2013-11-05 07:35:00,51.0,31.5,30.19,SSW,192,2.0,4.0,47,0.00,,---,0.00,VWS V14.01,2013-11-05 12:35:00,
2013-11-05 07:36:00,50.9,31.4,30.19,South,190,1.0,4.0,47,0.00,,---,0.00,VWS V14.01,2013-11-05 12:36:00,
2013-11-05 07:37:00,50.9,31.4,30.19,SSW,192,2.0,4.0,47,0.00,,---,0.00,VWS V14.01,2013-11-05 12:37:00,
2013-11-05 07:38:00,50.9,31.4,30.19,SSW,192,0.0,4.0,47,0.00,,---,0.00,VWS V14.01,2013-11-05 12:38:00,
2013-11-05 07:39:00,50.8,31.3,30.19,SSW,192,2.0,4.0,47,0.00,,---,0.00,VWS V14.01,2013-11-05 12:39:00,
2013-11-05 07:40:00,50.8,31.3,30.19,SSW,192,1.0,4.0,47,0.00,,---,0.00,VWS V14.01,2013-11-05 12:40:00,
2013-11-05 07:41:00,50.8,31.3,30.19,SSW,192,1.0,1.0,47,0.00,,---,0.00,VWS V14.01,2013-11-05 12:41:00,
2013-11-05 07:42:00,50.8,31.3,30.19,SSW,192,3.0,3.0,47,0.00,,---,0.00,VWS V14.01,2013-11-05 12:42:00,
2013-11-05 07:43:00,50.8,31.8,30.19,SSW,192,1.0,3.0,48,0.00,,---,0.00,VWS V14.01,2013-11-05 12:43:00,
2013-11-05 07:44:00,50.8,31.8,30.19,SSW,193,2.0,3.0,48,0.00,,---,0.00,VWS V14.01,2013-11-05 12:44:00,
2013-11-05 07:45:00,50.7,31.7,30.18,SSW,194,3.0,4.0,48,0.00,,---,0.00,VWS V14.01,2013-11-05 12:45:00,
2013-11-05 07:46:00,50.7,31.7,30.18,SSW,196,0.0,4.0,48,0.00,,---,0.00,VWS V14.01,2013-11-05 12:46:00,
2013-11-05 07:47:00,50.6,31.6,30.18,SSW,196,0.0,4.0,48,0.00,,---,0.00,VWS V14.01,2013-11-05 12:47:00,
2013-11-05 07:48:00,50.6,31.6,30.18,SSW,196,0.0,4.0,48,0.00,,---,0.00,VWS V14.01,2013-11-05 12:48:00,
2013-11-05 07:49:00,50.6,31.6,30.18,SSW,196,0.0,4.0,48,0.00,,---,0.00,VWS V14.01,2013-11-05 12:49:00,
2013-11-05 07:50:00,50.6,31.6,30.18,SSW,196,3.0,4.0,48,0.00,,---,0.00,VWS V14.01,2013-11-05 12:50:00,
2013-11-05 07:51:00,50.6,31.6,30.18,SSW,195,2.0,4.0,48,0.00,,---,0.00,VWS V14.01,2013-11-05 12:51:00,
2013-11-05 07:52:00,50.5,31.6,30.18,SSW,195,0.0,4.0,48,0.00,,---,0.00,VWS V14.01,2013-11-05 12:52:00,
2013-11-05 07:53:00,50.5,31.6,30.18,SSW,195,0.0,4.0,48,0.00,,---,0.00,VWS V14.01,2013-11-05 12:53:00,
2013-11-05 07:54:00,50.5,31.6,30.18,SSW,195,0.0,4.0,48,0.00,,---,0.00,VWS V14.01,2013-11-05 12:54:00,
2013-11-05 07:55:00,50.4,31.5,30.18,SSW,195,2.0,4.0,48,0.00,,---,0.00,VWS V14.01,2013-11-05 12:55:00,
2013-11-05 07:56:00,50.4,31.5,30.18,SSW,195,0.0,4.0,48,0.00,,---,0.00,VWS V14.01,2013-11-05 12:56:00,
2013-11-05 07:57:00,50.4,31.5,30.18,SSW,195,0.0,4.0,48,0.00,,---,0.00,VWS V14.01,2013-11-05 12:57:00,
2013-11-05 07:58:00,50.3,31.4,30.18,SSW,195,2.0,4.0,48,0.00,,---,0.00,VWS V14.01,2013-11-05 12:58:00,
2013-11-05 07:59:00,50.3,31.4,30.18,SSW,195,1.0,4.0,48,0.00,,---,0.00,VWS V14.01,2013-11-05 12:59:00,
2013-11-05 08:00:00,50.3,31.4,30.18,SSW,195,0.0,4.0,48,0.00,,---,0.00,VWS V14.01,2013-11-05 13:00:00,
2013-11-05 08:01:00,50.3,31.4,30.18,SSW,195,0.0,0.0,48,0.00,,---,0.00,VWS V14.01,2013-11-05 13:01:00,
2013-11-05 08:02:00,50.2,31.3,30.18,SSW,195,0.0,0.0,48,0.00,,---,0.00,VWS V14.01,2013-11-05 13:02:00,
2013-11-05 08:03:00,50.2,31.3,30.18,SSW,195,0.0,0.0,48,0.00,,---,0.00,VWS V14.01,2013-11-05 13:03:00,
2013-11-05 08:04:00,50.2,31.8,30.18,SSW,195,0.0,1.0,49,0.00,,---,0.00,VWS V14.01,2013-11-05 13:04:00,
2013-11-05 08:05:00,50.2,31.8,30.18,SSW,195,0.0,1.0,49,0.00,,---,0.00,VWS V14.01,2013-11-05 13:05:00,
2013-11-05 08:06:00,50.1,31.7,30.18,SSW,195,0.0,1.0,49,0.00,,---,0.00,VWS V14.01,2013-11-05 13:06:00,
2013-11-05 08:07:00,50.1,31.7,30.18,SSW,195,0.0,1.0,49,0.00,,---,0.00,VWS V14.01,2013-11-05 13:07:00,
2013-11-05 08:08:00,50.1,31.7,30.18,SSW,195,0.0,3.0,49,0.00,,---,0.00,VWS V14.01,2013-11-05 13:08:00,
2013-11-05 08:09:00,50.1,31.7,30.18,SSW,195,0.0,3.0,49,0.00,,---,0.00,VWS V14.01,2013-11-05 13:09:00,
2013-11-05 08:10:00,50.0,31.6,30.18,SSW,195,2.0,3.0,49,0.00,,---,0.00,VWS V14.01,2013-11-05 13:10:00,
2013-11-05 08:11:00,50.0,31.6,30.18,SSW,195,0.0,3.0,49,0.00,,---,0.00,VWS V14.01,2013-11-05 13:11:00,
2013-11-05 08:12:00,50.0,31.6,30.18,SSW,195,1.0,3.0,49,0.00,,---,0.00,VWS V14.01,2013-11-05 13:12:00,
2013-11-05 08:13:00,49.9,31.5,30.18,SSW,196,0.0,3.0,49,0.00,,---,0.00,VWS V14.01,2013-11-05 13:13:00,
2013-11-05 08:14:00,49.9,31.5,30.17,SSW,195,0.0,3.0,49,0.00,,---,0.00,VWS V14.01,2013-11-05 13:14:00,
2013-11-05 08:15:00,49.9,32.0,30.17,SSW,196,1.0,3.0,50,0.00,,---,0.00,VWS V14.01,2013-11-05 13:15:00,
2013-11-05 08:16:00,49.8,31.9,30.17,SSW,196,1.0,3.0,50,0.00,,---,0.00,VWS V14.01,2013-11-05 13:16:00,
2013-11-05 08:17:00,49.7,31.8,30.17,SSW,195,0.0,3.0,50,0.00,,---,0.00,VWS V14.01,2013-11-05 13:17:00,
2013-11-05 08:18:00,49.7,31.8,30.17,SSW,195,2.0,3.0,50,0.00,,---,0.00,VWS V14.01,2013-11-05 13:18:00,
2013-11-05 08:19:00,49.7,31.8,30.17,SSW,196,0.0,3.0,50,0.00,,---,0.00,VWS V14.01,2013-11-05 13:19:00,
2013-11-05 08:20:00,49.6,31.7,30.17,SSW,196,0.0,3.0,50,0.00,,---,0.00,VWS V14.01,2013-11-05 13:20:00,
2013-11-05 08:21:00,49.6,31.7,30.17,SSW,195,0.0,1.0,50,0.00,,---,0.00,VWS V14.01,2013-11-05 13:21:00,
2013-11-05 08:22:00,49.6,31.7,30.17,SSW,196,0.0,1.0,50,0.00,,---,0.00,VWS V14.01,2013-11-05 13:22:00,
2013-11-05 08:23:00,49.5,31.6,30.17,SSW,195,0.0,1.0,50,0.00,,---,0.00,VWS V14.01,2013-11-05 13:23:00,
2013-11-05 08:24:00,49.5,31.6,30.17,SSW,195,0.0,1.0,50,0.00,,---,0.00,VWS V14.01,2013-11-05 13:24:00,
2013-11-05 08:25:00,49.4,31.6,30.17,SSW,196,0.0,2.0,50,0.00,,---,0.00,VWS V14.01,2013-11-05 13:25:00,
2013-11-05 08:26:00,49.4,32.0,30.17,SSW,196,0.0,2.0,51,0.00,,---,0.00,VWS V14.01,2013-11-05 13:26:00,
2013-11-05 08:27:00,49.4,32.0,30.17,SSW,196,1.0,2.0,51,0.00,,---,0.00,VWS V14.01,2013-11-05 13:27:00,
2013-11-05 08:28:00,49.3,32.0,30.17,SSW,195,0.0,2.0,51,0.00,,---,0.00,VWS V14.01,2013-11-05 13:28:00,
2013-11-05 08:29:00,49.2,31.9,30.16,SSW,195,0.0,3.0,51,0.00,,---,0.00,VWS V14.01,2013-11-05 13:29:00,
2013-11-05 08:30:00,49.2,31.9,30.16,SSW,196,0.0,3.0,51,0.00,,---,0.00,VWS V14.01,2013-11-05 13:30:00,
2013-11-05 08:31:00,49.2,31.9,30.16,SSW,196,0.0,2.0,51,0.00,,---,0.00,VWS V14.01,2013-11-05 13:31:00,
2013-11-05 08:32:00,49.1,31.8,30.16,SSW,195,0.0,3.0,51,0.00,,---,0.00,VWS V14.01,2013-11-05 13:32:00,
2013-11-05 08:33:00,49.1,31.8,30.16,SSW,196,0.0,3.0,51,0.00,,---,0.00,VWS V14.01,2013-11-05 13:33:00,
2013-11-05 08:34:00,49.1,31.8,30.16,SSW,196,0.0,3.0,51,0.00,,---,0.00,VWS V14.01,2013-11-05 13:34:00,
2013-11-05 08:35:00,49.0,31.7,30.16,SSW,196,1.0,3.0,51,0.00,,---,0.00,VWS V14.01,2013-11-05 13:35:00,
2013-11-05 08:36:00,49.0,31.2,30.16,SSW,196,0.0,3.0,50,0.00,,---,0.00,VWS V14.01,2013-11-05 13:36:00,
2013-11-05 08:37:00,49.0,31.7,30.16,SW,224,2.0,4.0,51,0.00,,---,0.00,VWS V14.01,2013-11-05 13:37:00,
2013-11-05 08:38:00,48.9,31.6,30.16,SW,223,1.0,4.0,51,0.00,,---,0.00,VWS V14.01,2013-11-05 13:38:00,
2013-11-05 08:39:00,48.8,31.5,30.16,SW,223,1.0,4.0,51,0.00,,---,0.00,VWS V14.01,2013-11-05 13:39:00,
2013-11-05 08:40:00,48.8,31.5,30.16,SW,223,0.0,0.0,51,0.00,,---,0.00,VWS V14.01,2013-11-05 13:40:00,
2013-11-05 08:41:00,48.7,31.4,30.16,SW,223,0.0,2.0,51,0.00,,---,0.00,VWS V14.01,2013-11-05 13:41:00,
2013-11-05 08:42:00,48.7,31.4,30.16,SW,223,1.0,3.0,51,0.00,,---,0.00,VWS V14.01,2013-11-05 13:42:00,
2013-11-05 08:43:00,48.6,31.3,30.16,SW,223,1.0,3.0,51,0.00,,---,0.00,VWS V14.01,2013-11-05 13:43:00,
2013-11-05 08:44:00,48.6,31.3,30.16,SW,223,2.0,3.0,51,0.00,,---,0.00,VWS V14.01,2013-11-05 13:44:00,
2013-11-05 08:45:00,48.6,31.3,30.16,SW,223,1.0,3.0,51,0.00,,---,0.00,VWS V14.01,2013-11-05 13:45:00,
2013-11-05 08:46:00,48.5,31.2,30.16,SW,223,0.0,3.0,51,0.00,,---,0.00,VWS V14.01,2013-11-05 13:46:00,
2013-11-05 08:47:00,48.5,31.2,30.16,SW,223,0.0,3.0,51,0.00,,---,0.00,VWS V14.01,2013-11-05 13:47:00,
2013-11-05 08:48:00,48.4,31.1,30.16,SW,223,0.0,3.0,51,0.00,,---,0.00,VWS V14.01,2013-11-05 13:48:00,
2013-11-05 08:49:00,48.4,31.1,30.16,SW,223,0.0,3.0,51,0.00,,---,0.00,VWS V14.01,2013-11-05 13:49:00,
2013-11-05 08:50:00,48.4,31.1,30.16,SW,223,0.0,3.0,51,0.00,,---,0.00,VWS V14.01,2013-11-05 13:50:00,
2013-11-05 08:51:00,48.3,31.0,30.16,SW,223,0.0,1.0,51,0.00,,---,0.00,VWS V14.01,2013-11-05 13:51:00,
2013-11-05 08:52:00,48.3,31.0,30.16,SW,223,0.0,1.0,51,0.00,,---,0.00,VWS V14.01,2013-11-05 13:52:00,
2013-11-05 08:53:00,48.3,31.5,30.16,SW,223,0.0,1.0,52,0.00,,---,0.00,VWS V14.01,2013-11-05 13:53:00,
2013-11-05 08:54:00,48.2,31.4,30.16,SW,223,0.0,1.0,52,0.00,,---,0.00,VWS V14.01,2013-11-05 13:54:00,
2013-11-05 08:55:00,48.2,31.4,30.16,SW,223,0.0,1.0,52,0.00,,---,0.00,VWS V14.01,2013-11-05 13:55:00,
2013-11-05 08:56:00,48.2,31.4,30.16,SW,223,0.0,1.0,52,0.00,,---,0.00,VWS V14.01,2013-11-05 13:56:00,
2013-11-05 08:57:00,48.1,31.3,30.16,SW,223,0.0,1.0,52,0.00,,---,0.00,VWS V14.01,2013-11-05 13:57:00,
2013-11-05 08:58:00,48.1,31.3,30.16,SW,223,0.0,1.0,52,0.00,,---,0.00,VWS V14.01,2013-11-05 13:58:00,
2013-11-05 08:59:00,48.1,31.3,30.16,SW,223,0.0,1.0,52,0.00,,---,0.00,VWS V14.01,2013-11-05 13:59:00,
2013-11-05 09:00:00,48.1,31.3,30.16,SW,223,0.0,2.0,52,0.00,,---,0.00,VWS V14.01,2013-11-05 14:00:00,
2013-11-05 09:01:00,48.0,31.2,30.16,SW,223,0.0,0.0,52,0.00,,---,0.00,VWS V14.01,2013-11-05 14:01:00,
2013-11-05 09:02:00,48.0,31.2,30.16,SW,223,0.0,0.0,52,0.00,,---,0.00,VWS V14.01,2013-11-05 14:02:00,
2013-11-05 09:03:00,47.9,31.1,30.16,SW,223,0.0,0.0,52,0.00,,---,0.00,VWS V14.01,2013-11-05 14:03:00,
2013-11-05 09:04:00,47.9,31.1,30.16,SW,223,0.0,0.0,52,0.00,,---,0.00,VWS V14.01,2013-11-05 14:04:00,
2013-11-05 09:05:00,47.9,31.1,30.16,SW,223,0.0,0.0,52,0.00,,---,0.00,VWS V14.01,2013-11-05 14:05:00,
2013-11-05 09:06:00,47.8,31.5,30.16,SW,223,0.0,0.0,53,0.00,,---,0.00,VWS V14.01,2013-11-05 14:06:00,
2013-11-05 09:07:00,47.8,32.0,30.16,SW,223,0.0,0.0,54,0.00,,---,0.00,VWS V14.01,2013-11-05 14:07:00,
2013-11-05 09:08:00,47.8,32.0,30.16,SW,223,0.0,1.0,54,0.00,,---,0.00,VWS V14.01,2013-11-05 14:08:00,
2013-11-05 09:09:00,47.7,31.9,30.16,SW,223,0.0,1.0,54,0.00,,---,0.00,VWS V14.01,2013-11-05 14:09:00,
2013-11-05 09:10:00,47.7,32.3,30.16,SW,223,0.0,1.0,55,0.00,,---,0.00,VWS V14.01,2013-11-05 14:10:00,
2013-11-05 09:11:00,47.6,32.2,30.16,SW,223,0.0,0.0,55,0.00,,---,0.00,VWS V14.01,2013-11-05 14:11:00,
2013-11-05 09:12:00,47.6,32.2,30.16,SW,223,0.0,0.0,55,0.00,,---,0.00,VWS V14.01,2013-11-05 14:12:00,
2013-11-05 09:13:00,47.5,32.2,30.16,SW,223,0.0,0.0,55,0.00,,---,0.00,VWS V14.01,2013-11-05 14:13:00,
2013-11-05 09:14:00,47.5,32.2,30.16,SW,223,0.0,0.0,55,0.00,,---,0.00,VWS V14.01,2013-11-05 14:14:00,
2013-11-05 09:15:00,47.4,32.1,30.16,SW,223,0.0,0.0,55,0.00,,---,0.00,VWS V14.01,2013-11-05 14:15:00,
2013-11-05 09:16:00,47.4,32.1,30.16,SW,223,0.0,0.0,55,0.00,,---,0.00,VWS V14.01,2013-11-05 14:16:00,
2013-11-05 09:17:00,47.3,32.4,30.16,SW,223,0.0,0.0,56,0.00,,---,0.00,VWS V14.01,2013-11-05 14:17:00,
2013-11-05 09:18:00,47.2,32.3,30.16,SW,223,0.0,0.0,56,0.00,,---,0.00,VWS V14.01,2013-11-05 14:18:00,
2013-11-05 09:19:00,47.2,32.3,30.16,SW,223,0.0,0.0,56,0.00,,---,0.00,VWS V14.01,2013-11-05 14:19:00,
2013-11-05 09:20:00,47.1,32.2,30.16,SW,223,0.0,0.0,56,0.00,,---,0.00,VWS V14.01,2013-11-05 14:20:00,
2013-11-05 09:21:00,47.0,32.1,30.16,SW,223,0.0,0.0,56,0.00,,---,0.00,VWS V14.01,2013-11-05 14:21:00,
2013-11-05 09:22:00,47.0,32.1,30.16,SW,223,0.0,0.0,56,0.00,,---,0.00,VWS V14.01,2013-11-05 14:22:00,
2013-11-05 09:23:00,47.0,32.1,30.16,SW,223,0.0,0.0,56,0.00,,---,0.00,VWS V14.01,2013-11-05 14:23:00,
2013-11-05 09:24:00,46.9,32.0,30.16,SW,223,0.0,0.0,56,0.00,,---,0.00,VWS V14.01,2013-11-05 14:24:00,
2013-11-05 09:25:00,46.9,32.0,30.16,SW,223,0.0,0.0,56,0.00,,---,0.00,VWS V14.01,2013-11-05 14:25:00,
2013-11-05 09:26:00,46.8,32.0,30.16,SW,223,0.0,0.0,56,0.00,,---,0.00,VWS V14.01,2013-11-05 14:26:00,
2013-11-05 09:27:00,46.8,32.0,30.16,SW,223,0.0,0.0,56,0.00,,---,0.00,VWS V14.01,2013-11-05 14:27:00,
2013-11-05 09:28:00,46.7,31.9,30.16,SW,223,0.0,0.0,56,0.00,,---,0.00,VWS V14.01,2013-11-05 14:28:00,
2013-11-05 09:29:00,46.6,32.2,30.16,SW,223,0.0,0.0,57,0.00,,---,0.00,VWS V14.01,2013-11-05 14:29:00,
2013-11-05 09:30:00,46.6,32.2,30.16,SW,223,0.0,0.0,57,0.00,,---,0.00,VWS V14.01,2013-11-05 14:30:00,
2013-11-05 09:31:00,46.5,32.1,30.16,SW,223,0.0,0.0,57,0.00,,---,0.00,VWS V14.01,2013-11-05 14:31:00,
2013-11-05 09:32:00,46.5,32.1,30.16,SW,223,0.0,0.0,57,0.00,,---,0.00,VWS V14.01,2013-11-05 14:32:00,
2013-11-05 09:33:00,46.4,32.0,30.16,SW,223,0.0,0.0,57,0.00,,---,0.00,VWS V14.01,2013-11-05 14:33:00,
2013-11-05 09:34:00,46.4,32.0,30.16,SW,223,0.0,0.0,57,0.00,,---,0.00,VWS V14.01,2013-11-05 14:34:00,
2013-11-05 09:35:00,46.3,31.9,30.16,SW,223,0.0,0.0,57,0.00,,---,0.00,VWS V14.01,2013-11-05 14:35:00,
2013-11-05 09:36:00,46.2,31.8,30.16,SW,223,0.0,0.0,57,0.00,,---,0.00,VWS V14.01,2013-11-05 14:36:00,
2013-11-05 09:37:00,46.1,31.7,30.16,SW,223,0.0,0.0,57,0.00,,---,0.00,VWS V14.01,2013-11-05 14:37:00,
2013-11-05 09:38:00,46.1,31.7,30.16,SW,223,0.0,0.0,57,0.00,,---,0.00,VWS V14.01,2013-11-05 14:38:00,
2013-11-05 09:39:00,46.0,31.6,30.16,SW,223,0.0,0.0,57,0.00,,---,0.00,VWS V14.01,2013-11-05 14:39:00,
2013-11-05 09:40:00,46.0,31.6,30.16,SW,223,0.0,0.0,57,0.00,,---,0.00,VWS V14.01,2013-11-05 14:40:00,
2013-11-05 09:41:00,45.9,31.5,30.16,SW,223,0.0,0.0,57,0.00,,---,0.00,VWS V14.01,2013-11-05 14:41:00,
2013-11-05 09:42:00,45.8,31.5,30.16,SW,223,0.0,0.0,57,0.00,,---,0.00,VWS V14.01,2013-11-05 14:42:00,
2013-11-05 09:43:00,45.8,31.5,30.16,SW,223,0.0,0.0,57,0.00,,---,0.00,VWS V14.01,2013-11-05 14:43:00,
2013-11-05 09:44:00,45.7,31.4,30.16,SW,223,0.0,0.0,57,0.00,,---,0.00,VWS V14.01,2013-11-05 14:44:00,
2013-11-05 09:45:00,45.6,31.3,30.15,SW,223,0.0,0.0,57,0.00,,---,0.00,VWS V14.01,2013-11-05 14:45:00,
2013-11-05 09:46:00,45.6,31.3,30.15,SW,223,0.0,0.0,57,0.00,,---,0.00,VWS V14.01,2013-11-05 14:46:00,
2013-11-05 09:47:00,45.5,31.2,30.15,SW,223,0.0,0.0,57,0.00,,---,0.00,VWS V14.01,2013-11-05 14:47:00,
2013-11-05 09:48:00,45.4,31.1,30.15,SW,223,0.0,0.0,57,0.00,,---,0.00,VWS V14.01,2013-11-05 14:48:00,
2013-11-05 09:49:00,45.4,31.5,30.15,SW,223,0.0,0.0,58,0.00,,---,0.00,VWS V14.01,2013-11-05 14:49:00,
2013-11-05 09:50:00,45.3,31.4,30.15,SW,223,0.0,0.0,58,0.00,,---,0.00,VWS V14.01,2013-11-05 14:50:00,
2013-11-05 09:51:00,45.2,31.3,30.15,SW,223,0.0,0.0,58,0.00,,---,0.00,VWS V14.01,2013-11-05 14:51:00,
2013-11-05 09:52:00,45.2,31.3,30.15,SW,223,0.0,0.0,58,0.00,,---,0.00,VWS V14.01,2013-11-05 14:52:00,
2013-11-05 09:53:00,45.1,31.2,30.15,SW,223,0.0,0.0,58,0.00,,---,0.00,VWS V14.01,2013-11-05 14:53:00,
2013-11-05 09:54:00,45.0,31.1,30.15,SW,223,0.0,0.0,58,0.00,,---,0.00,VWS V14.01,2013-11-05 14:54:00,
2013-11-05 09:55:00,45.0,31.1,30.15,SW,223,0.0,0.0,58,0.00,,---,0.00,VWS V14.01,2013-11-05 14:55:00,
2013-11-05 09:56:00,44.9,31.0,30.15,SW,223,0.0,0.0,58,0.00,,---,0.00,VWS V14.01,2013-11-05 14:56:00,
2013-11-05 09:57:00,44.9,31.0,30.15,SW,223,0.0,0.0,58,0.00,,---,0.00,VWS V14.01,2013-11-05 14:57:00,
2013-11-05 09:58:00,44.8,30.9,30.15,SW,223,0.0,0.0,58,0.00,,---,0.00,VWS V14.01,2013-11-05 14:58:00,
2013-11-05 09:59:00,44.7,30.9,30.15,SW,223,0.0,0.0,58,0.00,,---,0.00,VWS V14.01,2013-11-05 14:59:00,
2013-11-05 10:00:00,44.6,31.2,30.15,SW,223,0.0,0.0,59,0.00,,---,0.00,VWS V14.01,2013-11-05 15:00:00,
2013-11-05 10:01:00,44.6,31.2,30.15,SW,223,0.0,1.0,59,0.00,,---,0.00,VWS V14.01,2013-11-05 15:01:00,
2013-11-05 10:02:00,44.5,31.1,30.15,SW,223,0.0,1.0,59,0.00,,---,0.00,VWS V14.01,2013-11-05 15:02:00,
2013-11-05 10:03:00,44.4,31.0,30.15,SW,223,0.0,1.0,59,0.00,,---,0.00,VWS V14.01,2013-11-05 15:03:00,
2013-11-05 10:04:00,44.3,30.9,30.15,SW,223,0.0,1.0,59,0.00,,---,0.00,VWS V14.01,2013-11-05 15:04:00,
2013-11-05 10:05:00,44.3,30.9,30.15,SW,223,0.0,1.0,59,0.00,,---,0.00,VWS V14.01,2013-11-05 15:05:00,
2013-11-05 10:06:00,44.2,31.2,30.15,SW,223,0.0,1.0,60,0.00,,---,0.00,VWS V14.01,2013-11-05 15:06:00,
2013-11-05 10:07:00,44.1,31.1,30.15,SW,223,0.0,1.0,60,0.00,,---,0.00,VWS V14.01,2013-11-05 15:07:00,
2013-11-05 10:08:00,44.1,31.5,30.15,SW,223,0.0,1.0,61,0.00,,---,0.00,VWS V14.01,2013-11-05 15:08:00,
2013-11-05 10:09:00,44.0,31.8,30.15,SW,223,0.0,1.0,62,0.00,,---,0.00,VWS V14.01,2013-11-05 15:09:00,
2013-11-05 10:10:00,44.0,31.4,30.15,SW,223,0.0,1.0,61,0.00,,---,0.00,VWS V14.01,2013-11-05 15:10:00,
2013-11-05 10:11:00,43.9,31.7,30.15,SW,223,0.0,0.0,62,0.00,,---,0.00,VWS V14.01,2013-11-05 15:11:00,
2013-11-05 10:12:00,43.9,31.7,30.15,SW,223,0.0,0.0,62,0.00,,---,0.00,VWS V14.01,2013-11-05 15:12:00,
2013-11-05 10:13:00,43.8,32.0,30.15,SW,223,0.0,0.0,63,0.00,,---,0.00,VWS V14.01,2013-11-05 15:13:00,
2013-11-05 10:14:00,43.8,32.0,30.16,SW,223,0.0,1.0,63,0.00,,---,0.00,VWS V14.01,2013-11-05 15:14:00,
2013-11-05 10:15:00,43.7,32.0,30.16,SW,223,0.0,1.0,63,0.00,,---,0.00,VWS V14.01,2013-11-05 15:15:00,
2013-11-05 10:16:00,43.7,31.5,30.16,SW,223,0.0,1.0,62,0.00,,---,0.00,VWS V14.01,2013-11-05 15:16:00,
2013-11-05 10:17:00,43.6,31.5,30.16,SW,223,0.0,1.0,62,0.00,,---,0.00,VWS V14.01,2013-11-05 15:17:00,
2013-11-05 10:18:00,43.6,31.5,30.16,SW,223,0.0,1.0,62,0.00,,---,0.00,VWS V14.01,2013-11-05 15:18:00,
2013-11-05 10:19:00,43.5,31.4,30.16,SW,223,0.0,1.0,62,0.00,,---,0.00,VWS V14.01,2013-11-05 15:19:00,
2013-11-05 10:20:00,43.5,31.8,30.16,SW,223,0.0,1.0,63,0.00,,---,0.00,VWS V14.01,2013-11-05 15:20:00,
2013-11-05 10:21:00,43.4,31.7,30.16,SW,223,0.0,2.0,63,0.00,,---,0.00,VWS V14.01,2013-11-05 15:21:00,
2013-11-05 10:22:00,43.4,31.7,30.16,SW,223,0.0,2.0,63,0.00,,---,0.00,VWS V14.01,2013-11-05 15:22:00,
2013-11-05 10:23:00,43.3,31.6,30.16,SW,223,2.0,3.0,63,0.00,,---,0.00,VWS V14.01,2013-11-05 15:23:00,
2013-11-05 10:24:00,43.3,31.6,30.16,SW,223,0.0,3.0,63,0.00,,---,0.00,VWS V14.01,2013-11-05 15:24:00,
2013-11-05 10:25:00,43.2,31.5,30.16,SW,223,1.0,3.0,63,0.00,,---,0.00,VWS V14.01,2013-11-05 15:25:00,
2013-11-05 10:26:00,43.1,31.4,30.16,SW,223,1.0,3.0,63,0.00,,---,0.00,VWS V14.01,2013-11-05 15:26:00,
2013-11-05 10:27:00,43.1,31.4,30.16,SW,223,0.0,3.0,63,0.00,,---,0.00,VWS V14.01,2013-11-05 15:27:00,
2013-11-05 10:28:00,43.1,31.4,30.16,SW,223,2.0,3.0,63,0.00,,---,0.00,VWS V14.01,2013-11-05 15:28:00,
2013-11-05 10:29:00,43.0,31.3,30.16,SW,223,0.0,3.0,63,0.00,,---,0.00,VWS V14.01,2013-11-05 15:29:00,
2013-11-05 10:30:00,43.0,31.3,30.15,SW,223,0.0,3.0,63,0.00,,---,0.00,VWS V14.01,2013-11-05 15:30:00,
2013-11-05 10:31:00,42.9,31.2,30.15,SW,223,1.0,2.0,63,0.00,,---,0.00,VWS V14.01,2013-11-05 15:31:00,
2013-11-05 10:32:00,42.9,31.2,30.15,SW,223,1.0,2.0,63,0.00,,---,0.00,VWS V14.01,2013-11-05 15:32:00,
2013-11-05 10:33:00,42.8,31.5,30.15,SW,223,2.0,2.0,64,0.00,,---,0.00,VWS V14.01,2013-11-05 15:33:00,
2013-11-05 10:34:00,42.8,31.5,30.15,SW,223,0.0,2.0,64,0.00,,---,0.00,VWS V14.01,2013-11-05 15:34:00,
2013-11-05 10:35:00,42.8,31.5,30.15,SW,223,0.0,2.0,64,0.00,,---,0.00,VWS V14.01,2013-11-05 15:35:00,
2013-11-05 10:36:00,42.7,31.4,30.15,SW,223,0.0,2.0,64,0.00,,---,0.00,VWS V14.01,2013-11-05 15:36:00,
2013-11-05 10:37:00,42.7,31.4,30.15,SW,223,0.0,3.0,64,0.00,,---,0.00,VWS V14.01,2013-11-05 15:37:00,
2013-11-05 10:38:00,42.7,31.4,30.15,SW,223,1.0,3.0,64,0.00,,---,0.00,VWS V14.01,2013-11-05 15:38:00,
2013-11-05 10:39:00,42.7,31.4,30.15,SW,223,1.0,3.0,64,0.00,,---,0.00,VWS V14.01,2013-11-05 15:39:00,
2013-11-05 10:40:00,42.7,31.4,30.15,SW,223,2.0,3.0,64,0.00,,---,0.00,VWS V14.01,2013-11-05 15:40:00,
2013-11-05 10:41:00,42.6,31.3,30.15,SW,223,4.0,5.0,64,0.00,,---,0.00,VWS V14.01,2013-11-05 15:41:00,
2013-11-05 10:42:00,42.6,31.7,30.15,SW,223,2.0,5.0,65,0.00,,---,0.00,VWS V14.01,2013-11-05 15:42:00,
2013-11-05 10:43:00,42.6,31.7,30.15,SW,224,0.0,5.0,65,0.00,,---,0.00,VWS V14.01,2013-11-05 15:43:00,
2013-11-05 10:44:00,42.6,31.7,30.16,SW,224,1.0,5.0,65,0.00,,---,0.00,VWS V14.01,2013-11-05 15:44:00,
2013-11-05 10:45:00,42.6,31.7,30.16,SW,224,3.0,5.0,65,0.00,,---,0.00,VWS V14.01,2013-11-05 15:45:00,
2013-11-05 10:46:00,42.6,31.7,30.16,SW,224,3.0,5.0,65,0.00,,---,0.00,VWS V14.01,2013-11-05 15:46:00,
2013-11-05 10:47:00,42.6,31.7,30.16,SW,224,0.0,5.0,65,0.00,,---,0.00,VWS V14.01,2013-11-05 15:47:00,
2013-11-05 10:48:00,42.6,31.7,30.16,SW,224,1.0,5.0,65,0.00,,---,0.00,VWS V14.01,2013-11-05 15:48:00,
2013-11-05 10:49:00,42.6,31.7,30.16,SW,224,2.0,5.0,65,0.00,,---,0.00,VWS V14.01,2013-11-05 15:49:00,
2013-11-05 10:50:00,42.6,31.7,30.16,SW,224,0.0,5.0,65,0.00,,---,0.00,VWS V14.01,2013-11-05 15:50:00,
2013-11-05 10:51:00,42.6,31.7,30.16,SW,224,3.0,4.0,65,0.00,,---,0.00,VWS V14.01,2013-11-05 15:51:00,
2013-11-05 10:52:00,42.7,31.8,30.16,SW,224,0.0,4.0,65,0.00,,---,0.00,VWS V14.01,2013-11-05 15:52:00,
2013-11-05 10:53:00,42.7,31.8,30.16,SW,224,0.0,4.0,65,0.00,,---,0.00,VWS V14.01,2013-11-05 15:53:00,
2013-11-05 10:54:00,42.8,31.9,30.16,SW,224,1.0,1.0,65,0.00,,---,0.00,VWS V14.01,2013-11-05 15:54:00,
2013-11-05 10:55:00,42.8,31.9,30.16,SW,224,1.0,3.0,65,0.00,,---,0.00,VWS V14.01,2013-11-05 15:55:00,
2013-11-05 10:56:00,42.8,31.9,30.16,SW,224,3.0,4.0,65,0.00,,---,0.00,VWS V14.01,2013-11-05 15:56:00,
2013-11-05 10:57:00,42.9,32.0,30.16,SW,224,0.0,4.0,65,0.00,,---,0.00,VWS V14.01,2013-11-05 15:57:00,
2013-11-05 10:58:00,42.9,31.6,30.16,SW,224,0.0,4.0,64,0.00,,---,0.00,VWS V14.01,2013-11-05 15:58:00,
2013-11-05 10:59:00,42.9,32.0,30.15,SW,224,2.0,4.0,65,0.00,,---,0.00,VWS V14.01,2013-11-05 15:59:00,
2013-11-05 11:00:00,42.9,31.6,30.15,SW,224,2.0,4.0,64,0.00,,---,0.00,VWS V14.01,2013-11-05 16:00:00,
2013-11-05 11:01:00,43.0,31.7,30.15,SW,224,1.0,3.0,64,0.00,,---,0.00,VWS V14.01,2013-11-05 16:01:00,
2013-11-05 11:02:00,43.0,31.7,30.15,SW,224,0.0,3.0,64,0.00,,---,0.00,VWS V14.01,2013-11-05 16:02:00,
2013-11-05 11:03:00,43.0,31.7,30.15,SW,224,3.0,3.0,64,0.00,,---,0.00,VWS V14.01,2013-11-05 16:03:00,
2013-11-05 11:04:00,43.0,31.7,30.15,SW,224,1.0,3.0,64,0.00,,---,0.00,VWS V14.01,2013-11-05 16:04:00,
2013-11-05 11:05:00,43.1,31.8,30.15,SW,224,0.0,3.0,64,0.00,,---,0.00,VWS V14.01,2013-11-05 16:05:00,
2013-11-05 11:06:00,43.1,32.2,30.15,SW,224,0.0,3.0,65,0.00,,---,0.00,VWS V14.01,2013-11-05 16:06:00,
2013-11-05 11:07:00,43.1,32.2,30.15,SW,224,2.0,3.0,65,0.00,,---,0.00,VWS V14.01,2013-11-05 16:07:00,
2013-11-05 11:08:00,43.2,31.9,30.15,SW,224,1.0,3.0,64,0.00,,---,0.00,VWS V14.01,2013-11-05 16:08:00,
2013-11-05 11:09:00,43.2,31.9,30.15,SW,224,3.0,3.0,64,0.00,,---,0.00,VWS V14.01,2013-11-05 16:09:00,
2013-11-05 11:10:00,43.2,31.9,30.15,SW,224,0.0,3.0,64,0.00,,---,0.00,VWS V14.01,2013-11-05 16:10:00,
2013-11-05 11:11:00,43.2,31.9,30.15,SW,224,0.0,0.0,64,0.00,,---,0.00,VWS V14.01,2013-11-05 16:11:00,
2013-11-05 11:12:00,43.2,31.9,30.15,SW,224,0.0,0.0,64,0.00,,---,0.00,VWS V14.01,2013-11-05 16:12:00,
2013-11-05 11:13:00,43.3,32.0,30.15,SW,224,0.0,2.0,64,0.00,,---,0.00,VWS V14.01,2013-11-05 16:13:00,
2013-11-05 11:14:00,43.3,32.0,30.15,SW,224,0.0,2.0,64,0.00,,---,0.00,VWS V14.01,2013-11-05 16:14:00,
2013-11-05 11:15:00,43.3,32.0,30.14,SW,224,0.0,2.0,64,0.00,,---,0.00,VWS V14.01,2013-11-05 16:15:00,
2013-11-05 11:16:00,43.3,32.0,30.14,SW,224,2.0,2.0,64,0.00,,---,0.00,VWS V14.01,2013-11-05 16:16:00,
2013-11-05 11:17:00,43.3,32.0,30.14,SW,224,2.0,2.0,64,0.00,,---,0.00,VWS V14.01,2013-11-05 16:17:00,
2013-11-05 11:18:00,43.3,32.0,30.14,SW,224,0.0,2.0,64,0.00,,---,0.00,VWS V14.01,2013-11-05 16:18:00,
2013-11-05 11:19:00,43.4,32.0,30.14,SW,224,0.0,2.0,64,0.00,,---,0.00,VWS V14.01,2013-11-05 16:19:00,
2013-11-05 11:20:00,43.4,32.0,30.14,SW,224,0.0,3.0,64,0.00,,---,0.00,VWS V14.01,2013-11-05 16:20:00,
2013-11-05 11:21:00,43.4,32.0,30.14,SW,224,0.0,0.0,64,0.00,,---,0.00,VWS V14.01,2013-11-05 16:21:00,
2013-11-05 11:22:00,43.5,32.2,30.14,SW,224,3.0,3.0,64,0.00,,---,0.00,VWS V14.01,2013-11-05 16:22:00,
2013-11-05 11:23:00,43.6,32.2,30.14,SW,224,0.0,3.0,64,0.00,,---,0.00,VWS V14.01,2013-11-05 16:23:00,
2013-11-05 11:24:00,43.6,32.2,30.14,SW,225,4.0,4.0,64,0.00,,---,0.00,VWS V14.01,2013-11-05 16:24:00,
2013-11-05 11:25:00,43.7,32.3,30.14,SW,231,3.0,5.0,64,0.00,,---,0.00,VWS V14.01,2013-11-05 16:25:00,
2013-11-05 11:26:00,43.7,32.3,30.14,SW,231,0.0,5.0,64,0.00,,---,0.00,VWS V14.01,2013-11-05 16:26:00,
2013-11-05 11:27:00,43.7,32.3,30.14,SW,235,0.0,5.0,64,0.00,,---,0.00,VWS V14.01,2013-11-05 16:27:00,
2013-11-05 11:28:00,43.8,32.4,30.14,SW,235,1.0,5.0,64,0.00,,---,0.00,VWS V14.01,2013-11-05 16:28:00,
2013-11-05 11:29:00,43.8,32.4,30.14,SW,232,0.0,5.0,64,0.00,,---,0.00,VWS V14.01,2013-11-05 16:29:00,
2013-11-05 11:30:00,43.8,32.4,30.14,SW,232,0.0,5.0,64,0.00,,---,0.00,VWS V14.01,2013-11-05 16:30:00,
2013-11-05 11:31:00,43.9,32.5,30.14,SW,232,0.0,2.0,64,0.00,,---,0.00,VWS V14.01,2013-11-05 16:31:00,
2013-11-05 11:32:00,43.9,32.5,30.14,SW,232,2.0,3.0,64,0.00,,---,0.00,VWS V14.01,2013-11-05 16:32:00,
2013-11-05 11:33:00,44.0,32.6,30.14,SW,232,1.0,3.0,64,0.00,,---,0.00,VWS V14.01,2013-11-05 16:33:00,
2013-11-05 11:34:00,44.0,32.6,30.14,SW,232,0.0,3.0,64,0.00,,---,0.00,VWS V14.01,2013-11-05 16:34:00,
2013-11-05 11:35:00,44.0,32.6,30.14,SW,233,0.0,4.0,64,0.00,,---,0.00,VWS V14.01,2013-11-05 16:35:00,
2013-11-05 11:36:00,44.1,32.7,30.14,SW,233,0.0,4.0,64,0.00,,---,0.00,VWS V14.01,2013-11-05 16:36:00,
2013-11-05 11:37:00,44.1,32.7,30.14,SW,233,0.0,4.0,64,0.00,,---,0.00,VWS V14.01,2013-11-05 16:37:00,
2013-11-05 11:38:00,44.1,32.7,30.14,SW,233,0.0,4.0,64,0.00,,---,0.00,VWS V14.01,2013-11-05 16:38:00,
2013-11-05 11:39:00,44.1,32.7,30.14,SW,233,2.0,4.0,64,0.00,,---,0.00,VWS V14.01,2013-11-05 16:39:00,
2013-11-05 11:40:00,44.1,32.7,30.14,SW,233,0.0,4.0,64,0.00,,---,0.00,VWS V14.01,2013-11-05 16:40:00,
2013-11-05 11:41:00,44.2,32.8,30.14,SW,233,0.0,0.0,64,0.00,,---,0.00,VWS V14.01,2013-11-05 16:41:00,
2013-11-05 11:42:00,44.2,32.4,30.14,SW,233,0.0,1.0,63,0.00,,---,0.00,VWS V14.01,2013-11-05 16:42:00,
2013-11-05 11:43:00,44.2,32.4,30.14,SW,233,2.0,3.0,63,0.00,,---,0.00,VWS V14.01,2013-11-05 16:43:00,
2013-11-05 11:44:00,44.2,32.4,30.14,SW,233,0.0,3.0,63,0.00,,---,0.00,VWS V14.01,2013-11-05 16:44:00,
2013-11-05 11:45:00,44.3,32.5,30.14,SW,233,2.0,4.0,63,0.00,,---,0.00,VWS V14.01,2013-11-05 16:45:00,
2013-11-05 11:46:00,44.2,32.4,30.14,SW,233,0.0,4.0,63,0.00,,---,0.00,VWS V14.01,2013-11-05 16:46:00,
2013-11-05 11:47:00,44.3,32.5,30.14,SW,233,2.0,4.0,63,0.00,,---,0.00,VWS V14.01,2013-11-05 16:47:00,
2013-11-05 11:48:00,44.3,32.5,30.14,SW,233,0.0,4.0,63,0.00,,---,0.00,VWS V14.01,2013-11-05 16:48:00,
2013-11-05 11:49:00,44.3,32.5,30.14,SW,233,2.0,4.0,63,0.00,,---,0.00,VWS V14.01,2013-11-05 16:49:00,
2013-11-05 11:50:00,44.3,32.9,30.14,SW,233,1.0,4.0,64,0.00,,---,0.00,VWS V14.01,2013-11-05 16:50:00,
2013-11-05 11:51:00,44.3,32.9,30.14,SW,233,0.0,2.0,64,0.00,,---,0.00,VWS V14.01,2013-11-05 16:51:00,
2013-11-05 11:52:00,44.3,32.9,30.14,SW,233,0.0,2.0,64,0.00,,---,0.00,VWS V14.01,2013-11-05 16:52:00,
2013-11-05 11:53:00,44.4,33.0,30.14,SW,233,0.0,2.0,64,0.00,,---,0.00,VWS V14.01,2013-11-05 16:53:00,
2013-11-05 11:54:00,44.4,33.0,30.14,SW,233,0.0,3.0,64,0.00,,---,0.00,VWS V14.01,2013-11-05 16:54:00,
2013-11-05 11:55:00,44.4,33.0,30.14,SW,233,0.0,3.0,64,0.00,,---,0.00,VWS V14.01,2013-11-05 16:55:00,
2013-11-05 11:56:00,44.4,33.0,30.14,SW,233,1.0,3.0,64,0.00,,---,0.00,VWS V14.01,2013-11-05 16:56:00,
2013-11-05 11:57:00,44.4,33.0,30.14,SW,233,0.0,3.0,64,0.00,,---,0.00,VWS V14.01,2013-11-05 16:57:00,
2013-11-05 11:58:00,44.4,33.0,30.14,SW,233,0.0,3.0,64,0.00,,---,0.00,VWS V14.01,2013-11-05 16:58:00,
2013-11-05 11:59:00,44.4,33.0,30.14,SW,233,0.0,3.0,64,0.00,,---,0.00,VWS V14.01,2013-11-05 16:59:00,
2013-11-05 12:00:00,44.4,33.0,30.15,SW,233,1.0,3.0,64,0.00,,---,0.00,VWS V14.01,2013-11-05 17:00:00,
2013-11-05 12:01:00,44.4,32.6,30.15,SW,233,1.0,3.0,63,0.00,,---,0.00,VWS V14.01,2013-11-05 17:01:00,
2013-11-05 12:02:00,44.4,32.6,30.15,SW,233,0.0,3.0,63,0.00,,---,0.00,VWS V14.01,2013-11-05 17:02:00,
2013-11-05 12:03:00,44.4,32.6,30.15,SW,233,0.0,3.0,63,0.00,,---,0.00,VWS V14.01,2013-11-05 17:03:00,
2013-11-05 12:04:00,44.4,32.6,30.15,SW,233,0.0,3.0,63,0.00,,---,0.00,VWS V14.01,2013-11-05 17:04:00,
2013-11-05 12:05:00,44.4,33.0,30.15,SW,233,0.0,3.0,64,0.00,,---,0.00,VWS V14.01,2013-11-05 17:05:00,
2013-11-05 12:06:00,44.3,32.9,30.15,SW,233,0.0,3.0,64,0.00,,---,0.00,VWS V14.01,2013-11-05 17:06:00,
2013-11-05 12:07:00,44.4,33.0,30.15,SW,233,0.0,3.0,64,0.00,,---,0.00,VWS V14.01,2013-11-05 17:07:00,
2013-11-05 12:08:00,44.3,32.9,30.15,SW,233,0.0,3.0,64,0.00,,---,0.00,VWS V14.01,2013-11-05 17:08:00,
2013-11-05 12:09:00,44.3,32.9,30.15,SW,233,1.0,3.0,64,0.00,,---,0.00,VWS V14.01,2013-11-05 17:09:00,
2013-11-05 12:10:00,44.3,32.9,30.15,SW,233,0.0,0.0,64,0.00,,---,0.00,VWS V14.01,2013-11-05 17:10:00,
2013-11-05 12:11:00,44.3,32.9,30.15,SW,233,0.0,1.0,64,0.00,,---,0.00,VWS V14.01,2013-11-05 17:11:00,
2013-11-05 12:12:00,44.3,32.9,30.15,SW,233,0.0,1.0,64,0.00,,---,0.00,VWS V14.01,2013-11-05 17:12:00,
2013-11-05 12:13:00,44.3,32.9,30.15,SW,233,0.0,1.0,64,0.00,,---,0.00,VWS V14.01,2013-11-05 17:13:00,
2013-11-05 12:14:00,44.3,32.9,30.15,SW,233,0.0,1.0,64,0.00,,---,0.00,VWS V14.01,2013-11-05 17:14:00,
2013-11-05 12:15:00,44.2,32.8,30.15,SW,233,0.0,1.0,64,0.00,,---,0.00,VWS V14.01,2013-11-05 17:15:00,
2013-11-05 12:16:00,44.2,32.8,30.15,SW,233,0.0,1.0,64,0.00,,---,0.00,VWS V14.01,2013-11-05 17:16:00,
2013-11-05 12:17:00,44.2,32.8,30.15,SW,233,0.0,1.0,64,0.00,,---,0.00,VWS V14.01,2013-11-05 17:17:00,
2013-11-05 12:18:00,44.2,32.8,30.15,SW,233,0.0,1.0,64,0.00,,---,0.00,VWS V14.01,2013-11-05 17:18:00,
2013-11-05 12:19:00,44.1,32.3,30.15,SW,233,0.0,1.0,63,0.00,,---,0.00,VWS V14.01,2013-11-05 17:19:00,
2013-11-05 12:20:00,44.1,32.3,30.15,SW,233,0.0,1.0,63,0.00,,---,0.00,VWS V14.01,2013-11-05 17:20:00,
2013-11-05 12:21:00,44.1,32.3,30.15,SW,233,0.0,0.0,63,0.00,,---,0.00,VWS V14.01,2013-11-05 17:21:00,
2013-11-05 12:22:00,44.1,32.3,30.15,SW,233,0.0,0.0,63,0.00,,---,0.00,VWS V14.01,2013-11-05 17:22:00,
2013-11-05 12:23:00,44.0,32.6,30.15,SW,233,0.0,0.0,64,0.00,,---,0.00,VWS V14.01,2013-11-05 17:23:00,
2013-11-05 12:24:00,44.0,32.6,30.15,SW,233,0.0,0.0,64,0.00,,---,0.00,VWS V14.01,2013-11-05 17:24:00,
2013-11-05 12:25:00,44.0,32.6,30.15,SW,233,0.0,0.0,64,0.00,,---,0.00,VWS V14.01,2013-11-05 17:25:00,
2013-11-05 12:26:00,44.0,32.6,30.15,SW,233,0.0,0.0,64,0.00,,---,0.00,VWS V14.01,2013-11-05 17:26:00,
2013-11-05 12:27:00,44.0,32.6,30.15,SW,233,0.0,0.0,64,0.00,,---,0.00,VWS V14.01,2013-11-05 17:27:00,
2013-11-05 12:28:00,43.9,32.5,30.15,SW,233,0.0,0.0,64,0.00,,---,0.00,VWS V14.01,2013-11-05 17:28:00,
2013-11-05 12:29:00,43.9,32.5,30.15,SW,233,0.0,0.0,64,0.00,,---,0.00,VWS V14.01,2013-11-05 17:29:00,
2013-11-05 12:30:00,43.8,32.4,30.15,SW,233,0.0,0.0,64,0.00,,---,0.00,VWS V14.01,2013-11-05 17:30:00,
2013-11-05 12:31:00,43.8,32.4,30.15,SW,233,0.0,0.0,64,0.00,,---,0.00,VWS V14.01,2013-11-05 17:31:00,
2013-11-05 12:32:00,43.7,32.7,30.15,SW,233,0.0,0.0,65,0.00,,---,0.00,VWS V14.01,2013-11-05 17:32:00,
2013-11-05 12:33:00,43.7,32.7,30.15,SW,233,0.0,0.0,65,0.00,,---,0.00,VWS V14.01,2013-11-05 17:33:00,
2013-11-05 12:34:00,43.7,32.7,30.15,SW,233,0.0,0.0,65,0.00,,---,0.00,VWS V14.01,2013-11-05 17:34:00,
2013-11-05 12:35:00,43.6,32.6,30.15,SW,233,0.0,1.0,65,0.00,,---,0.00,VWS V14.01,2013-11-05 17:35:00,
2013-11-05 12:36:00,43.6,32.6,30.15,SW,233,0.0,2.0,65,0.00,,---,0.00,VWS V14.01,2013-11-05 17:36:00,
2013-11-05 12:37:00,43.5,32.5,30.15,SW,233,0.0,3.0,65,0.00,,---,0.00,VWS V14.01,2013-11-05 17:37:00,
2013-11-05 12:38:00,43.3,32.7,30.15,SW,233,0.0,3.0,66,0.00,,---,0.00,VWS V14.01,2013-11-05 17:38:00,
2013-11-05 12:39:00,43.1,32.5,30.15,SW,233,0.0,3.0,66,0.00,,---,0.00,VWS V14.01,2013-11-05 17:39:00,
2013-11-05 12:40:00,42.8,32.2,30.15,SW,233,0.0,3.0,66,0.00,,---,0.00,VWS V14.01,2013-11-05 17:40:00,
2013-11-05 12:41:00,42.6,32.8,30.15,SW,233,0.0,0.0,68,0.00,,---,0.00,VWS V14.01,2013-11-05 17:41:00,
2013-11-05 12:42:00,42.3,32.9,30.15,SW,233,0.0,3.0,69,0.00,,---,0.00,VWS V14.01,2013-11-05 17:42:00,
2013-11-05 12:43:00,42.2,32.4,30.15,SW,233,0.0,3.0,68,0.00,,---,0.00,VWS V14.01,2013-11-05 17:43:00,
2013-11-05 12:44:00,42.0,32.6,30.14,SW,233,0.0,3.0,69,0.00,,---,0.00,VWS V14.01,2013-11-05 17:44:00,
2013-11-05 12:45:00,41.9,32.5,30.14,SW,233,1.0,3.0,69,0.00,,---,0.00,VWS V14.01,2013-11-05 17:45:00,
2013-11-05 12:46:00,41.8,32.4,30.14,SW,233,0.0,3.0,69,0.00,,---,0.00,VWS V14.01,2013-11-05 17:46:00,
2013-11-05 12:47:00,41.7,32.7,30.14,SW,233,0.0,3.0,70,0.00,,---,0.00,VWS V14.01,2013-11-05 17:47:00,
2013-11-05 12:48:00,41.6,32.6,30.14,SW,233,0.0,3.0,70,0.00,,---,0.00,VWS V14.01,2013-11-05 17:48:00,
2013-11-05 12:49:00,41.4,32.4,30.14,SW,233,0.0,3.0,70,0.00,,---,0.00,VWS V14.01,2013-11-05 17:49:00,
2013-11-05 12:50:00,41.3,32.6,30.14,SW,233,0.0,3.0,71,0.00,,---,0.00,VWS V14.01,2013-11-05 17:50:00,
2013-11-05 12:51:00,41.2,32.5,30.14,SW,233,0.0,2.0,71,0.00,,---,0.00,VWS V14.01,2013-11-05 17:51:00,
2013-11-05 12:52:00,41.1,32.4,30.14,SW,233,0.0,2.0,71,0.00,,---,0.00,VWS V14.01,2013-11-05 17:52:00,
2013-11-05 12:53:00,41.0,32.3,30.14,SW,233,0.0,2.0,71,0.00,,---,0.00,VWS V14.01,2013-11-05 17:53:00,
2013-11-05 12:54:00,40.9,32.6,30.14,SW,233,0.0,2.0,72,0.00,,---,0.00,VWS V14.01,2013-11-05 17:54:00,
2013-11-05 12:55:00,40.9,32.6,30.14,SW,233,0.0,2.0,72,0.00,,---,0.00,VWS V14.01,2013-11-05 17:55:00,
2013-11-05 12:56:00,40.9,32.6,30.14,SW,233,0.0,2.0,72,0.00,,---,0.00,VWS V14.01,2013-11-05 17:56:00,
2013-11-05 12:57:00,40.9,32.2,30.14,SW,233,0.0,2.0,71,0.00,,---,0.00,VWS V14.01,2013-11-05 17:57:00,
2013-11-05 12:58:00,40.9,32.2,30.14,SW,233,0.0,2.0,71,0.00,,---,0.00,VWS V14.01,2013-11-05 17:58:00,
2013-11-05 12:59:00,40.9,32.2,30.15,SW,233,0.0,2.0,71,0.00,,---,0.00,VWS V14.01,2013-11-05 17:59:00,
2013-11-05 13:00:00,40.9,32.2,30.15,SW,233,0.0,2.0,71,0.00,,---,0.00,VWS V14.01,2013-11-05 18:00:00,
2013-11-05 13:01:00,40.9,32.2,30.15,SW,233,0.0,1.0,71,0.00,,---,0.00,VWS V14.01,2013-11-05 18:01:00,
2013-11-05 13:02:00,40.9,32.2,30.15,SW,233,0.0,1.0,71,0.00,,---,0.00,VWS V14.01,2013-11-05 18:02:00,
2013-11-05 13:03:00,41.0,32.3,30.15,SW,233,0.0,1.0,71,0.00,,---,0.00,VWS V14.01,2013-11-05 18:03:00,
2013-11-05 13:04:00,41.0,32.3,30.15,SW,233,0.0,1.0,71,0.00,,---,0.00,VWS V14.01,2013-11-05 18:04:00,
2013-11-05 13:05:00,41.0,32.3,30.15,SW,233,0.0,1.0,71,0.00,,---,0.00,VWS V14.01,2013-11-05 18:05:00,
2013-11-05 13:06:00,41.0,32.3,30.15,SW,233,1.0,2.0,71,0.00,,---,0.00,VWS V14.01,2013-11-05 18:06:00,
2013-11-05 13:07:00,40.9,32.2,30.15,SW,233,2.0,2.0,71,0.00,,---,0.00,VWS V14.01,2013-11-05 18:07:00,
2013-11-05 13:08:00,41.0,32.3,30.15,SW,233,1.0,4.0,71,0.00,,---,0.00,VWS V14.01,2013-11-05 18:08:00,
2013-11-05 13:09:00,41.0,32.3,30.15,SW,233,0.0,4.0,71,0.00,,---,0.00,VWS V14.01,2013-11-05 18:09:00,
2013-11-05 13:10:00,41.0,32.3,30.15,SW,233,0.0,4.0,71,0.00,,---,0.00,VWS V14.01,2013-11-05 18:10:00,
2013-11-05 13:11:00,41.1,32.8,30.15,SW,233,0.0,1.0,72,0.00,,---,0.00,VWS V14.01,2013-11-05 18:11:00,
2013-11-05 13:12:00,41.1,32.8,30.15,SW,233,2.0,2.0,72,0.00,,---,0.00,VWS V14.01,2013-11-05 18:12:00,
2013-11-05 13:13:00,41.2,32.9,30.15,SW,233,3.0,4.0,72,0.00,,---,0.00,VWS V14.01,2013-11-05 18:13:00,
2013-11-05 13:14:00,41.2,32.9,30.14,SW,233,0.0,4.0,72,0.00,,---,0.00,VWS V14.01,2013-11-05 18:14:00,
2013-11-05 13:15:00,41.3,33.0,30.14,SW,233,0.0,4.0,72,0.00,,---,0.00,VWS V14.01,2013-11-05 18:15:00,
2013-11-05 13:16:00,41.3,33.0,30.14,SW,233,0.0,4.0,72,0.00,,---,0.00,VWS V14.01,2013-11-05 18:16:00,
2013-11-05 13:17:00,41.3,33.0,30.14,SW,233,0.0,4.0,72,0.00,,---,0.00,VWS V14.01,2013-11-05 18:17:00,
2013-11-05 13:18:00,41.4,33.1,30.14,SW,233,0.0,4.0,72,0.00,,---,0.00,VWS V14.01,2013-11-05 18:18:00,
2013-11-05 13:19:00,41.5,33.2,30.14,SW,233,0.0,4.0,72,0.00,,---,0.00,VWS V14.01,2013-11-05 18:19:00,
2013-11-05 13:20:00,41.5,33.2,30.14,SW,233,0.0,4.0,72,0.00,,---,0.00,VWS V14.01,2013-11-05 18:20:00,
2013-11-05 13:21:00,41.5,33.2,30.14,SW,233,0.0,0.0,72,0.00,,---,0.00,VWS V14.01,2013-11-05 18:21:00,
2013-11-05 13:22:00,41.6,32.9,30.14,SW,233,0.0,1.0,71,0.00,,---,0.00,VWS V14.01,2013-11-05 18:22:00,
2013-11-05 13:23:00,41.6,32.9,30.14,SW,233,0.0,1.0,71,0.00,,---,0.00,VWS V14.01,2013-11-05 18:23:00,
2013-11-05 13:24:00,41.7,33.0,30.14,SW,233,0.0,1.0,71,0.00,,---,0.00,VWS V14.01,2013-11-05 18:24:00,
2013-11-05 13:25:00,41.7,33.3,30.14,SW,233,1.0,1.0,72,0.00,,---,0.00,VWS V14.01,2013-11-05 18:25:00,
2013-11-05 13:26:00,41.7,33.3,30.14,SW,233,0.0,1.0,72,0.00,,---,0.00,VWS V14.01,2013-11-05 18:26:00,
2013-11-05 13:27:00,41.6,33.3,30.14,SW,233,0.0,1.0,72,0.00,,---,0.00,VWS V14.01,2013-11-05 18:27:00,
2013-11-05 13:28:00,41.5,33.2,30.14,SW,233,0.0,1.0,72,0.00,,---,0.00,VWS V14.01,2013-11-05 18:28:00,
2013-11-05 13:29:00,41.5,33.5,30.13,SW,233,0.0,1.0,73,0.00,,---,0.00,VWS V14.01,2013-11-05 18:29:00,
2013-11-05 13:30:00,41.3,33.3,30.13,SW,233,0.0,1.0,73,0.00,,---,0.00,VWS V14.01,2013-11-05 18:30:00,
2013-11-05 13:31:00,41.2,33.2,30.13,SW,233,0.0,0.0,73,0.00,,---,0.00,VWS V14.01,2013-11-05 18:31:00,
2013-11-05 13:32:00,41.1,33.5,30.13,SW,233,0.0,0.0,74,0.00,,---,0.00,VWS V14.01,2013-11-05 18:32:00,
2013-11-05 13:33:00,41.0,33.4,30.13,SW,233,0.0,0.0,74,0.00,,---,0.00,VWS V14.01,2013-11-05 18:33:00,
2013-11-05 13:34:00,40.9,33.3,30.13,SW,233,0.0,0.0,74,0.00,,---,0.00,VWS V14.01,2013-11-05 18:34:00,
2013-11-05 13:35:00,40.7,33.4,30.13,SW,233,0.0,1.0,75,0.00,,---,0.00,VWS V14.01,2013-11-05 18:35:00,
2013-11-05 13:36:00,40.6,33.3,30.13,SW,233,0.0,1.0,75,0.00,,---,0.00,VWS V14.01,2013-11-05 18:36:00,
2013-11-05 13:37:00,40.5,33.2,30.13,SW,233,0.0,1.0,75,0.00,,---,0.00,VWS V14.01,2013-11-05 18:37:00,
2013-11-05 13:38:00,40.4,33.1,30.13,SW,233,0.0,1.0,75,0.00,,---,0.00,VWS V14.01,2013-11-05 18:38:00,
2013-11-05 13:39:00,40.4,33.1,30.13,SW,233,0.0,1.0,75,0.00,,---,0.00,VWS V14.01,2013-11-05 18:39:00,
2013-11-05 13:40:00,40.3,33.3,30.13,SW,233,0.0,1.0,76,0.00,,---,0.00,VWS V14.01,2013-11-05 18:40:00,
2013-11-05 13:41:00,40.2,33.2,30.13,SW,233,0.0,0.0,76,0.00,,---,0.00,VWS V14.01,2013-11-05 18:41:00,
2013-11-05 13:42:00,40.1,33.2,30.13,SW,233,0.0,0.0,76,0.00,,---,0.00,VWS V14.01,2013-11-05 18:42:00,
2013-11-05 13:43:00,40.0,33.1,30.13,SW,233,0.0,0.0,76,0.00,,---,0.00,VWS V14.01,2013-11-05 18:43:00,
2013-11-05 13:44:00,40.0,33.1,30.12,SW,233,0.0,0.0,76,0.00,,---,0.00,VWS V14.01,2013-11-05 18:44:00,
2013-11-05 13:45:00,39.9,33.0,30.12,SW,233,0.0,0.0,76,0.00,,---,0.00,VWS V14.01,2013-11-05 18:45:00,
2013-11-05 13:46:00,39.8,32.9,30.12,SW,233,0.0,0.0,76,0.00,,---,0.00,VWS V14.01,2013-11-05 18:46:00,
2013-11-05 13:47:00,39.8,32.9,30.12,SW,233,0.0,0.0,76,0.00,,---,0.00,VWS V14.01,2013-11-05 18:47:00,
2013-11-05 13:48:00,39.7,32.8,30.12,SW,233,0.0,0.0,76,0.00,,---,0.00,VWS V14.01,2013-11-05 18:48:00,
2013-11-05 13:49:00,39.7,33.1,30.12,SW,233,0.0,0.0,77,0.00,,---,0.00,VWS V14.01,2013-11-05 18:49:00,
2013-11-05 13:50:00,39.6,33.0,30.12,SW,233,0.0,0.0,77,0.00,,---,0.00,VWS V14.01,2013-11-05 18:50:00,
2013-11-05 13:51:00,39.6,33.0,30.12,SW,233,0.0,0.0,77,0.00,,---,0.00,VWS V14.01,2013-11-05 18:51:00,
2013-11-05 13:52:00,39.6,33.0,30.12,SW,233,0.0,0.0,77,0.00,,---,0.00,VWS V14.01,2013-11-05 18:52:00,
2013-11-05 13:53:00,39.5,32.9,30.12,SW,233,0.0,0.0,77,0.00,,---,0.00,VWS V14.01,2013-11-05 18:53:00,
2013-11-05 13:54:00,39.5,32.9,30.12,SW,233,0.0,0.0,77,0.00,,---,0.00,VWS V14.01,2013-11-05 18:54:00,
2013-11-05 13:55:00,39.4,32.8,30.12,SW,233,0.0,0.0,77,0.00,,---,0.00,VWS V14.01,2013-11-05 18:55:00,
2013-11-05 13:56:00,39.4,32.8,30.12,SW,233,0.0,1.0,77,0.00,,---,0.00,VWS V14.01,2013-11-05 18:56:00,
2013-11-05 13:57:00,39.4,32.8,30.12,SW,233,0.0,1.0,77,0.00,,---,0.00,VWS V14.01,2013-11-05 18:57:00,
2013-11-05 13:58:00,39.4,32.8,30.12,SW,233,0.0,1.0,77,0.00,,---,0.00,VWS V14.01,2013-11-05 18:58:00,
2013-11-05 13:59:00,39.4,32.8,30.12,SW,233,0.0,1.0,77,0.00,,---,0.00,VWS V14.01,2013-11-05 18:59:00,
2013-11-05 14:00:00,39.4,32.8,30.12,SW,233,0.0,1.0,77,0.00,,---,0.00,VWS V14.01,2013-11-05 19:00:00,
2013-11-05 14:01:00,39.4,32.8,30.12,SW,233,0.0,0.0,77,0.00,,---,0.00,VWS V14.01,2013-11-05 19:01:00,
2013-11-05 14:02:00,39.4,32.8,30.12,SW,233,0.0,0.0,77,0.00,,---,0.00,VWS V14.01,2013-11-05 19:02:00,
2013-11-05 14:03:00,39.4,32.8,30.12,SW,233,0.0,0.0,77,0.00,,---,0.00,VWS V14.01,2013-11-05 19:03:00,
2013-11-05 14:04:00,39.3,33.0,30.12,SW,233,0.0,0.0,78,0.00,,---,0.00,VWS V14.01,2013-11-05 19:04:00,
2013-11-05 14:05:00,39.3,33.0,30.12,SW,233,0.0,0.0,78,0.00,,---,0.00,VWS V14.01,2013-11-05 19:05:00,
2013-11-05 14:06:00,39.3,33.0,30.12,SW,233,0.0,0.0,78,0.00,,---,0.00,VWS V14.01,2013-11-05 19:06:00,
2013-11-05 14:07:00,39.3,33.0,30.12,SW,233,0.0,1.0,78,0.00,,---,0.00,VWS V14.01,2013-11-05 19:07:00,
2013-11-05 14:08:00,39.2,33.2,30.12,SW,233,0.0,1.0,79,0.00,,---,0.00,VWS V14.01,2013-11-05 19:08:00,
2013-11-05 14:09:00,39.2,33.2,30.12,SW,233,0.0,1.0,79,0.00,,---,0.00,VWS V14.01,2013-11-05 19:09:00,
2013-11-05 14:10:00,39.2,33.2,30.12,SW,233,0.0,1.0,79,0.00,,---,0.00,VWS V14.01,2013-11-05 19:10:00,
2013-11-05 14:11:00,39.2,33.2,30.12,SW,233,0.0,0.0,79,0.00,,---,0.00,VWS V14.01,2013-11-05 19:11:00,
2013-11-05 14:12:00,39.1,33.2,30.12,SW,233,0.0,0.0,79,0.00,,---,0.00,VWS V14.01,2013-11-05 19:12:00,
2013-11-05 14:13:00,39.1,33.5,30.12,SW,233,0.0,0.0,80,0.00,,---,0.00,VWS V14.01,2013-11-05 19:13:00,
2013-11-05 14:15:00,39.0,33.7,30.13,SW,233,0.0,0.0,81,0.00,,---,0.00,VWS V14.01,2013-11-05 19:15:00,
2013-11-05 14:16:00,38.9,33.6,30.13,SW,233,0.0,0.0,81,0.00,,---,0.00,VWS V14.01,2013-11-05 19:16:00,
2013-11-05 14:17:00,38.9,33.6,30.13,SW,233,0.0,0.0,81,0.00,,---,0.00,VWS V14.01,2013-11-05 19:17:00,
2013-11-05 14:18:00,38.8,33.5,30.13,SW,233,0.0,0.0,81,0.00,,---,0.00,VWS V14.01,2013-11-05 19:18:00,
2013-11-05 14:19:00,38.8,33.5,30.13,SW,233,0.0,0.0,81,0.00,,---,0.00,VWS V14.01,2013-11-05 19:19:00,
2013-11-05 14:20:00,38.7,33.4,30.13,SW,233,0.0,0.0,81,0.00,,---,0.00,VWS V14.01,2013-11-05 19:20:00,
2013-11-05 14:21:00,38.6,33.6,30.13,SW,233,1.0,2.0,82,0.00,,---,0.00,VWS V14.01,2013-11-05 19:21:00,
2013-11-05 14:22:00,38.6,33.6,30.13,SW,233,0.0,2.0,82,0.00,,---,0.00,VWS V14.01,2013-11-05 19:22:00,
2013-11-05 14:23:00,38.5,33.8,30.13,SW,233,0.0,2.0,83,0.00,,---,0.00,VWS V14.01,2013-11-05 19:23:00,
2013-11-05 14:24:00,38.5,33.8,30.13,SW,233,0.0,2.0,83,0.00,,---,0.00,VWS V14.01,2013-11-05 19:24:00,
2013-11-05 14:25:00,38.4,33.7,30.13,SW,233,0.0,2.0,83,0.00,,---,0.00,VWS V14.01,2013-11-05 19:25:00,
2013-11-05 14:26:00,38.4,33.7,30.13,SW,233,0.0,2.0,83,0.00,,---,0.00,VWS V14.01,2013-11-05 19:26:00,
2013-11-05 14:27:00,38.4,34.0,30.13,SW,233,0.0,2.0,84,0.00,,---,0.00,VWS V14.01,2013-11-05 19:27:00,
2013-11-05 14:28:00,38.4,34.0,30.13,SW,233,0.0,2.0,84,0.00,,---,0.00,VWS V14.01,2013-11-05 19:28:00,
2013-11-05 14:29:00,38.4,33.7,30.13,SW,233,0.0,2.0,83,0.00,,---,0.00,VWS V14.01,2013-11-05 19:29:00,
2013-11-05 14:30:00,38.4,33.7,30.13,SW,233,0.0,2.0,83,0.00,,---,0.00,VWS V14.01,2013-11-05 19:30:00,
2013-11-05 14:31:00,38.4,33.7,30.13,SW,233,0.0,1.0,83,0.00,,---,0.00,VWS V14.01,2013-11-05 19:31:00,
2013-11-05 14:32:00,38.4,33.4,30.13,SW,233,1.0,1.0,82,0.00,,---,0.00,VWS V14.01,2013-11-05 19:32:00,
2013-11-05 14:33:00,38.5,33.5,30.13,SW,233,0.0,1.0,82,0.00,,---,0.00,VWS V14.01,2013-11-05 19:33:00,
2013-11-05 14:34:00,38.6,33.3,30.13,SW,233,0.0,2.0,81,0.00,,---,0.00,VWS V14.01,2013-11-05 19:34:00,
2013-11-05 14:35:00,38.6,33.3,30.13,SW,233,1.0,2.0,81,0.00,,---,0.00,VWS V14.01,2013-11-05 19:35:00,
2013-11-05 14:36:00,38.7,33.4,30.13,SW,233,0.0,2.0,81,0.00,,---,0.00,VWS V14.01,2013-11-05 19:36:00,
2013-11-05 14:37:00,38.8,33.5,30.13,SW,233,1.0,3.0,81,0.00,,---,0.00,VWS V14.01,2013-11-05 19:37:00,
2013-11-05 14:38:00,38.9,33.3,30.13,SW,233,0.0,3.0,80,0.00,,---,0.00,VWS V14.01,2013-11-05 19:38:00,
2013-11-05 14:39:00,39.0,33.4,30.13,SW,233,2.0,3.0,80,0.00,,---,0.00,VWS V14.01,2013-11-05 19:39:00,
2013-11-05 14:40:00,39.2,33.6,30.13,SW,233,0.0,3.0,80,0.00,,---,0.00,VWS V14.01,2013-11-05 19:40:00,
2013-11-05 14:41:00,39.4,33.4,30.13,SW,233,0.0,2.0,79,0.00,,---,0.00,VWS V14.01,2013-11-05 19:41:00,
2013-11-05 14:42:00,39.5,33.5,30.13,SW,233,1.0,2.0,79,0.00,,---,0.00,VWS V14.01,2013-11-05 19:42:00,
2013-11-05 14:43:00,39.6,33.6,30.13,SW,233,0.0,2.0,79,0.00,,---,0.00,VWS V14.01,2013-11-05 19:43:00,
2013-11-05 14:44:00,39.7,33.4,30.13,SW,233,1.0,2.0,78,0.00,,---,0.00,VWS V14.01,2013-11-05 19:44:00,
2013-11-05 14:45:00,39.8,33.5,30.13,SW,233,0.0,2.0,78,0.00,,---,0.00,VWS V14.01,2013-11-05 19:45:00,
2013-11-05 14:46:00,39.8,33.5,30.13,SW,234,1.0,4.0,78,0.00,,---,0.00,VWS V14.01,2013-11-05 19:46:00,
2013-11-05 14:47:00,40.0,33.7,30.13,SW,234,3.0,4.0,78,0.00,,---,0.00,VWS V14.01,2013-11-05 19:47:00,
2013-11-05 14:48:00,40.1,33.5,30.13,SW,234,1.0,4.0,77,0.00,,---,0.00,VWS V14.01,2013-11-05 19:48:00,
2013-11-05 14:49:00,40.2,33.6,30.13,SW,234,0.0,4.0,77,0.00,,---,0.00,VWS V14.01,2013-11-05 19:49:00,
2013-11-05 14:50:00,40.3,33.7,30.13,SW,234,2.0,4.0,77,0.00,,---,0.00,VWS V14.01,2013-11-05 19:50:00,
2013-11-05 14:51:00,40.4,33.5,30.13,SW,234,0.0,4.0,76,0.00,,---,0.00,VWS V14.01,2013-11-05 19:51:00,
2013-11-05 14:52:00,40.5,33.5,30.13,SW,234,1.0,4.0,76,0.00,,---,0.00,VWS V14.01,2013-11-05 19:52:00,
2013-11-05 14:53:00,40.6,33.6,30.13,SW,234,0.0,4.0,76,0.00,,---,0.00,VWS V14.01,2013-11-05 19:53:00,
2013-11-05 14:54:00,40.7,33.7,30.13,SW,234,0.0,4.0,76,0.00,,---,0.00,VWS V14.01,2013-11-05 19:54:00,
2013-11-05 14:55:00,40.8,33.8,30.13,SW,234,1.0,4.0,76,0.00,,---,0.00,VWS V14.01,2013-11-05 19:55:00,
2013-11-05 14:56:00,40.9,33.6,30.13,SW,234,1.0,4.0,75,0.00,,---,0.00,VWS V14.01,2013-11-05 19:56:00,
2013-11-05 14:57:00,40.9,33.6,30.13,SW,234,0.0,4.0,75,0.00,,---,0.00,VWS V14.01,2013-11-05 19:57:00,
2013-11-05 14:58:00,41.0,33.7,30.13,SW,234,1.0,4.0,75,0.00,,---,0.00,VWS V14.01,2013-11-05 19:58:00,
2013-11-05 14:59:00,41.0,33.7,30.13,SW,234,0.0,4.0,75,0.00,,---,0.00,VWS V14.01,2013-11-05 19:59:00,
2013-11-05 15:00:00,41.1,33.8,30.13,SW,234,0.0,0.0,75,0.00,,---,0.00,VWS V14.01,2013-11-05 20:00:00,
2013-11-05 15:01:00,41.1,33.5,30.13,SW,234,0.0,1.0,74,0.00,,---,0.00,VWS V14.01,2013-11-05 20:01:00,
2013-11-05 15:02:00,41.2,33.5,30.13,SW,234,0.0,1.0,74,0.00,,---,0.00,VWS V14.01,2013-11-05 20:02:00,
2013-11-05 15:03:00,41.2,33.5,30.13,SW,234,0.0,1.0,74,0.00,,---,0.00,VWS V14.01,2013-11-05 20:03:00,
2013-11-05 15:04:00,41.2,33.5,30.13,SW,234,0.0,1.0,74,0.00,,---,0.00,VWS V14.01,2013-11-05 20:04:00,
2013-11-05 15:05:00,41.2,33.5,30.13,SW,234,0.0,1.0,74,0.00,,---,0.00,VWS V14.01,2013-11-05 20:05:00,
2013-11-05 15:06:00,41.2,33.5,30.13,SW,234,0.0,1.0,74,0.00,,---,0.00,VWS V14.01,2013-11-05 20:06:00,
2013-11-05 15:07:00,41.2,33.5,30.13,SW,234,0.0,1.0,74,0.00,,---,0.00,VWS V14.01,2013-11-05 20:07:00,
2013-11-05 15:08:00,41.2,33.5,30.13,SW,234,0.0,1.0,74,0.00,,---,0.00,VWS V14.01,2013-11-05 20:08:00,
2013-11-05 15:09:00,41.2,33.5,30.13,SW,234,0.0,1.0,74,0.00,,---,0.00,VWS V14.01,2013-11-05 20:09:00,
2013-11-05 15:10:00,41.2,33.5,30.13,SW,234,0.0,1.0,74,0.00,,---,0.00,VWS V14.01,2013-11-05 20:10:00,
2013-11-05 15:11:00,41.2,33.5,30.13,SW,234,0.0,0.0,74,0.00,,---,0.00,VWS V14.01,2013-11-05 20:11:00,
2013-11-05 15:12:00,41.2,33.5,30.13,SW,234,0.0,0.0,74,0.00,,---,0.00,VWS V14.01,2013-11-05 20:12:00,
2013-11-05 15:13:00,41.1,33.5,30.13,SW,234,0.0,0.0,74,0.00,,---,0.00,VWS V14.01,2013-11-05 20:13:00,
2013-11-05 15:14:00,41.1,33.5,30.12,SW,234,0.0,0.0,74,0.00,,---,0.00,VWS V14.01,2013-11-05 20:14:00,
2013-11-05 15:15:00,41.0,33.4,30.12,SW,234,0.0,0.0,74,0.00,,---,0.00,VWS V14.01,2013-11-05 20:15:00,
2013-11-05 15:16:00,41.0,33.7,30.12,SW,234,0.0,0.0,75,0.00,,---,0.00,VWS V14.01,2013-11-05 20:16:00,
2013-11-05 15:17:00,41.0,33.7,30.12,SW,234,0.0,0.0,75,0.00,,---,0.00,VWS V14.01,2013-11-05 20:17:00,
2013-11-05 15:18:00,40.9,33.6,30.12,SW,234,0.0,0.0,75,0.00,,---,0.00,VWS V14.01,2013-11-05 20:18:00,
2013-11-05 15:19:00,40.9,33.9,30.12,SW,234,0.0,0.0,76,0.00,,---,0.00,VWS V14.01,2013-11-05 20:19:00,
2013-11-05 15:20:00,40.8,34.2,30.12,SW,234,0.0,0.0,77,0.00,,---,0.00,VWS V14.01,2013-11-05 20:20:00,
2013-11-05 15:21:00,40.7,34.4,30.12,SW,234,0.0,0.0,78,0.00,,---,0.00,VWS V14.01,2013-11-05 20:21:00,
2013-11-05 15:22:00,40.6,34.3,30.12,SW,234,0.0,0.0,78,0.00,,---,0.00,VWS V14.01,2013-11-05 20:22:00,
2013-11-05 15:23:00,40.6,34.3,30.12,SW,234,0.0,0.0,78,0.00,,---,0.00,VWS V14.01,2013-11-05 20:23:00,
2013-11-05 15:24:00,40.5,34.2,30.12,SW,234,0.0,0.0,78,0.00,,---,0.00,VWS V14.01,2013-11-05 20:24:00,
2013-11-05 15:25:00,40.4,34.4,30.12,SW,234,0.0,1.0,79,0.00,,---,0.00,VWS V14.01,2013-11-05 20:25:00,
2013-11-05 15:26:00,40.4,34.4,30.12,SW,234,0.0,1.0,79,0.00,,---,0.00,VWS V14.01,2013-11-05 20:26:00,
2013-11-05 15:27:00,40.3,34.3,30.12,SW,234,0.0,2.0,79,0.00,,---,0.00,VWS V14.01,2013-11-05 20:27:00,
2013-11-05 15:28:00,40.2,33.9,30.12,SW,234,0.0,2.0,78,0.00,,---,0.00,VWS V14.01,2013-11-05 20:28:00,
2013-11-05 15:29:00,40.2,33.9,30.12,SW,234,0.0,2.0,78,0.00,,---,0.00,VWS V14.01,2013-11-05 20:29:00,
2013-11-05 15:30:00,40.1,33.8,30.13,SW,234,0.0,2.0,78,0.00,,---,0.00,VWS V14.01,2013-11-05 20:30:00,
2013-11-05 15:31:00,40.0,33.7,30.13,SW,234,0.0,0.0,78,0.00,,---,0.00,VWS V14.01,2013-11-05 20:31:00,
2013-11-05 15:32:00,40.0,33.7,30.13,SW,234,0.0,1.0,78,0.00,,---,0.00,VWS V14.01,2013-11-05 20:32:00,
2013-11-05 15:33:00,40.0,33.7,30.13,SW,234,1.0,1.0,78,0.00,,---,0.00,VWS V14.01,2013-11-05 20:33:00,
2013-11-05 15:34:00,40.0,33.7,30.13,SW,234,0.0,1.0,78,0.00,,---,0.00,VWS V14.01,2013-11-05 20:34:00,
2013-11-05 15:35:00,39.9,33.6,30.13,SW,234,0.0,1.0,78,0.00,,---,0.00,VWS V14.01,2013-11-05 20:35:00,
2013-11-05 15:36:00,39.9,33.6,30.13,SW,234,0.0,1.0,78,0.00,,---,0.00,VWS V14.01,2013-11-05 20:36:00,
2013-11-05 15:37:00,39.9,33.6,30.13,SW,234,0.0,1.0,78,0.00,,---,0.00,VWS V14.01,2013-11-05 20:37:00,
2013-11-05 15:38:00,39.8,33.5,30.13,SW,234,0.0,1.0,78,0.00,,---,0.00,VWS V14.01,2013-11-05 20:38:00,
2013-11-05 15:39:00,39.8,33.5,30.13,SW,234,0.0,1.0,78,0.00,,---,0.00,VWS V14.01,2013-11-05 20:39:00,
2013-11-05 15:40:00,39.8,33.5,30.13,SW,234,0.0,1.0,78,0.00,,---,0.00,VWS V14.01,2013-11-05 20:40:00,
2013-11-05 15:41:00,39.7,33.4,30.13,SW,234,0.0,0.0,78,0.00,,---,0.00,VWS V14.01,2013-11-05 20:41:00,
2013-11-05 15:42:00,39.7,33.7,30.13,SW,234,0.0,0.0,79,0.00,,---,0.00,VWS V14.01,2013-11-05 20:42:00,
2013-11-05 15:43:00,39.7,33.7,30.13,SW,234,0.0,0.0,79,0.00,,---,0.00,VWS V14.01,2013-11-05 20:43:00,
2013-11-05 15:44:00,39.6,33.6,30.13,SW,234,0.0,0.0,79,0.00,,---,0.00,VWS V14.01,2013-11-05 20:44:00,
2013-11-05 15:45:00,39.5,33.5,30.13,SW,234,0.0,0.0,79,0.00,,---,0.00,VWS V14.01,2013-11-05 20:45:00,
2013-11-05 15:46:00,39.4,33.8,30.13,SW,234,0.0,1.0,80,0.00,,---,0.00,VWS V14.01,2013-11-05 20:46:00,
2013-11-05 15:47:00,39.3,33.7,30.13,SW,234,0.0,1.0,80,0.00,,---,0.00,VWS V14.01,2013-11-05 20:47:00,
2013-11-05 15:48:00,39.2,33.6,30.13,SW,234,0.0,1.0,80,0.00,,---,0.00,VWS V14.01,2013-11-05 20:48:00,
2013-11-05 15:49:00,39.1,33.5,30.13,SW,234,0.0,1.0,80,0.00,,---,0.00,VWS V14.01,2013-11-05 20:49:00,
2013-11-05 15:50:00,39.1,33.8,30.13,SW,234,0.0,1.0,81,0.00,,---,0.00,VWS V14.01,2013-11-05 20:50:00,
2013-11-05 15:51:00,39.0,33.7,30.13,SW,234,0.0,0.0,81,0.00,,---,0.00,VWS V14.01,2013-11-05 20:51:00,
2013-11-05 15:52:00,38.9,33.6,30.13,SW,234,0.0,0.0,81,0.00,,---,0.00,VWS V14.01,2013-11-05 20:52:00,
2013-11-05 15:53:00,38.9,33.6,30.13,SW,234,0.0,0.0,81,0.00,,---,0.00,VWS V14.01,2013-11-05 20:53:00,
2013-11-05 15:54:00,38.8,33.5,30.13,SW,234,0.0,1.0,81,0.00,,---,0.00,VWS V14.01,2013-11-05 20:54:00,
2013-11-05 15:55:00,38.7,33.4,30.13,SW,234,0.0,1.0,81,0.00,,---,0.00,VWS V14.01,2013-11-05 20:55:00,
2013-11-05 15:56:00,38.7,33.4,30.13,SW,234,0.0,1.0,81,0.00,,---,0.00,VWS V14.01,2013-11-05 20:56:00,
2013-11-05 15:57:00,38.7,33.4,30.13,SW,234,0.0,1.0,81,0.00,,---,0.00,VWS V14.01,2013-11-05 20:57:00,
2013-11-05 15:58:00,38.6,33.3,30.13,SW,234,0.0,1.0,81,0.00,,---,0.00,VWS V14.01,2013-11-05 20:58:00,
2013-11-05 15:59:00,38.6,33.3,30.13,SW,234,0.0,1.0,81,0.00,,---,0.00,VWS V14.01,2013-11-05 20:59:00,
2013-11-05 16:00:00,38.6,33.3,30.12,SW,234,0.0,1.0,81,0.00,,---,0.00,VWS V14.01,2013-11-05 21:00:00,
2013-11-05 16:01:00,38.5,33.2,30.12,SW,234,0.0,0.0,81,0.00,,---,0.00,VWS V14.01,2013-11-05 21:01:00,
2013-11-05 16:02:00,38.4,33.4,30.12,SW,234,0.0,1.0,82,0.00,,---,0.00,VWS V14.01,2013-11-05 21:02:00,
2013-11-05 16:03:00,38.4,33.4,30.12,SW,234,0.0,1.0,82,0.00,,---,0.00,VWS V14.01,2013-11-05 21:03:00,
2013-11-05 16:04:00,38.4,33.4,30.12,SW,234,0.0,1.0,82,0.00,,---,0.00,VWS V14.01,2013-11-05 21:04:00,
2013-11-05 16:05:00,38.3,33.3,30.12,SW,234,0.0,1.0,82,0.00,,---,0.00,VWS V14.01,2013-11-05 21:05:00,
2013-11-05 16:06:00,38.3,33.6,30.12,SW,234,0.0,1.0,83,0.00,,---,0.00,VWS V14.01,2013-11-05 21:06:00,
2013-11-05 16:07:00,38.2,33.5,30.12,SW,234,0.0,1.0,83,0.00,,---,0.00,VWS V14.01,2013-11-05 21:07:00,
2013-11-05 16:08:00,38.2,33.5,30.12,SW,234,0.0,1.0,83,0.00,,---,0.00,VWS V14.01,2013-11-05 21:08:00,
2013-11-05 16:09:00,38.1,33.4,30.12,SW,234,0.0,1.0,83,0.00,,---,0.00,VWS V14.01,2013-11-05 21:09:00,
2013-11-05 16:10:00,38.1,33.4,30.12,SW,234,0.0,1.0,83,0.00,,---,0.00,VWS V14.01,2013-11-05 21:10:00,
2013-11-05 16:11:00,38.1,33.7,30.12,SW,234,0.0,0.0,84,0.00,,---,0.00,VWS V14.01,2013-11-05 21:11:00,
2013-11-05 16:12:00,38.1,33.7,30.12,SW,234,0.0,0.0,84,0.00,,---,0.00,VWS V14.01,2013-11-05 21:12:00,
2013-11-05 16:13:00,38.0,33.6,30.12,SW,234,0.0,0.0,84,0.00,,---,0.00,VWS V14.01,2013-11-05 21:13:00,
2013-11-05 16:14:00,38.0,33.6,30.12,SW,234,0.0,0.0,84,0.00,,---,0.00,VWS V14.01,2013-11-05 21:14:00,
2013-11-05 16:15:00,38.0,33.6,30.12,SW,234,0.0,0.0,84,0.00,,---,0.00,VWS V14.01,2013-11-05 21:15:00,
2013-11-05 16:16:00,37.9,33.8,30.12,SW,234,0.0,0.0,85,0.00,,---,0.00,VWS V14.01,2013-11-05 21:16:00,
2013-11-05 16:17:00,37.9,33.8,30.12,SW,234,0.0,0.0,85,0.00,,---,0.00,VWS V14.01,2013-11-05 21:17:00,
2013-11-05 16:18:00,37.9,33.8,30.12,SW,234,0.0,0.0,85,0.00,,---,0.00,VWS V14.01,2013-11-05 21:18:00,
2013-11-05 16:19:00,37.8,33.7,30.12,SW,234,0.0,0.0,85,0.00,,---,0.00,VWS V14.01,2013-11-05 21:19:00,
2013-11-05 16:20:00,37.8,33.7,30.12,SW,234,0.0,0.0,85,0.00,,---,0.00,VWS V14.01,2013-11-05 21:20:00,
2013-11-05 16:21:00,37.7,33.9,30.12,SW,234,0.0,0.0,86,0.00,,---,0.00,VWS V14.01,2013-11-05 21:21:00,
2013-11-05 16:22:00,37.7,33.9,30.12,SW,234,0.0,0.0,86,0.00,,---,0.00,VWS V14.01,2013-11-05 21:22:00,
2013-11-05 16:23:00,37.7,33.9,30.12,SW,234,0.0,0.0,86,0.00,,---,0.00,VWS V14.01,2013-11-05 21:23:00,
2013-11-05 16:24:00,37.6,33.8,30.12,SW,234,0.0,0.0,86,0.00,,---,0.00,VWS V14.01,2013-11-05 21:24:00,
2013-11-05 16:25:00,37.6,33.8,30.12,SW,234,0.0,0.0,86,0.00,,---,0.00,VWS V14.01,2013-11-05 21:25:00,
2013-11-05 16:26:00,37.5,33.7,30.12,SW,234,0.0,0.0,86,0.00,,---,0.00,VWS V14.01,2013-11-05 21:26:00,
2013-11-05 16:27:00,37.5,33.7,30.12,SW,234,0.0,0.0,86,0.00,,---,0.00,VWS V14.01,2013-11-05 21:27:00,
2013-11-05 16:28:00,37.4,33.6,30.12,SW,234,0.0,0.0,86,0.00,,---,0.00,VWS V14.01,2013-11-05 21:28:00,
2013-11-05 16:29:00,37.4,33.6,30.12,SW,234,0.0,0.0,86,0.00,,---,0.00,VWS V14.01,2013-11-05 21:29:00,
2013-11-05 16:30:00,37.3,33.5,30.12,SW,234,0.0,0.0,86,0.00,,---,0.00,VWS V14.01,2013-11-05 21:30:00,
2013-11-05 16:31:00,37.3,33.5,30.12,SW,234,0.0,0.0,86,0.00,,---,0.00,VWS V14.01,2013-11-05 21:31:00,
2013-11-05 16:32:00,37.3,33.5,30.12,SW,234,0.0,1.0,86,0.00,,---,0.00,VWS V14.01,2013-11-05 21:32:00,
2013-11-05 16:33:00,37.2,33.4,30.12,SW,234,1.0,1.0,86,0.00,,---,0.00,VWS V14.01,2013-11-05 21:33:00,
2013-11-05 16:34:00,37.2,33.4,30.12,SW,234,0.0,1.0,86,0.00,,---,0.00,VWS V14.01,2013-11-05 21:34:00,
2013-11-05 16:35:00,37.2,33.4,30.12,SW,234,0.0,1.0,86,0.00,,---,0.00,VWS V14.01,2013-11-05 21:35:00,
2013-11-05 16:36:00,37.1,33.3,30.12,SW,234,0.0,1.0,86,0.00,,---,0.00,VWS V14.01,2013-11-05 21:36:00,
2013-11-05 16:37:00,37.1,33.3,30.12,SW,234,0.0,1.0,86,0.00,,---,0.00,VWS V14.01,2013-11-05 21:37:00,
2013-11-05 16:38:00,37.1,33.3,30.12,SW,234,0.0,1.0,86,0.00,,---,0.00,VWS V14.01,2013-11-05 21:38:00,
2013-11-05 16:39:00,37.1,33.3,30.12,SW,234,0.0,1.0,86,0.00,,---,0.00,VWS V14.01,2013-11-05 21:39:00,
2013-11-05 16:40:00,37.1,33.3,30.12,SW,234,0.0,1.0,86,0.00,,---,0.00,VWS V14.01,2013-11-05 21:40:00,
2013-11-05 16:41:00,37.1,33.3,30.12,SW,234,0.0,0.0,86,0.00,,---,0.00,VWS V14.01,2013-11-05 21:41:00,
2013-11-05 16:42:00,37.1,33.3,30.12,SW,234,0.0,1.0,86,0.00,,---,0.00,VWS V14.01,2013-11-05 21:42:00,
2013-11-05 16:43:00,37.1,33.3,30.12,SW,234,0.0,1.0,86,0.00,,---,0.00,VWS V14.01,2013-11-05 21:43:00,
2013-11-05 16:44:00,37.1,33.3,30.12,SW,234,1.0,1.0,86,0.00,,---,0.00,VWS V14.01,2013-11-05 21:44:00,
2013-11-05 16:45:00,37.1,33.3,30.12,SW,234,0.0,1.0,86,0.00,,---,0.00,VWS V14.01,2013-11-05 21:45:00,
2013-11-05 16:46:00,37.1,33.6,30.12,SW,234,0.0,1.0,87,0.00,,---,0.00,VWS V14.01,2013-11-05 21:46:00,
2013-11-05 16:47:00,37.1,33.6,30.12,SW,234,0.0,1.0,87,0.00,,---,0.00,VWS V14.01,2013-11-05 21:47:00,
2013-11-05 16:48:00,37.1,33.6,30.12,SW,234,0.0,1.0,87,0.00,,---,0.00,VWS V14.01,2013-11-05 21:48:00,
2013-11-05 16:49:00,37.1,33.6,30.12,SW,234,0.0,1.0,87,0.00,,---,0.00,VWS V14.01,2013-11-05 21:49:00,
2013-11-05 16:50:00,37.1,33.9,30.12,SW,234,0.0,1.0,88,0.00,,---,0.00,VWS V14.01,2013-11-05 21:50:00,
2013-11-05 16:51:00,37.1,33.9,30.12,SW,234,0.0,1.0,88,0.00,,---,0.00,VWS V14.01,2013-11-05 21:51:00,
2013-11-05 16:52:00,37.1,33.9,30.12,SW,234,0.0,1.0,88,0.00,,---,0.00,VWS V14.01,2013-11-05 21:52:00,
2013-11-05 16:53:00,37.2,34.0,30.12,SW,234,1.0,1.0,88,0.00,,---,0.00,VWS V14.01,2013-11-05 21:53:00,
2013-11-05 16:54:00,37.2,34.0,30.12,SW,234,0.0,1.0,88,0.00,,---,0.00,VWS V14.01,2013-11-05 21:54:00,
2013-11-05 16:55:00,37.1,33.6,30.12,SW,234,0.0,1.0,87,0.00,,---,0.00,VWS V14.01,2013-11-05 21:55:00,
2013-11-05 16:56:00,37.2,33.7,30.12,SW,234,0.0,1.0,87,0.00,,---,0.00,VWS V14.01,2013-11-05 21:56:00,
2013-11-05 16:57:00,37.2,33.7,30.12,SW,234,0.0,1.0,87,0.00,,---,0.00,VWS V14.01,2013-11-05 21:57:00,
2013-11-05 16:58:00,37.2,33.7,30.12,SW,234,0.0,1.0,87,0.00,,---,0.00,VWS V14.01,2013-11-05 21:58:00,
2013-11-05 16:59:00,37.3,33.8,30.12,SW,234,0.0,1.0,87,0.00,,---,0.00,VWS V14.01,2013-11-05 21:59:00,
2013-11-05 17:00:00,37.2,33.4,30.12,SW,234,0.0,1.0,86,0.00,,---,0.00,VWS V14.01,2013-11-05 22:00:00,
2013-11-05 17:01:00,37.3,33.5,30.12,SW,234,0.0,1.0,86,0.00,,---,0.00,VWS V14.01,2013-11-05 22:01:00,
2013-11-05 17:02:00,37.3,33.5,30.12,SW,234,0.0,3.0,86,0.00,,---,0.00,VWS V14.01,2013-11-05 22:02:00,
2013-11-05 17:03:00,37.3,33.5,30.12,SW,234,0.0,3.0,86,0.00,,---,0.00,VWS V14.01,2013-11-05 22:03:00,
2013-11-05 17:04:00,37.3,33.5,30.12,SW,234,0.0,3.0,86,0.00,,---,0.00,VWS V14.01,2013-11-05 22:04:00,
2013-11-05 17:05:00,37.2,33.4,30.12,SW,234,0.0,3.0,86,0.00,,---,0.00,VWS V14.01,2013-11-05 22:05:00,
2013-11-05 17:06:00,37.3,33.5,30.12,SW,234,0.0,3.0,86,0.00,,---,0.00,VWS V14.01,2013-11-05 22:06:00,
2013-11-05 17:07:00,37.3,33.5,30.12,SW,234,0.0,3.0,86,0.00,,---,0.00,VWS V14.01,2013-11-05 22:07:00,
2013-11-05 17:08:00,37.3,33.5,30.12,SW,234,0.0,3.0,86,0.00,,---,0.00,VWS V14.01,2013-11-05 22:08:00,
2013-11-05 17:09:00,37.3,33.5,30.12,SW,234,0.0,3.0,86,0.00,,---,0.00,VWS V14.01,2013-11-05 22:09:00,
2013-11-05 17:10:00,37.3,33.8,30.12,SW,234,0.0,3.0,87,0.00,,---,0.00,VWS V14.01,2013-11-05 22:10:00,
2013-11-05 17:11:00,37.3,33.8,30.12,SW,234,0.0,0.0,87,0.00,,---,0.00,VWS V14.01,2013-11-05 22:11:00,
2013-11-05 17:12:00,37.3,33.8,30.12,SW,234,0.0,0.0,87,0.00,,---,0.00,VWS V14.01,2013-11-05 22:12:00,
2013-11-05 17:13:00,37.3,33.8,30.12,SW,234,0.0,0.0,87,0.00,,---,0.00,VWS V14.01,2013-11-05 22:13:00,
2013-11-05 17:14:00,37.2,33.7,30.12,SW,234,1.0,1.0,87,0.00,,---,0.00,VWS V14.01,2013-11-05 22:14:00,
2013-11-05 17:15:00,37.2,33.7,30.12,SW,234,0.0,1.0,87,0.00,,---,0.00,VWS V14.01,2013-11-05 22:15:00,
2013-11-05 17:16:00,37.2,33.7,30.12,SW,234,0.0,1.0,87,0.00,,---,0.00,VWS V14.01,2013-11-05 22:16:00,
2013-11-05 17:17:00,37.1,33.6,30.12,SW,234,0.0,1.0,87,0.00,,---,0.00,VWS V14.01,2013-11-05 22:17:00,
2013-11-05 17:18:00,37.1,33.6,30.12,SW,234,0.0,1.0,87,0.00,,---,0.00,VWS V14.01,2013-11-05 22:18:00,
2013-11-05 17:19:00,37.1,33.6,30.12,SW,234,0.0,1.0,87,0.00,,---,0.00,VWS V14.01,2013-11-05 22:19:00,
2013-11-05 17:20:00,37.1,33.6,30.12,SW,234,0.0,1.0,87,0.00,,---,0.00,VWS V14.01,2013-11-05 22:20:00,
2013-11-05 17:21:00,37.0,33.5,30.12,SW,234,0.0,0.0,87,0.00,,---,0.00,VWS V14.01,2013-11-05 22:21:00,
2013-11-05 17:22:00,37.0,33.5,30.12,SW,234,0.0,0.0,87,0.00,,---,0.00,VWS V14.01,2013-11-05 22:22:00,
2013-11-05 17:23:00,37.0,33.5,30.12,SW,234,0.0,0.0,87,0.00,,---,0.00,VWS V14.01,2013-11-05 22:23:00,
2013-11-05 17:24:00,37.0,33.5,30.12,SW,234,0.0,1.0,87,0.00,,---,0.00,VWS V14.01,2013-11-05 22:24:00,
2013-11-05 17:25:00,37.0,33.5,30.12,SW,234,0.0,1.0,87,0.00,,---,0.00,VWS V14.01,2013-11-05 22:25:00,
2013-11-05 17:26:00,37.0,33.5,30.12,SW,234,0.0,1.0,87,0.00,,---,0.00,VWS V14.01,2013-11-05 22:26:00,
2013-11-05 17:27:00,36.9,33.4,30.12,SW,234,0.0,1.0,87,0.00,,---,0.00,VWS V14.01,2013-11-05 22:27:00,
2013-11-05 17:28:00,36.9,33.4,30.12,SW,234,1.0,1.0,87,0.00,,---,0.00,VWS V14.01,2013-11-05 22:28:00,
2013-11-05 17:29:00,36.9,33.4,30.12,SW,234,0.0,2.0,87,0.00,,---,0.00,VWS V14.01,2013-11-05 22:29:00,
2013-11-05 17:30:00,36.9,33.4,30.12,SW,234,0.0,2.0,87,0.00,,---,0.00,VWS V14.01,2013-11-05 22:30:00,
2013-11-05 17:31:00,36.9,33.7,30.12,SW,234,0.0,0.0,88,0.00,,---,0.00,VWS V14.01,2013-11-05 22:31:00,
2013-11-05 17:32:00,36.9,33.7,30.12,SW,234,0.0,1.0,88,0.00,,---,0.00,VWS V14.01,2013-11-05 22:32:00,
2013-11-05 17:33:00,36.9,33.7,30.12,SW,234,0.0,1.0,88,0.00,,---,0.00,VWS V14.01,2013-11-05 22:33:00,
2013-11-05 17:34:00,36.9,33.7,30.12,SW,234,0.0,1.0,88,0.00,,---,0.00,VWS V14.01,2013-11-05 22:34:00,
2013-11-05 17:35:00,36.9,33.7,30.12,SW,234,0.0,1.0,88,0.00,,---,0.00,VWS V14.01,2013-11-05 22:35:00,
2013-11-05 17:36:00,36.9,33.7,30.12,SW,234,0.0,1.0,88,0.00,,---,0.00,VWS V14.01,2013-11-05 22:36:00,
2013-11-05 17:37:00,37.0,33.8,30.12,SW,234,0.0,1.0,88,0.00,,---,0.00,VWS V14.01,2013-11-05 22:37:00,
2013-11-05 17:38:00,37.0,33.8,30.12,SW,234,0.0,1.0,88,0.00,,---,0.00,VWS V14.01,2013-11-05 22:38:00,
2013-11-05 17:39:00,37.0,33.8,30.12,SW,234,0.0,1.0,88,0.00,,---,0.00,VWS V14.01,2013-11-05 22:39:00,
2013-11-05 17:40:00,37.0,33.8,30.12,SW,234,0.0,1.0,88,0.00,,---,0.00,VWS V14.01,2013-11-05 22:40:00,
2013-11-05 17:41:00,37.0,33.5,30.12,SW,234,1.0,2.0,87,0.00,,---,0.00,VWS V14.01,2013-11-05 22:41:00,
2013-11-05 17:42:00,37.0,33.5,30.12,SW,234,0.0,2.0,87,0.00,,---,0.00,VWS V14.01,2013-11-05 22:42:00,
2013-11-05 17:43:00,37.0,33.5,30.12,SW,234,0.0,2.0,87,0.00,,---,0.00,VWS V14.01,2013-11-05 22:43:00,
2013-11-05 17:44:00,37.0,33.5,30.12,SW,234,0.0,2.0,87,0.00,,---,0.00,VWS V14.01,2013-11-05 22:44:00,
2013-11-05 17:45:00,37.0,33.5,30.12,SW,234,0.0,2.0,87,0.00,,---,0.00,VWS V14.01,2013-11-05 22:45:00,
2013-11-05 17:46:00,37.0,33.5,30.12,SW,234,0.0,2.0,87,0.00,,---,0.00,VWS V14.01,2013-11-05 22:46:00,
2013-11-05 17:47:00,37.0,33.5,30.12,SW,234,0.0,2.0,87,0.00,,---,0.00,VWS V14.01,2013-11-05 22:47:00,
2013-11-05 17:48:00,37.1,33.6,30.12,SW,234,0.0,2.0,87,0.00,,---,0.00,VWS V14.01,2013-11-05 22:48:00,
2013-11-05 17:49:00,37.1,33.6,30.12,SW,234,0.0,2.0,87,0.00,,---,0.00,VWS V14.01,2013-11-05 22:49:00,
2013-11-05 17:50:00,37.1,33.6,30.12,SW,234,0.0,2.0,87,0.00,,---,0.00,VWS V14.01,2013-11-05 22:50:00,
2013-11-05 17:51:00,37.1,33.6,30.12,SW,234,0.0,0.0,87,0.00,,---,0.00,VWS V14.01,2013-11-05 22:51:00,
2013-11-05 17:52:00,37.1,33.6,30.12,SW,234,0.0,0.0,87,0.00,,---,0.00,VWS V14.01,2013-11-05 22:52:00,
2013-11-05 17:53:00,37.1,33.6,30.12,SW,234,0.0,0.0,87,0.00,,---,0.00,VWS V14.01,2013-11-05 22:53:00,
2013-11-05 17:54:00,37.1,33.6,30.12,SW,234,0.0,0.0,87,0.00,,---,0.00,VWS V14.01,2013-11-05 22:54:00,
2013-11-05 17:55:00,37.0,33.5,30.12,SW,234,0.0,0.0,87,0.00,,---,0.00,VWS V14.01,2013-11-05 22:55:00,
2013-11-05 17:56:00,37.0,33.5,30.12,SW,234,0.0,0.0,87,0.00,,---,0.00,VWS V14.01,2013-11-05 22:56:00,
2013-11-05 17:57:00,37.0,33.5,30.12,SW,234,0.0,0.0,87,0.00,,---,0.00,VWS V14.01,2013-11-05 22:57:00,
2013-11-05 17:58:00,37.0,33.2,30.12,SW,234,0.0,0.0,86,0.00,,---,0.00,VWS V14.01,2013-11-05 22:58:00,
2013-11-05 17:59:00,37.0,33.2,30.12,SW,234,0.0,0.0,86,0.00,,---,0.00,VWS V14.01,2013-11-05 22:59:00,
2013-11-05 18:00:00,37.0,33.2,30.12,SW,234,0.0,0.0,86,0.00,,---,0.00,VWS V14.01,2013-11-05 23:00:00,
2013-11-05 18:01:00,37.0,33.2,30.12,SW,234,0.0,0.0,86,0.00,,---,0.00,VWS V14.01,2013-11-05 23:01:00,
2013-11-05 18:02:00,37.0,33.2,30.12,SW,234,0.0,0.0,86,0.00,,---,0.00,VWS V14.01,2013-11-05 23:02:00,
2013-11-05 18:03:00,37.0,33.2,30.12,SW,234,0.0,0.0,86,0.00,,---,0.00,VWS V14.01,2013-11-05 23:03:00,
2013-11-05 18:04:00,37.0,33.2,30.12,SW,234,0.0,1.0,86,0.00,,---,0.00,VWS V14.01,2013-11-05 23:04:00,
2013-11-05 18:05:00,37.0,33.2,30.12,SW,234,0.0,1.0,86,0.00,,---,0.00,VWS V14.01,2013-11-05 23:05:00,
2013-11-05 18:06:00,37.0,33.2,30.12,SW,234,0.0,1.0,86,0.00,,---,0.00,VWS V14.01,2013-11-05 23:06:00,
2013-11-05 18:07:00,37.0,33.2,30.12,SW,234,0.0,1.0,86,0.00,,---,0.00,VWS V14.01,2013-11-05 23:07:00,
2013-11-05 18:08:00,37.0,33.2,30.12,SW,234,0.0,1.0,86,0.00,,---,0.00,VWS V14.01,2013-11-05 23:08:00,
2013-11-05 18:09:00,37.0,33.2,30.12,SW,234,0.0,1.0,86,0.00,,---,0.00,VWS V14.01,2013-11-05 23:09:00,
2013-11-05 18:10:00,37.0,33.2,30.12,SW,234,0.0,1.0,86,0.00,,---,0.00,VWS V14.01,2013-11-05 23:10:00,
2013-11-05 18:11:00,36.9,33.1,30.12,SW,234,0.0,0.0,86,0.00,,---,0.00,VWS V14.01,2013-11-05 23:11:00,
2013-11-05 18:12:00,36.9,33.1,30.12,SW,234,0.0,0.0,86,0.00,,---,0.00,VWS V14.01,2013-11-05 23:12:00,
2013-11-05 18:13:00,36.9,33.1,30.12,SW,234,0.0,0.0,86,0.00,,---,0.00,VWS V14.01,2013-11-05 23:13:00,
2013-11-05 18:14:00,36.9,33.1,30.12,SW,234,0.0,0.0,86,0.00,,---,0.00,VWS V14.01,2013-11-05 23:14:00,
2013-11-05 18:15:00,36.9,33.1,30.12,SW,234,0.0,0.0,86,0.00,,---,0.00,VWS V14.01,2013-11-05 23:15:00,
2013-11-05 18:16:00,36.9,33.1,30.12,SW,234,0.0,0.0,86,0.00,,---,0.00,VWS V14.01,2013-11-05 23:16:00,
2013-11-05 18:17:00,36.9,33.1,30.12,SW,234,0.0,0.0,86,0.00,,---,0.00,VWS V14.01,2013-11-05 23:17:00,
2013-11-05 18:18:00,36.9,33.1,30.12,SW,234,0.0,1.0,86,0.00,,---,0.00,VWS V14.01,2013-11-05 23:18:00,
2013-11-05 18:19:00,36.9,33.1,30.12,SW,234,0.0,1.0,86,0.00,,---,0.00,VWS V14.01,2013-11-05 23:19:00,
2013-11-05 18:20:00,36.9,33.1,30.12,SW,234,0.0,1.0,86,0.00,,---,0.00,VWS V14.01,2013-11-05 23:20:00,
2013-11-05 18:21:00,36.8,33.0,30.12,SW,234,0.0,0.0,86,0.00,,---,0.00,VWS V14.01,2013-11-05 23:21:00,
2013-11-05 18:22:00,36.8,33.0,30.12,SW,234,0.0,0.0,86,0.00,,---,0.00,VWS V14.01,2013-11-05 23:22:00,
2013-11-05 18:23:00,36.8,33.0,30.12,SW,234,0.0,0.0,86,0.00,,---,0.00,VWS V14.01,2013-11-05 23:23:00,
2013-11-05 18:24:00,36.8,33.0,30.12,SW,234,0.0,0.0,86,0.00,,---,0.00,VWS V14.01,2013-11-05 23:24:00,
2013-11-05 18:25:00,36.8,33.0,30.12,SW,234,0.0,0.0,86,0.00,,---,0.00,VWS V14.01,2013-11-05 23:25:00,
2013-11-05 18:26:00,36.8,33.0,30.12,SW,234,0.0,0.0,86,0.00,,---,0.00,VWS V14.01,2013-11-05 23:26:00,
2013-11-05 18:27:00,36.8,32.7,30.12,SW,234,0.0,0.0,85,0.00,,---,0.00,VWS V14.01,2013-11-05 23:27:00,
2013-11-05 18:28:00,36.8,32.7,30.12,SW,234,0.0,0.0,85,0.00,,---,0.00,VWS V14.01,2013-11-05 23:28:00,
2013-11-05 18:29:00,36.8,32.7,30.12,SW,234,0.0,0.0,85,0.00,,---,0.00,VWS V14.01,2013-11-05 23:29:00,
2013-11-05 18:30:00,36.8,32.7,30.12,SW,234,0.0,0.0,85,0.00,,---,0.00,VWS V14.01,2013-11-05 23:30:00,
2013-11-05 18:31:00,36.7,32.6,30.12,SW,234,0.0,0.0,85,0.00,,---,0.00,VWS V14.01,2013-11-05 23:31:00,
2013-11-05 18:32:00,36.7,32.9,30.12,SW,234,0.0,0.0,86,0.00,,---,0.00,VWS V14.01,2013-11-05 23:32:00,
2013-11-05 18:33:00,36.7,32.6,30.12,SW,234,0.0,1.0,85,0.00,,---,0.00,VWS V14.01,2013-11-05 23:33:00,
2013-11-05 18:34:00,36.7,32.6,30.12,SW,234,0.0,1.0,85,0.00,,---,0.00,VWS V14.01,2013-11-05 23:34:00,
2013-11-05 18:35:00,36.7,32.6,30.12,SW,234,0.0,1.0,85,0.00,,---,0.00,VWS V14.01,2013-11-05 23:35:00,
2013-11-05 18:36:00,36.7,32.6,30.12,SW,234,0.0,1.0,85,0.00,,---,0.00,VWS V14.01,2013-11-05 23:36:00,
2013-11-05 18:37:00,36.7,32.6,30.12,SW,234,0.0,1.0,85,0.00,,---,0.00,VWS V14.01,2013-11-05 23:37:00,
2013-11-05 18:38:00,36.7,32.6,30.12,SW,234,0.0,1.0,85,0.00,,---,0.00,VWS V14.01,2013-11-05 23:38:00,
2013-11-05 18:39:00,36.6,32.5,30.12,SW,234,0.0,1.0,85,0.00,,---,0.00,VWS V14.01,2013-11-05 23:39:00,
2013-11-05 18:40:00,36.6,32.5,30.12,SW,234,0.0,1.0,85,0.00,,---,0.00,VWS V14.01,2013-11-05 23:40:00,
2013-11-05 18:41:00,36.6,32.5,30.12,SW,234,0.0,0.0,85,0.00,,---,0.00,VWS V14.01,2013-11-05 23:41:00,
2013-11-05 18:42:00,36.6,32.5,30.12,SW,234,0.0,0.0,85,0.00,,---,0.00,VWS V14.01,2013-11-05 23:42:00,
2013-11-05 18:43:00,36.6,32.5,30.12,SW,234,0.0,0.0,85,0.00,,---,0.00,VWS V14.01,2013-11-05 23:43:00,
2013-11-05 18:44:00,36.6,32.5,30.12,SW,234,0.0,0.0,85,0.00,,---,0.00,VWS V14.01,2013-11-05 23:44:00,
2013-11-05 18:45:00,36.6,32.8,30.13,SW,234,0.0,0.0,86,0.00,,---,0.00,VWS V14.01,2013-11-05 23:45:00,
2013-11-05 18:46:00,36.6,32.5,30.13,SW,234,0.0,0.0,85,0.00,,---,0.00,VWS V14.01,2013-11-05 23:46:00,
2013-11-05 18:47:00,36.6,32.5,30.13,SW,234,0.0,0.0,85,0.00,,---,0.00,VWS V14.01,2013-11-05 23:47:00,
2013-11-05 18:48:00,36.6,32.5,30.13,SW,234,0.0,0.0,85,0.00,,---,0.00,VWS V14.01,2013-11-05 23:48:00,
2013-11-05 18:49:00,36.5,32.4,30.13,SW,234,0.0,0.0,85,0.00,,---,0.00,VWS V14.01,2013-11-05 23:49:00,
2013-11-05 18:50:00,36.5,32.4,30.13,SW,234,0.0,0.0,85,0.00,,---,0.00,VWS V14.01,2013-11-05 23:50:00,
2013-11-05 18:51:00,36.5,32.4,30.13,SW,234,0.0,0.0,85,0.00,,---,0.00,VWS V14.01,2013-11-05 23:51:00,
2013-11-05 18:52:00,36.5,32.4,30.13,SW,234,0.0,0.0,85,0.00,,---,0.00,VWS V14.01,2013-11-05 23:52:00,
2013-11-05 18:53:00,36.5,32.4,30.13,SW,234,0.0,0.0,85,0.00,,---,0.00,VWS V14.01,2013-11-05 23:53:00,
2013-11-05 18:54:00,36.5,32.4,30.13,SW,234,0.0,0.0,85,0.00,,---,0.00,VWS V14.01,2013-11-05 23:54:00,
2013-11-05 18:55:00,36.5,32.4,30.13,SW,234,0.0,0.0,85,0.00,,---,0.00,VWS V14.01,2013-11-05 23:55:00,
2013-11-05 18:56:00,36.5,32.4,30.13,SW,234,0.0,0.0,85,0.00,,---,0.00,VWS V14.01,2013-11-05 23:56:00,
2013-11-05 18:57:00,36.4,32.3,30.13,SW,234,0.0,0.0,85,0.00,,---,0.00,VWS V14.01,2013-11-05 23:57:00,
2013-11-05 18:58:00,36.4,32.3,30.13,SW,234,0.0,0.0,85,0.00,,---,0.00,VWS V14.01,2013-11-05 23:58:00,
2013-11-05 18:59:00,36.4,32.3,30.13,SW,234,0.0,0.0,85,0.00,,---,0.00,VWS V14.01,2013-11-05 23:59:00,
2013-11-05 19:00:00,36.4,32.3,30.13,SW,234,0.0,0.0,85,0.00,,---,0.00,VWS V14.01,2013-11-06 00:00:00,
2013-11-05 19:01:00,36.4,32.3,30.13,SW,234,0.0,0.0,85,0.00,,---,0.00,VWS V14.01,2013-11-06 00:01:00,
2013-11-05 19:02:00,36.4,32.3,30.13,SW,234,0.0,0.0,85,0.00,,---,0.00,VWS V14.01,2013-11-06 00:02:00,
2013-11-05 19:03:00,36.4,32.3,30.13,SW,234,0.0,0.0,85,0.00,,---,0.00,VWS V14.01,2013-11-06 00:03:00,
2013-11-05 19:04:00,36.4,32.3,30.13,SW,234,0.0,0.0,85,0.00,,---,0.00,VWS V14.01,2013-11-06 00:04:00,
2013-11-05 19:05:00,36.3,32.2,30.13,SW,234,0.0,0.0,85,0.00,,---,0.00,VWS V14.01,2013-11-06 00:05:00,
2013-11-05 19:06:00,36.3,32.2,30.13,SW,234,0.0,0.0,85,0.00,,---,0.00,VWS V14.01,2013-11-06 00:06:00,
2013-11-05 19:07:00,36.3,32.2,30.13,SW,234,0.0,0.0,85,0.00,,---,0.00,VWS V14.01,2013-11-06 00:07:00,
2013-11-05 19:08:00,36.3,32.5,30.13,SW,234,0.0,0.0,86,0.00,,---,0.00,VWS V14.01,2013-11-06 00:08:00,
2013-11-05 19:09:00,36.3,32.5,30.13,SW,234,0.0,0.0,86,0.00,,---,0.00,VWS V14.01,2013-11-06 00:09:00,
2013-11-05 19:10:00,36.2,32.4,30.13,SW,234,0.0,0.0,86,0.00,,---,0.00,VWS V14.01,2013-11-06 00:10:00,
2013-11-05 19:11:00,36.2,32.4,30.13,SW,234,0.0,0.0,86,0.00,,---,0.00,VWS V14.01,2013-11-06 00:11:00,
2013-11-05 19:12:00,36.2,32.4,30.13,SW,234,0.0,0.0,86,0.00,,---,0.00,VWS V14.01,2013-11-06 00:12:00,
2013-11-05 19:13:00,36.2,32.4,30.13,SW,234,0.0,0.0,86,0.00,,---,0.00,VWS V14.01,2013-11-06 00:13:00,
2013-11-05 19:14:00,36.2,32.4,30.14,SW,234,0.0,0.0,86,0.00,,---,0.00,VWS V14.01,2013-11-06 00:14:00,
2013-11-05 19:15:00,36.2,32.4,30.14,SW,234,0.0,0.0,86,0.00,,---,0.00,VWS V14.01,2013-11-06 00:15:00,
2013-11-05 19:16:00,36.1,32.3,30.14,SW,234,0.0,0.0,86,0.00,,---,0.00,VWS V14.01,2013-11-06 00:16:00,
2013-11-05 19:17:00,36.1,32.3,30.14,SW,234,0.0,0.0,86,0.00,,---,0.00,VWS V14.01,2013-11-06 00:17:00,
2013-11-05 19:18:00,36.1,32.3,30.14,SW,234,0.0,0.0,86,0.00,,---,0.00,VWS V14.01,2013-11-06 00:18:00,
2013-11-05 19:19:00,36.1,32.3,30.14,SW,234,0.0,0.0,86,0.00,,---,0.00,VWS V14.01,2013-11-06 00:19:00,
2013-11-05 19:20:00,36.1,32.3,30.14,SW,234,0.0,0.0,86,0.00,,---,0.00,VWS V14.01,2013-11-06 00:20:00,
2013-11-05 19:21:00,36.1,32.3,30.14,SW,234,0.0,0.0,86,0.00,,---,0.00,VWS V14.01,2013-11-06 00:21:00,
2013-11-05 19:22:00,36.1,32.3,30.14,SW,234,0.0,0.0,86,0.00,,---,0.00,VWS V14.01,2013-11-06 00:22:00,
2013-11-05 19:23:00,36.1,32.3,30.14,SW,234,0.0,0.0,86,0.00,,---,0.00,VWS V14.01,2013-11-06 00:23:00,
2013-11-05 19:24:00,36.0,32.2,30.14,SW,234,0.0,0.0,86,0.00,,---,0.00,VWS V14.01,2013-11-06 00:24:00,
2013-11-05 19:25:00,36.0,32.2,30.14,SW,234,0.0,0.0,86,0.00,,---,0.00,VWS V14.01,2013-11-06 00:25:00,
2013-11-05 19:26:00,36.0,32.2,30.14,SW,234,0.0,0.0,86,0.00,,---,0.00,VWS V14.01,2013-11-06 00:26:00,
2013-11-05 19:27:00,36.0,32.2,30.14,SW,234,0.0,0.0,86,0.00,,---,0.00,VWS V14.01,2013-11-06 00:27:00,
2013-11-05 19:28:00,36.0,32.2,30.14,SW,234,0.0,0.0,86,0.00,,---,0.00,VWS V14.01,2013-11-06 00:28:00,
2013-11-05 19:29:00,35.9,32.1,30.13,SW,234,0.0,0.0,86,0.00,,---,0.00,VWS V14.01,2013-11-06 00:29:00,
2013-11-05 19:30:00,35.9,32.1,30.13,SW,234,0.0,0.0,86,0.00,,---,0.00,VWS V14.01,2013-11-06 00:30:00,
2013-11-05 19:31:00,35.9,32.1,30.13,SW,234,0.0,0.0,86,0.00,,---,0.00,VWS V14.01,2013-11-06 00:31:00,
2013-11-05 19:32:00,35.9,32.1,30.13,SW,234,0.0,0.0,86,0.00,,---,0.00,VWS V14.01,2013-11-06 00:32:00,
2013-11-05 19:33:00,35.9,32.1,30.13,SW,234,0.0,0.0,86,0.00,,---,0.00,VWS V14.01,2013-11-06 00:33:00,
2013-11-05 19:34:00,35.9,32.1,30.13,SW,234,0.0,0.0,86,0.00,,---,0.00,VWS V14.01,2013-11-06 00:34:00,
2013-11-05 19:35:00,35.9,32.1,30.13,SW,234,0.0,0.0,86,0.00,,---,0.00,VWS V14.01,2013-11-06 00:35:00,
2013-11-05 19:36:00,35.8,32.0,30.13,SW,234,0.0,0.0,86,0.00,,---,0.00,VWS V14.01,2013-11-06 00:36:00,
2013-11-05 19:37:00,35.8,32.0,30.13,SW,234,0.0,0.0,86,0.00,,---,0.00,VWS V14.01,2013-11-06 00:37:00,
2013-11-05 19:38:00,35.8,32.0,30.13,SW,234,0.0,0.0,86,0.00,,---,0.00,VWS V14.01,2013-11-06 00:38:00,
2013-11-05 19:39:00,35.8,32.0,30.13,SW,234,0.0,0.0,86,0.00,,---,0.00,VWS V14.01,2013-11-06 00:39:00,
2013-11-05 19:40:00,35.8,32.0,30.13,SW,234,0.0,0.0,86,0.00,,---,0.00,VWS V14.01,2013-11-06 00:40:00,
2013-11-05 19:41:00,35.7,31.9,30.13,SW,234,0.0,0.0,86,0.00,,---,0.00,VWS V14.01,2013-11-06 00:41:00,
2013-11-05 19:42:00,35.7,31.9,30.13,SW,234,0.0,0.0,86,0.00,,---,0.00,VWS V14.01,2013-11-06 00:42:00,
2013-11-05 19:43:00,35.7,31.9,30.13,SW,234,0.0,0.0,86,0.00,,---,0.00,VWS V14.01,2013-11-06 00:43:00,
2013-11-05 19:44:00,35.7,31.9,30.14,SW,234,0.0,0.0,86,0.00,,---,0.00,VWS V14.01,2013-11-06 00:44:00,
2013-11-05 19:45:00,35.7,31.9,30.14,SW,234,0.0,1.0,86,0.00,,---,0.00,VWS V14.01,2013-11-06 00:45:00,
2013-11-05 19:46:00,35.7,32.2,30.14,SW,234,0.0,1.0,87,0.00,,---,0.00,VWS V14.01,2013-11-06 00:46:00,
2013-11-05 19:47:00,35.6,32.1,30.14,SW,234,0.0,1.0,87,0.00,,---,0.00,VWS V14.01,2013-11-06 00:47:00,
2013-11-05 19:48:00,35.6,32.1,30.14,SW,234,0.0,1.0,87,0.00,,---,0.00,VWS V14.01,2013-11-06 00:48:00,
2013-11-05 19:49:00,35.6,32.1,30.14,SW,234,0.0,1.0,87,0.00,,---,0.00,VWS V14.01,2013-11-06 00:49:00,
2013-11-05 19:50:00,35.6,32.1,30.14,SW,234,3.0,3.0,87,0.00,,---,0.00,VWS V14.01,2013-11-06 00:50:00,
2013-11-05 19:51:00,35.6,32.1,30.14,SW,234,1.0,4.0,87,0.00,,---,0.00,VWS V14.01,2013-11-06 00:51:00,
2013-11-05 19:52:00,35.6,32.1,30.14,SW,234,1.0,4.0,87,0.00,,---,0.00,VWS V14.01,2013-11-06 00:52:00,
2013-11-05 19:53:00,35.6,32.1,30.14,SW,234,0.0,4.0,87,0.00,,---,0.00,VWS V14.01,2013-11-06 00:53:00,
2013-11-05 19:54:00,35.6,32.1,30.14,SW,234,0.0,4.0,87,0.00,,---,0.00,VWS V14.01,2013-11-06 00:54:00,
2013-11-05 19:55:00,35.6,32.1,30.14,SW,234,0.0,4.0,87,0.00,,---,0.00,VWS V14.01,2013-11-06 00:55:00,
2013-11-05 19:56:00,35.6,32.1,30.14,SW,234,0.0,4.0,87,0.00,,---,0.00,VWS V14.01,2013-11-06 00:56:00,
2013-11-05 19:57:00,35.5,32.0,30.14,SW,234,1.0,4.0,87,0.00,,---,0.00,VWS V14.01,2013-11-06 00:57:00,
2013-11-05 19:58:00,35.6,32.1,30.14,SW,234,0.0,4.0,87,0.00,,---,0.00,VWS V14.01,2013-11-06 00:58:00,
2013-11-05 19:59:00,35.5,32.0,30.14,SW,234,0.0,4.0,87,0.00,,---,0.00,VWS V14.01,2013-11-06 00:59:00,
2013-11-05 20:00:00,35.5,32.3,30.14,SW,234,0.0,4.0,88,0.00,,---,0.00,VWS V14.01,2013-11-06 01:00:00,
2013-11-05 20:01:00,35.5,32.3,30.14,SW,234,1.0,2.0,88,0.00,,---,0.00,VWS V14.01,2013-11-06 01:01:00,
2013-11-05 20:02:00,35.5,32.3,30.14,SW,234,0.0,2.0,88,0.00,,---,0.00,VWS V14.01,2013-11-06 01:02:00,
2013-11-05 20:03:00,35.5,32.3,30.14,SW,234,0.0,2.0,88,0.00,,---,0.00,VWS V14.01,2013-11-06 01:03:00,
2013-11-05 20:04:00,35.5,32.3,30.14,SW,234,1.0,2.0,88,0.00,,---,0.00,VWS V14.01,2013-11-06 01:04:00,
2013-11-05 20:05:00,35.5,32.3,30.14,SW,234,0.0,2.0,88,0.00,,---,0.00,VWS V14.01,2013-11-06 01:05:00,
2013-11-05 20:06:00,35.5,32.3,30.14,SW,234,2.0,2.0,88,0.00,,---,0.00,VWS V14.01,2013-11-06 01:06:00,
2013-11-05 20:07:00,35.5,32.3,30.14,SW,234,0.0,3.0,88,0.00,,---,0.00,VWS V14.01,2013-11-06 01:07:00,
2013-11-05 20:08:00,35.5,32.3,30.14,SW,234,0.0,3.0,88,0.00,,---,0.00,VWS V14.01,2013-11-06 01:08:00,
2013-11-05 20:09:00,35.6,32.4,30.14,SW,234,0.0,3.0,88,0.00,,---,0.00,VWS V14.01,2013-11-06 01:09:00,
2013-11-05 20:10:00,35.6,32.7,30.14,SW,234,3.0,3.0,89,0.00,,---,0.00,VWS V14.01,2013-11-06 01:10:00,
2013-11-05 20:11:00,35.6,32.7,30.14,SW,234,2.0,4.0,89,0.00,,---,0.00,VWS V14.01,2013-11-06 01:11:00,
2013-11-05 20:12:00,35.6,32.7,30.14,SW,234,3.0,4.0,89,0.00,,---,0.00,VWS V14.01,2013-11-06 01:12:00,
2013-11-05 20:13:00,35.6,32.7,30.14,SW,234,2.0,4.0,89,0.00,,---,0.00,VWS V14.01,2013-11-06 01:13:00,
2013-11-05 20:14:00,35.6,32.7,30.14,SW,234,2.0,4.0,89,0.00,,---,0.00,VWS V14.01,2013-11-06 01:14:00,
2013-11-05 20:15:00,35.6,32.7,30.14,SW,234,0.0,4.0,89,0.00,,---,0.00,VWS V14.01,2013-11-06 01:15:00,
2013-11-05 20:16:00,35.7,32.8,30.14,SW,234,2.0,4.0,89,0.00,,---,0.00,VWS V14.01,2013-11-06 01:16:00,
2013-11-05 20:17:00,35.7,32.8,30.14,SW,234,2.0,4.0,89,0.00,,---,0.00,VWS V14.01,2013-11-06 01:17:00,
2013-11-05 20:18:00,35.7,32.8,30.14,SW,234,0.0,4.0,89,0.00,,---,0.00,VWS V14.01,2013-11-06 01:18:00,
2013-11-05 20:19:00,35.7,32.8,30.14,SW,234,0.0,4.0,89,0.00,,---,0.00,VWS V14.01,2013-11-06 01:19:00,
2013-11-05 20:20:00,35.8,32.9,30.14,SW,234,0.0,4.0,89,0.00,,---,0.00,VWS V14.01,2013-11-06 01:20:00,
2013-11-05 20:21:00,35.8,32.9,30.14,SW,234,0.0,1.0,89,0.00,,---,0.00,VWS V14.01,2013-11-06 01:21:00,
2013-11-05 20:22:00,35.9,33.0,30.14,SW,234,3.0,4.0,89,0.00,,---,0.00,VWS V14.01,2013-11-06 01:22:00,
2013-11-05 20:23:00,36.1,32.9,30.14,SW,234,0.0,4.0,88,0.00,,---,0.00,VWS V14.01,2013-11-06 01:23:00,
2013-11-05 20:24:00,36.3,33.1,30.14,SW,234,0.0,4.0,88,0.00,,---,0.00,VWS V14.01,2013-11-06 01:24:00,
2013-11-05 20:25:00,36.4,33.2,30.14,SW,234,2.0,4.0,88,0.00,,---,0.00,VWS V14.01,2013-11-06 01:25:00,
2013-11-05 20:26:00,36.6,33.1,30.14,SW,234,1.0,4.0,87,0.00,,---,0.00,VWS V14.01,2013-11-06 01:26:00,
2013-11-05 20:27:00,36.7,33.2,30.14,SW,234,0.0,4.0,87,0.00,,---,0.00,VWS V14.01,2013-11-06 01:27:00,
2013-11-05 20:28:00,36.8,33.3,30.14,SW,234,0.0,4.0,87,0.00,,---,0.00,VWS V14.01,2013-11-06 01:28:00,
2013-11-05 20:29:00,37.0,33.2,30.15,SW,234,0.0,4.0,86,0.00,,---,0.00,VWS V14.01,2013-11-06 01:29:00,
2013-11-05 20:30:00,37.0,33.2,30.15,SW,234,0.0,4.0,86,0.00,,---,0.00,VWS V14.01,2013-11-06 01:30:00,
2013-11-05 20:31:00,37.1,33.0,30.15,WSW,237,5.0,5.0,85,0.00,,---,0.00,VWS V14.01,2013-11-06 01:31:00,
2013-11-05 20:32:00,37.1,33.0,30.15,WSW,237,1.0,5.0,85,0.00,,---,0.00,VWS V14.01,2013-11-06 01:32:00,
2013-11-05 20:33:00,37.3,33.2,30.15,WSW,237,2.0,5.0,85,0.00,,---,0.00,VWS V14.01,2013-11-06 01:33:00,
2013-11-05 20:34:00,37.4,33.0,30.15,WSW,237,2.0,5.0,84,0.00,,---,0.00,VWS V14.01,2013-11-06 01:34:00,
2013-11-05 20:35:00,37.7,32.7,30.15,WSW,237,1.0,5.0,82,0.00,,---,0.00,VWS V14.01,2013-11-06 01:35:00,
2013-11-05 20:36:00,37.8,32.8,30.15,WSW,237,0.0,5.0,82,0.00,,---,0.00,VWS V14.01,2013-11-06 01:36:00,
2013-11-05 20:37:00,38.0,32.7,30.15,WSW,237,1.0,5.0,81,0.00,,---,0.00,VWS V14.01,2013-11-06 01:37:00,
2013-11-05 20:38:00,38.2,32.9,30.15,WSW,237,0.0,5.0,81,0.00,,---,0.00,VWS V14.01,2013-11-06 01:38:00,
2013-11-05 20:39:00,38.4,33.1,30.15,WSW,237,0.0,5.0,81,0.00,,---,0.00,VWS V14.01,2013-11-06 01:39:00,
2013-11-05 20:40:00,38.6,33.0,30.15,WSW,237,0.0,5.0,80,0.00,,---,0.00,VWS V14.01,2013-11-06 01:40:00,
2013-11-05 20:41:00,38.7,32.8,30.15,WSW,237,0.0,3.0,79,0.00,,---,0.00,VWS V14.01,2013-11-06 01:41:00,
2013-11-05 20:42:00,38.8,32.9,30.15,WSW,237,0.0,3.0,79,0.00,,---,0.00,VWS V14.01,2013-11-06 01:42:00,
2013-11-05 20:43:00,39.0,33.0,30.15,WSW,237,2.0,3.0,79,0.00,,---,0.00,VWS V14.01,2013-11-06 01:43:00,
2013-11-05 20:44:00,39.3,33.3,30.15,WSW,237,2.0,3.0,79,0.00,,---,0.00,VWS V14.01,2013-11-06 01:44:00,
2013-11-05 20:45:00,39.5,33.5,30.15,WSW,237,2.0,3.0,79,0.00,,---,0.00,VWS V14.01,2013-11-06 01:45:00,
2013-11-05 20:46:00,39.7,33.4,30.15,WSW,239,0.0,4.0,78,0.00,,---,0.00,VWS V14.01,2013-11-06 01:46:00,
2013-11-05 20:47:00,40.1,33.2,30.15,WSW,239,0.0,4.0,76,0.00,,---,0.00,VWS V14.01,2013-11-06 01:47:00,
2013-11-05 20:48:00,40.3,33.0,30.15,WSW,239,0.0,4.0,75,0.00,,---,0.00,VWS V14.01,2013-11-06 01:48:00,
2013-11-05 20:49:00,40.7,33.1,30.15,WSW,239,2.0,4.0,74,0.00,,---,0.00,VWS V14.01,2013-11-06 01:49:00,
2013-11-05 20:50:00,40.9,33.3,30.15,WSW,239,0.0,4.0,74,0.00,,---,0.00,VWS V14.01,2013-11-06 01:50:00,
2013-11-05 20:51:00,41.1,33.5,30.15,WSW,239,0.0,3.0,74,0.00,,---,0.00,VWS V14.01,2013-11-06 01:51:00,
2013-11-05 20:52:00,41.4,33.8,30.15,WSW,239,3.0,3.0,74,0.00,,---,0.00,VWS V14.01,2013-11-06 01:52:00,
2013-11-05 20:53:00,41.6,32.9,30.15,WSW,239,0.0,3.0,71,0.00,,---,0.00,VWS V14.01,2013-11-06 01:53:00,
2013-11-05 20:54:00,41.8,33.1,30.15,WSW,239,2.0,3.0,71,0.00,,---,0.00,VWS V14.01,2013-11-06 01:54:00,
2013-11-05 20:55:00,42.1,33.4,30.15,WSW,239,2.0,4.0,71,0.00,,---,0.00,VWS V14.01,2013-11-06 01:55:00,
2013-11-05 20:56:00,42.3,33.2,30.15,WSW,239,3.0,4.0,70,0.00,,---,0.00,VWS V14.01,2013-11-06 01:56:00,
2013-11-05 20:57:00,42.5,33.4,30.15,WSW,239,1.0,4.0,70,0.00,,---,0.00,VWS V14.01,2013-11-06 01:57:00,
2013-11-05 20:58:00,42.7,33.2,30.15,WSW,239,3.0,4.0,69,0.00,,---,0.00,VWS V14.01,2013-11-06 01:58:00,
2013-11-05 20:59:00,43.0,33.2,30.15,WSW,239,3.0,4.0,68,0.00,,---,0.00,VWS V14.01,2013-11-06 01:59:00,
2013-11-05 21:00:00,43.3,33.5,30.15,WSW,239,1.0,4.0,68,0.00,,---,0.00,VWS V14.01,2013-11-06 02:00:00,
2013-11-05 21:01:00,43.5,33.3,30.15,WSW,239,0.0,1.0,67,0.00,,---,0.00,VWS V14.01,2013-11-06 02:01:00,
2013-11-05 21:02:00,43.7,33.5,30.15,WSW,239,2.0,2.0,67,0.00,,---,0.00,VWS V14.01,2013-11-06 02:02:00,
2013-11-05 21:03:00,43.9,34.0,30.15,WSW,239,0.0,4.0,68,0.00,,---,0.00,VWS V14.01,2013-11-06 02:03:00,
2013-11-05 21:04:00,44.1,34.2,30.15,WSW,239,0.0,4.0,68,0.00,,---,0.00,VWS V14.01,2013-11-06 02:04:00,
2013-11-05 21:05:00,44.2,34.0,30.15,WSW,244,1.0,4.0,67,0.00,,---,0.00,VWS V14.01,2013-11-06 02:05:00,
2013-11-05 21:06:00,44.4,33.8,30.15,WNW,298,2.0,5.0,66,0.00,,---,0.00,VWS V14.01,2013-11-06 02:06:00,
2013-11-05 21:07:00,44.6,34.0,30.15,WNW,298,2.0,5.0,66,0.00,,---,0.00,VWS V14.01,2013-11-06 02:07:00,
2013-11-05 21:08:00,44.7,34.4,30.15,WNW,289,3.0,5.0,67,0.00,,---,0.00,VWS V14.01,2013-11-06 02:08:00,
2013-11-05 21:09:00,44.7,34.0,30.15,WNW,302,6.0,6.0,66,0.00,,---,0.00,VWS V14.01,2013-11-06 02:09:00,
2013-11-05 21:10:00,44.9,33.5,30.15,WNW,295,1.0,7.0,64,0.00,,---,0.00,VWS V14.01,2013-11-06 02:10:00,
2013-11-05 21:11:00,45.2,33.4,30.15,WSW,246,5.0,5.0,63,0.00,,---,0.00,VWS V14.01,2013-11-06 02:11:00,
2013-11-05 21:12:00,45.5,33.7,30.15,WNW,284,4.0,5.0,63,0.00,,---,0.00,VWS V14.01,2013-11-06 02:12:00,
2013-11-05 21:13:00,45.9,33.6,30.15,WNW,288,2.0,5.0,62,0.00,,---,0.00,VWS V14.01,2013-11-06 02:13:00,
2013-11-05 21:14:00,46.2,33.9,30.15,WNW,294,1.0,5.0,62,0.00,,---,0.00,VWS V14.01,2013-11-06 02:14:00,
2013-11-05 21:15:00,46.6,34.3,30.15,West,281,3.0,6.0,62,0.00,,---,0.00,VWS V14.01,2013-11-06 02:15:00,
2013-11-05 21:16:00,47.1,33.9,30.15,WNW,292,0.0,6.0,60,0.00,,---,0.00,VWS V14.01,2013-11-06 02:16:00,
2013-11-05 21:17:00,47.7,34.5,30.15,West,274,3.0,6.0,60,0.00,,---,0.00,VWS V14.01,2013-11-06 02:17:00,
2013-11-05 21:18:00,48.2,34.6,30.15,West,278,1.0,6.0,59,0.00,,---,0.00,VWS V14.01,2013-11-06 02:18:00,
2013-11-05 21:19:00,48.6,34.5,30.15,WNW,282,4.0,6.0,58,0.00,,---,0.00,VWS V14.01,2013-11-06 02:19:00,
2013-11-05 21:20:00,49.0,34.9,30.15,WSW,253,3.0,6.0,58,0.00,,---,0.00,VWS V14.01,2013-11-06 02:20:00,
2013-11-05 21:21:00,49.4,35.3,30.15,West,266,1.0,6.0,58,0.00,,---,0.00,VWS V14.01,2013-11-06 02:21:00,
2013-11-05 21:22:00,49.7,34.7,30.15,West,262,3.0,6.0,56,0.00,,---,0.00,VWS V14.01,2013-11-06 02:22:00,
2013-11-05 21:23:00,50.0,35.8,30.15,West,265,0.0,6.0,58,0.00,,---,0.00,VWS V14.01,2013-11-06 02:23:00,
2013-11-05 21:24:00,50.1,35.0,30.15,WNW,287,5.0,7.0,56,0.00,,---,0.00,VWS V14.01,2013-11-06 02:24:00,
2013-11-05 21:25:00,50.4,34.9,30.15,WNW,290,1.0,7.0,55,0.00,,---,0.00,VWS V14.01,2013-11-06 02:25:00,
2013-11-05 21:26:00,50.6,35.0,30.15,WNW,288,2.0,7.0,55,0.00,,---,0.00,VWS V14.01,2013-11-06 02:26:00,
2013-11-05 21:27:00,50.8,35.2,30.15,West,279,8.0,8.0,55,0.00,,---,0.00,VWS V14.01,2013-11-06 02:27:00,
2013-11-05 21:28:00,50.9,34.4,30.15,West,267,4.0,8.0,53,0.00,,---,0.00,VWS V14.01,2013-11-06 02:28:00,
2013-11-05 21:29:00,51.0,34.5,30.16,West,266,4.0,8.0,53,0.00,,---,0.00,VWS V14.01,2013-11-06 02:29:00,
2013-11-05 21:30:00,51.2,34.7,30.16,WNW,298,3.0,4.0,53,0.00,,---,0.00,VWS V14.01,2013-11-06 02:30:00,
2013-11-05 21:31:00,51.2,34.7,30.16,West,268,2.0,6.0,53,0.00,,---,0.00,VWS V14.01,2013-11-06 02:31:00,
2013-11-05 21:32:00,51.2,35.1,30.16,WNW,288,3.0,6.0,54,0.00,,---,0.00,VWS V14.01,2013-11-06 02:32:00,
2013-11-05 21:33:00,51.3,34.3,30.16,WNW,288,4.0,6.0,52,0.00,,---,0.00,VWS V14.01,2013-11-06 02:33:00,
2013-11-05 21:34:00,51.3,34.8,30.16,WNW,286,2.0,7.0,53,0.00,,---,0.00,VWS V14.01,2013-11-06 02:34:00,
2013-11-05 21:35:00,51.3,34.8,30.16,WNW,294,2.0,7.0,53,0.00,,---,0.00,VWS V14.01,2013-11-06 02:35:00,
2013-11-05 21:36:00,51.4,34.9,30.16,WNW,288,3.0,7.0,53,0.00,,---,0.00,VWS V14.01,2013-11-06 02:36:00,
2013-11-05 21:37:00,51.5,34.5,30.16,West,263,4.0,7.0,52,0.00,,---,0.00,VWS V14.01,2013-11-06 02:37:00,
2013-11-05 21:38:00,51.5,34.5,30.16,West,264,2.0,7.0,52,0.00,,---,0.00,VWS V14.01,2013-11-06 02:38:00,
2013-11-05 21:39:00,51.5,35.0,30.16,WNW,296,5.0,7.0,53,0.00,,---,0.00,VWS V14.01,2013-11-06 02:39:00,
2013-11-05 21:40:00,51.6,34.6,30.16,WNW,298,3.0,7.0,52,0.00,,---,0.00,VWS V14.01,2013-11-06 02:40:00,
2013-11-05 21:41:00,51.7,34.7,30.16,WNW,302,5.0,5.0,52,0.00,,---,0.00,VWS V14.01,2013-11-06 02:41:00,
2013-11-05 21:42:00,51.8,34.8,30.16,WNW,296,6.0,6.0,52,0.00,,---,0.00,VWS V14.01,2013-11-06 02:42:00,
2013-11-05 21:43:00,51.8,34.8,30.16,WNW,298,5.0,7.0,52,0.00,,---,0.00,VWS V14.01,2013-11-06 02:43:00,
2013-11-05 21:44:00,51.9,34.8,30.16,West,271,3.0,7.0,52,0.00,,---,0.00,VWS V14.01,2013-11-06 02:44:00,
2013-11-05 21:45:00,52.0,34.9,30.16,West,279,2.0,7.0,52,0.00,,---,0.00,VWS V14.01,2013-11-06 02:45:00,
2013-11-05 21:46:00,52.0,34.5,30.16,West,264,7.0,7.0,51,0.00,,---,0.00,VWS V14.01,2013-11-06 02:46:00,
2013-11-05 21:47:00,52.1,34.5,30.16,WNW,290,5.0,7.0,51,0.00,,---,0.00,VWS V14.01,2013-11-06 02:47:00,
2013-11-05 21:48:00,52.1,34.5,30.16,West,266,6.0,9.0,51,0.00,,---,0.00,VWS V14.01,2013-11-06 02:48:00,
2013-11-05 21:49:00,52.2,34.6,30.16,West,278,5.0,9.0,51,0.00,,---,0.00,VWS V14.01,2013-11-06 02:49:00,
2013-11-05 21:50:00,52.2,34.6,30.16,SW,224,5.0,9.0,51,0.00,,---,0.00,VWS V14.01,2013-11-06 02:50:00,
2013-11-05 21:51:00,52.3,34.7,30.16,West,264,3.0,6.0,51,0.00,,---,0.00,VWS V14.01,2013-11-06 02:51:00,
2013-11-05 21:52:00,52.4,35.3,30.16,West,265,0.0,6.0,52,0.00,,---,0.00,VWS V14.01,2013-11-06 02:52:00,
2013-11-05 21:53:00,52.6,36.0,30.16,WNW,292,1.0,6.0,53,0.00,,---,0.00,VWS V14.01,2013-11-06 02:53:00,
2013-11-05 21:54:00,52.7,35.1,30.16,West,274,3.0,6.0,51,0.00,,---,0.00,VWS V14.01,2013-11-06 02:54:00,
2013-11-05 21:55:00,52.9,35.3,30.16,West,281,3.0,6.0,51,0.00,,---,0.00,VWS V14.01,2013-11-06 02:55:00,
2013-11-05 21:56:00,53.0,35.4,30.16,West,278,3.0,6.0,51,0.00,,---,0.00,VWS V14.01,2013-11-06 02:56:00,
2013-11-05 21:57:00,53.2,36.5,30.16,WSW,238,7.0,7.0,53,0.00,,---,0.00,VWS V14.01,2013-11-06 02:57:00,
2013-11-05 21:58:00,53.3,36.6,30.16,West,280,2.0,7.0,53,0.00,,---,0.00,VWS V14.01,2013-11-06 02:58:00,
2013-11-05 21:59:00,53.5,35.8,30.15,West,263,3.0,7.0,51,0.00,,---,0.00,VWS V14.01,2013-11-06 02:59:00,
2013-11-05 22:00:00,53.7,36.5,30.15,SW,221,0.0,7.0,52,0.00,,---,0.00,VWS V14.01,2013-11-06 03:00:00,
2013-11-05 22:01:00,53.8,36.6,30.15,WNW,286,0.0,2.0,52,0.00,,---,0.00,VWS V14.01,2013-11-06 03:01:00,
2013-11-05 22:02:00,53.9,36.7,30.15,WNW,286,0.0,3.0,52,0.00,,---,0.00,VWS V14.01,2013-11-06 03:02:00,
2013-11-05 22:03:00,54.0,36.3,30.15,West,271,0.0,3.0,51,0.00,,---,0.00,VWS V14.01,2013-11-06 03:03:00,
2013-11-05 22:04:00,54.1,36.4,30.15,West,269,5.0,6.0,51,0.00,,---,0.00,VWS V14.01,2013-11-06 03:04:00,
2013-11-05 22:05:00,54.1,35.9,30.15,West,261,4.0,6.0,50,0.00,,---,0.00,VWS V14.01,2013-11-06 03:05:00,
2013-11-05 22:06:00,54.2,36.0,30.15,WSW,246,5.0,6.0,50,0.00,,---,0.00,VWS V14.01,2013-11-06 03:06:00,
2013-11-05 22:07:00,54.3,36.1,30.15,WSW,258,3.0,6.0,50,0.00,,---,0.00,VWS V14.01,2013-11-06 03:07:00,
2013-11-05 22:08:00,54.3,36.1,30.15,SSW,208,1.0,6.0,50,0.00,,---,0.00,VWS V14.01,2013-11-06 03:08:00,
2013-11-05 22:09:00,54.4,36.2,30.15,WNW,285,2.0,6.0,50,0.00,,---,0.00,VWS V14.01,2013-11-06 03:09:00,
2013-11-05 22:10:00,54.4,36.2,30.15,WSW,253,4.0,6.0,50,0.00,,---,0.00,VWS V14.01,2013-11-06 03:10:00,
2013-11-05 22:11:00,54.5,36.8,30.15,WSW,253,0.0,4.0,51,0.00,,---,0.00,VWS V14.01,2013-11-06 03:11:00,
2013-11-05 22:12:00,54.6,36.8,30.15,WSW,253,0.0,4.0,51,0.00,,---,0.00,VWS V14.01,2013-11-06 03:12:00,
2013-11-05 22:13:00,54.7,37.9,30.15,WSW,253,0.0,4.0,53,0.00,,---,0.00,VWS V14.01,2013-11-06 03:13:00,
2013-11-05 22:14:00,54.9,37.1,30.15,WSW,253,0.0,4.0,51,0.00,,---,0.00,VWS V14.01,2013-11-06 03:14:00,
2013-11-05 22:15:00,55.0,36.2,30.15,WSW,253,1.0,4.0,49,0.00,,---,0.00,VWS V14.01,2013-11-06 03:15:00,
2013-11-05 22:16:00,55.0,36.2,30.15,West,265,5.0,5.0,49,0.00,,---,0.00,VWS V14.01,2013-11-06 03:16:00,
2013-11-05 22:17:00,55.0,36.2,30.15,SW,233,2.0,5.0,49,0.00,,---,0.00,VWS V14.01,2013-11-06 03:17:00,
2013-11-05 22:18:00,55.0,37.7,30.15,WNW,285,2.0,5.0,52,0.00,,---,0.00,VWS V14.01,2013-11-06 03:18:00,
2013-11-05 22:19:00,55.1,36.8,30.15,West,276,3.0,5.0,50,0.00,,---,0.00,VWS V14.01,2013-11-06 03:19:00,
2013-11-05 22:20:00,55.1,36.3,30.15,West,276,3.0,6.0,49,0.00,,---,0.00,VWS V14.01,2013-11-06 03:20:00,
2013-11-05 22:21:00,55.2,36.4,30.15,WNW,282,4.0,4.0,49,0.00,,---,0.00,VWS V14.01,2013-11-06 03:21:00,
2013-11-05 22:22:00,55.2,36.4,30.15,WNW,284,0.0,4.0,49,0.00,,---,0.00,VWS V14.01,2013-11-06 03:22:00,
2013-11-05 22:23:00,55.3,37.0,30.15,WNW,284,0.0,4.0,50,0.00,,---,0.00,VWS V14.01,2013-11-06 03:23:00,
2013-11-05 22:24:00,55.4,37.1,30.15,NW,314,1.0,5.0,50,0.00,,---,0.00,VWS V14.01,2013-11-06 03:24:00,
2013-11-05 22:25:00,55.5,36.7,30.15,WNW,288,2.0,5.0,49,0.00,,---,0.00,VWS V14.01,2013-11-06 03:25:00,
2013-11-05 22:26:00,55.6,37.3,30.15,SW,229,3.0,5.0,50,0.00,,---,0.00,VWS V14.01,2013-11-06 03:26:00,
2013-11-05 22:27:00,55.8,37.5,30.15,West,261,4.0,5.0,50,0.00,,---,0.00,VWS V14.01,2013-11-06 03:27:00,
2013-11-05 22:28:00,55.9,37.0,30.15,WSW,258,4.0,7.0,49,0.00,,---,0.00,VWS V14.01,2013-11-06 03:28:00,
2013-11-05 22:29:00,56.0,36.6,30.15,WSW,248,3.0,7.0,48,0.00,,---,0.00,VWS V14.01,2013-11-06 03:29:00,
2013-11-05 22:30:00,56.2,37.3,30.15,WSW,248,1.0,7.0,49,0.00,,---,0.00,VWS V14.01,2013-11-06 03:30:00,
2013-11-05 22:31:00,56.4,37.5,30.15,West,273,0.0,5.0,49,0.00,,---,0.00,VWS V14.01,2013-11-06 03:31:00,
2013-11-05 22:32:00,56.6,37.2,30.15,West,273,2.0,5.0,48,0.00,,---,0.00,VWS V14.01,2013-11-06 03:32:00,
2013-11-05 22:33:00,56.8,37.9,30.15,WSW,240,2.0,6.0,49,0.00,,---,0.00,VWS V14.01,2013-11-06 03:33:00,
2013-11-05 22:34:00,57.0,37.5,30.15,West,279,5.0,6.0,48,0.00,,---,0.00,VWS V14.01,2013-11-06 03:34:00,
2013-11-05 22:35:00,57.1,37.1,30.15,West,261,3.0,7.0,47,0.00,,---,0.00,VWS V14.01,2013-11-06 03:35:00,
2013-11-05 22:36:00,57.1,37.1,30.15,West,267,0.0,7.0,47,0.00,,---,0.00,VWS V14.01,2013-11-06 03:36:00,
2013-11-05 22:37:00,57.2,37.7,30.15,WSW,242,3.0,7.0,48,0.00,,---,0.00,VWS V14.01,2013-11-06 03:37:00,
2013-11-05 22:38:00,57.3,37.8,30.15,West,267,2.0,7.0,48,0.00,,---,0.00,VWS V14.01,2013-11-06 03:38:00,
2013-11-05 22:39:00,57.4,37.9,30.15,West,267,1.0,7.0,48,0.00,,---,0.00,VWS V14.01,2013-11-06 03:39:00,
2013-11-05 22:40:00,57.6,38.6,30.15,WSW,241,2.0,7.0,49,0.00,,---,0.00,VWS V14.01,2013-11-06 03:40:00,
2013-11-05 22:41:00,57.8,37.7,30.15,SW,230,4.0,7.0,47,0.00,,---,0.00,VWS V14.01,2013-11-06 03:41:00,
2013-11-05 22:42:00,57.9,37.8,30.15,West,275,5.0,7.0,47,0.00,,---,0.00,VWS V14.01,2013-11-06 03:42:00,
2013-11-05 22:43:00,58.0,37.9,30.15,SSW,207,5.0,7.0,47,0.00,,---,0.00,VWS V14.01,2013-11-06 03:43:00,
2013-11-05 22:44:00,58.1,37.5,30.15,WNW,301,3.0,7.0,46,0.00,,---,0.00,VWS V14.01,2013-11-06 03:44:00,
2013-11-05 22:45:00,58.2,37.5,30.15,West,273,1.0,7.0,46,0.00,,---,0.00,VWS V14.01,2013-11-06 03:45:00,
2013-11-05 22:46:00,58.2,37.0,30.15,West,272,2.0,10.0,45,0.00,,---,0.00,VWS V14.01,2013-11-06 03:46:00,
2013-11-05 22:47:00,58.3,37.6,30.15,SW,232,7.0,10.0,46,0.00,,---,0.00,VWS V14.01,2013-11-06 03:47:00,
2013-11-05 22:48:00,58.4,37.7,30.15,SW,215,5.0,10.0,46,0.00,,---,0.00,VWS V14.01,2013-11-06 03:48:00,
2013-11-05 22:49:00,58.5,38.4,30.15,SW,231,4.0,10.0,47,0.00,,---,0.00,VWS V14.01,2013-11-06 03:49:00,
2013-11-05 22:50:00,58.6,37.3,30.15,WSW,254,4.0,10.0,45,0.00,,---,0.00,VWS V14.01,2013-11-06 03:50:00,
2013-11-05 22:51:00,58.6,37.9,30.15,WSW,255,0.0,6.0,46,0.00,,---,0.00,VWS V14.01,2013-11-06 03:51:00,
2013-11-05 22:52:00,58.8,38.1,30.15,West,274,3.0,6.0,46,0.00,,---,0.00,VWS V14.01,2013-11-06 03:52:00,
2013-11-05 22:53:00,58.9,37.0,30.15,West,269,7.0,7.0,44,0.00,,---,0.00,VWS V14.01,2013-11-06 03:53:00,
2013-11-05 22:54:00,58.9,37.0,30.15,WSW,246,5.0,8.0,44,0.00,,---,0.00,VWS V14.01,2013-11-06 03:54:00,
2013-11-05 22:55:00,58.9,37.6,30.15,WSW,240,5.0,8.0,45,0.00,,---,0.00,VWS V14.01,2013-11-06 03:55:00,
2013-11-05 22:56:00,59.0,37.7,30.15,WSW,253,4.0,8.0,45,0.00,,---,0.00,VWS V14.01,2013-11-06 03:56:00,
2013-11-05 22:57:00,59.0,37.1,30.15,WSW,258,3.0,8.0,44,0.00,,---,0.00,VWS V14.01,2013-11-06 03:57:00,
2013-11-05 22:58:00,59.1,37.2,30.15,West,274,4.0,8.0,44,0.00,,---,0.00,VWS V14.01,2013-11-06 03:58:00,
2013-11-05 22:59:00,59.2,38.5,30.15,West,271,3.0,8.0,46,0.00,,---,0.00,VWS V14.01,2013-11-06 03:59:00,
2013-11-05 23:00:00,59.3,37.4,30.15,SSW,210,3.0,8.0,44,0.00,,---,0.00,VWS V14.01,2013-11-06 04:00:00,
2013-11-05 23:01:00,59.4,38.6,30.15,SSW,210,0.0,3.0,46,0.00,,---,0.00,VWS V14.01,2013-11-06 04:01:00,
2013-11-05 23:02:00,59.6,38.8,30.15,SW,223,1.0,3.0,46,0.00,,---,0.00,VWS V14.01,2013-11-06 04:02:00,
2013-11-05 23:03:00,60.0,38.0,30.15,West,278,0.0,4.0,44,0.00,,---,0.00,VWS V14.01,2013-11-06 04:03:00,
2013-11-05 23:04:00,60.2,38.8,30.15,SW,236,2.0,4.0,45,0.00,,---,0.00,VWS V14.01,2013-11-06 04:04:00,
2013-11-05 23:05:00,60.3,38.3,30.15,West,271,4.0,5.0,44,0.00,,---,0.00,VWS V14.01,2013-11-06 04:05:00,
2013-11-05 23:06:00,60.3,38.3,30.15,WNW,286,6.0,7.0,44,0.00,,---,0.00,VWS V14.01,2013-11-06 04:06:00,
2013-11-05 23:07:00,60.2,37.6,30.15,WSW,243,4.0,7.0,43,0.00,,---,0.00,VWS V14.01,2013-11-06 04:07:00,
2013-11-05 23:08:00,60.2,37.6,30.15,SW,220,5.0,10.0,43,0.00,,---,0.00,VWS V14.01,2013-11-06 04:08:00,
2013-11-05 23:09:00,60.1,38.1,30.15,WSW,253,0.0,10.0,44,0.00,,---,0.00,VWS V14.01,2013-11-06 04:09:00,
2013-11-05 23:10:00,60.1,38.7,30.15,SW,229,3.0,10.0,45,0.00,,---,0.00,VWS V14.01,2013-11-06 04:10:00,
2013-11-05 23:11:00,60.1,38.1,30.15,SW,225,5.0,9.0,44,0.00,,---,0.00,VWS V14.01,2013-11-06 04:11:00,
2013-11-05 23:12:00,60.1,38.7,30.15,SSW,206,6.0,10.0,45,0.00,,---,0.00,VWS V14.01,2013-11-06 04:12:00,
2013-11-05 23:13:00,60.0,38.6,30.15,West,267,4.0,10.0,45,0.00,,---,0.00,VWS V14.01,2013-11-06 04:13:00,
2013-11-05 23:14:00,60.0,38.0,30.14,WNW,302,5.0,10.0,44,0.00,,---,0.00,VWS V14.01,2013-11-06 04:14:00,
2013-11-05 23:15:00,60.0,38.0,30.14,WNW,288,4.0,10.0,44,0.00,,---,0.00,VWS V14.01,2013-11-06 04:15:00,
2013-11-05 23:16:00,60.0,38.0,30.14,West,278,8.0,10.0,44,0.00,,---,0.00,VWS V14.01,2013-11-06 04:16:00,
2013-11-05 23:17:00,60.1,38.1,30.14,WNW,283,2.0,10.0,44,0.00,,---,0.00,VWS V14.01,2013-11-06 04:17:00,
2013-11-05 23:18:00,60.3,38.9,30.14,WSW,242,2.0,10.0,45,0.00,,---,0.00,VWS V14.01,2013-11-06 04:18:00,
2013-11-05 23:19:00,60.3,38.9,30.14,West,265,3.0,10.0,45,0.00,,---,0.00,VWS V14.01,2013-11-06 04:19:00,
2013-11-05 23:20:00,60.4,38.4,30.14,SSW,206,5.0,10.0,44,0.00,,---,0.00,VWS V14.01,2013-11-06 04:20:00,
2013-11-05 23:21:00,60.5,38.5,30.14,SW,228,3.0,10.0,44,0.00,,---,0.00,VWS V14.01,2013-11-06 04:21:00,
2013-11-05 23:22:00,60.6,38.6,30.14,WSW,252,5.0,10.0,44,0.00,,---,0.00,VWS V14.01,2013-11-06 04:22:00,
2013-11-05 23:23:00,60.7,38.7,30.14,WSW,240,3.0,10.0,44,0.00,,---,0.00,VWS V14.01,2013-11-06 04:23:00,
2013-11-05 23:24:00,60.8,39.3,30.14,SSW,198,8.0,10.0,45,0.00,,---,0.00,VWS V14.01,2013-11-06 04:24:00,
2013-11-05 23:25:00,60.7,38.7,30.14,SW,218,4.0,11.0,44,0.00,,---,0.00,VWS V14.01,2013-11-06 04:25:00,
2013-11-05 23:26:00,60.4,38.4,30.14,WNW,290,3.0,11.0,44,0.00,,---,0.00,VWS V14.01,2013-11-06 04:26:00,
2013-11-05 23:27:00,60.5,39.1,30.14,WSW,243,4.0,11.0,45,0.00,,---,0.00,VWS V14.01,2013-11-06 04:27:00,
2013-11-05 23:28:00,60.5,38.5,30.14,WNW,288,1.0,11.0,44,0.00,,---,0.00,VWS V14.01,2013-11-06 04:28:00,
2013-11-05 23:29:00,60.7,39.3,30.14,South,177,4.0,11.0,45,0.00,,---,0.00,VWS V14.01,2013-11-06 04:29:00,
2013-11-05 23:30:00,60.9,38.9,30.14,WSW,251,5.0,11.0,44,0.00,,---,0.00,VWS V14.01,2013-11-06 04:30:00,
2013-11-05 23:31:00,61.1,39.0,30.14,SSW,210,2.0,5.0,44,0.00,,---,0.00,VWS V14.01,2013-11-06 04:31:00,
2013-11-05 23:32:00,61.4,39.3,30.14,WSW,249,2.0,5.0,44,0.00,,---,0.00,VWS V14.01,2013-11-06 04:32:00,
2013-11-05 23:33:00,61.6,40.6,30.14,South,188,7.0,9.0,46,0.00,,---,0.00,VWS V14.01,2013-11-06 04:33:00,
2013-11-05 23:34:00,61.5,38.8,30.14,WSW,255,6.0,13.0,43,0.00,,---,0.00,VWS V14.01,2013-11-06 04:34:00,
2013-11-05 23:35:00,61.4,39.3,30.14,SW,215,9.0,13.0,44,0.00,,---,0.00,VWS V14.01,2013-11-06 04:35:00,
2013-11-05 23:36:00,61.3,39.2,30.14,WSW,241,3.0,13.0,44,0.00,,---,0.00,VWS V14.01,2013-11-06 04:36:00,
2013-11-05 23:37:00,61.1,38.5,30.14,SW,217,12.0,13.0,43,0.00,,---,0.00,VWS V14.01,2013-11-06 04:37:00,
2013-11-05 23:38:00,61.0,38.4,30.14,South,177,6.0,13.0,43,0.00,,---,0.00,VWS V14.01,2013-11-06 04:38:00,
2013-11-05 23:39:00,61.1,39.0,30.14,SSW,213,4.0,13.0,44,0.00,,---,0.00,VWS V14.01,2013-11-06 04:39:00,
2013-11-05 23:40:00,61.1,39.0,30.14,WSW,257,3.0,13.0,44,0.00,,---,0.00,VWS V14.01,2013-11-06 04:40:00,
2013-11-05 23:41:00,61.2,39.1,30.14,WSW,240,8.0,11.0,44,0.00,,---,0.00,VWS V14.01,2013-11-06 04:41:00,
2013-11-05 23:42:00,61.2,38.5,30.14,WSW,238,10.0,11.0,43,0.00,,---,0.00,VWS V14.01,2013-11-06 04:42:00,
2013-11-05 23:43:00,61.2,38.5,30.14,SSW,211,2.0,11.0,43,0.00,,---,0.00,VWS V14.01,2013-11-06 04:43:00,
2013-11-05 23:44:00,61.4,39.3,30.14,WSW,244,0.0,11.0,44,0.00,,---,0.00,VWS V14.01,2013-11-06 04:44:00,
2013-11-05 23:45:00,61.8,39.7,30.14,West,259,1.0,11.0,44,0.00,,---,0.00,VWS V14.01,2013-11-06 04:45:00,
2013-11-05 23:46:00,62.0,39.9,30.14,SW,215,7.0,11.0,44,0.00,,---,0.00,VWS V14.01,2013-11-06 04:46:00,
2013-11-05 23:47:00,62.0,38.7,30.14,SSW,212,4.0,11.0,42,0.00,,---,0.00,VWS V14.01,2013-11-06 04:47:00,
2013-11-05 23:48:00,61.9,38.6,30.14,West,269,6.0,11.0,42,0.00,,---,0.00,VWS V14.01,2013-11-06 04:48:00,
2013-11-05 23:49:00,62.0,39.3,30.14,WNW,285,9.0,11.0,43,0.00,,---,0.00,VWS V14.01,2013-11-06 04:49:00,
2013-11-05 23:50:00,62.0,38.7,30.14,West,261,4.0,11.0,42,0.00,,---,0.00,VWS V14.01,2013-11-06 04:50:00,
2013-11-05 23:51:00,61.9,38.6,30.14,WNW,286,2.0,11.0,42,0.00,,---,0.00,VWS V14.01,2013-11-06 04:51:00,
2013-11-05 23:52:00,61.9,38.6,30.14,WSW,242,9.0,11.0,42,0.00,,---,0.00,VWS V14.01,2013-11-06 04:52:00,
2013-11-05 23:53:00,62.0,38.7,30.14,SSW,200,0.0,11.0,42,0.00,,---,0.00,VWS V14.01,2013-11-06 04:53:00,
2013-11-05 23:54:00,62.3,40.1,30.14,SSW,213,2.0,2.0,44,0.00,,---,0.00,VWS V14.01,2013-11-06 04:54:00,
2013-11-05 23:55:00,62.5,39.1,30.14,SW,223,7.0,8.0,42,0.00,,---,0.00,VWS V14.01,2013-11-06 04:55:00,
2013-11-05 23:56:00,62.6,39.2,30.14,West,271,3.0,8.0,42,0.00,,---,0.00,VWS V14.01,2013-11-06 04:56:00,
2013-11-05 23:57:00,62.7,39.3,30.14,WSW,248,6.0,9.0,42,0.00,,---,0.00,VWS V14.01,2013-11-06 04:57:00,
2013-11-05 23:58:00,62.7,39.3,30.14,WNW,283,10.0,10.0,42,0.00,,---,0.00,VWS V14.01,2013-11-06 04:58:00,
2013-11-05 23:59:00,62.7,38.7,30.13,WSW,253,5.0,10.0,41,0.00,,---,0.00,VWS V14.01,2013-11-06 04:59:00,